<?xml version="1.0" encoding="UTF-8" standalone="no" ?>
<gpx xmlns="http://www.topografix.com/GPX/1/1" xmlns:xsi="http://www.w3.org/2001/XMLSchema-instance" xsi:schemaLocation="http://www.topografix.com/GPX/1/1 http://www.topografix.com/GPX/1/1/gpx.xsd" version="1.1" creator="VisuGPX - https://www.visugpx.com">
  <metadata>
    <name>Domblans Château-Chalon</name>
    <desc><![CDATA[Randonnée effectuée le 20 octobre 2017.
L'indice IBP d'effort est de 54, (suivant l'échelle de la FFRP) un score compris entre 51 et 75 correspond au niveau 3 qualifié de "PEU DIFFICILE". La randonnée pédestre nécessite un certain engagement physique qui reste toutefois mesuré. Ce niveau correspond à des randonnées pédestres modérées.
]]></desc>
  </metadata>
  <trk>
    <name><![CDATA[19 oct. 2017 à 08:52:28]]></name>
    <cmt><![CDATA[19 oct. 2017 à 08:52:28]]></cmt>
    <trkseg>
      <trkpt lat="46.76738" lon="5.60037">
        <ele>244</ele>
        <time>2017-10-19T06:52:28Z</time>
      </trkpt>
      <trkpt lat="46.76737" lon="5.60045">
        <ele>244</ele>
        <time>2017-10-19T06:52:34Z</time>
      </trkpt>
      <trkpt lat="46.76734" lon="5.6005">
        <ele>244</ele>
        <time>2017-10-19T06:52:39Z</time>
      </trkpt>
      <trkpt lat="46.7673" lon="5.60055">
        <ele>244</ele>
        <time>2017-10-19T06:52:44Z</time>
      </trkpt>
      <trkpt lat="46.76731" lon="5.60063">
        <ele>244</ele>
        <time>2017-10-19T06:52:52Z</time>
      </trkpt>
      <trkpt lat="46.76739" lon="5.60073">
        <ele>243</ele>
        <time>2017-10-19T06:53:02Z</time>
      </trkpt>
      <trkpt lat="46.76758" lon="5.60099">
        <ele>243</ele>
        <time>2017-10-19T06:53:25Z</time>
      </trkpt>
      <trkpt lat="46.76764" lon="5.60111">
        <ele>242</ele>
        <time>2017-10-19T06:53:35Z</time>
      </trkpt>
      <trkpt lat="46.76787" lon="5.6015">
        <ele>243</ele>
        <time>2017-10-19T06:54:05Z</time>
      </trkpt>
      <trkpt lat="46.76807" lon="5.60182">
        <ele>244</ele>
        <time>2017-10-19T06:54:30Z</time>
      </trkpt>
      <trkpt lat="46.76821" lon="5.60205">
        <ele>244</ele>
        <time>2017-10-19T06:54:46Z</time>
      </trkpt>
      <trkpt lat="46.76836" lon="5.60224">
        <ele>243</ele>
        <time>2017-10-19T06:55:02Z</time>
      </trkpt>
      <trkpt lat="46.76866" lon="5.60252">
        <ele>246</ele>
        <time>2017-10-19T06:55:36Z</time>
      </trkpt>
      <trkpt lat="46.7687" lon="5.60256">
        <ele>246</ele>
        <time>2017-10-19T06:55:40Z</time>
      </trkpt>
      <trkpt lat="46.76883" lon="5.60267">
        <ele>246</ele>
        <time>2017-10-19T06:55:54Z</time>
      </trkpt>
      <trkpt lat="46.76892" lon="5.60274">
        <ele>246</ele>
        <time>2017-10-19T06:56:04Z</time>
      </trkpt>
      <trkpt lat="46.76896" lon="5.60276">
        <ele>246</ele>
        <time>2017-10-19T06:56:09Z</time>
      </trkpt>
      <trkpt lat="46.76901" lon="5.60277">
        <ele>246</ele>
        <time>2017-10-19T06:56:13Z</time>
      </trkpt>
      <trkpt lat="46.76911" lon="5.60281">
        <ele>247</ele>
        <time>2017-10-19T06:56:21Z</time>
      </trkpt>
      <trkpt lat="46.76924" lon="5.60289">
        <ele>250</ele>
        <time>2017-10-19T06:56:38Z</time>
      </trkpt>
      <trkpt lat="46.76939" lon="5.60305">
        <ele>255</ele>
        <time>2017-10-19T06:57:09Z</time>
      </trkpt>
      <trkpt lat="46.76943" lon="5.60308">
        <ele>255</ele>
        <time>2017-10-19T06:57:12Z</time>
      </trkpt>
      <trkpt lat="46.76967" lon="5.60323">
        <ele>260</ele>
        <time>2017-10-19T06:57:36Z</time>
      </trkpt>
      <trkpt lat="46.77002" lon="5.60325">
        <ele>263</ele>
        <time>2017-10-19T06:58:09Z</time>
      </trkpt>
      <trkpt lat="46.77037" lon="5.60325">
        <ele>266</ele>
        <time>2017-10-19T06:58:43Z</time>
      </trkpt>
      <trkpt lat="46.77071" lon="5.60322">
        <ele>269</ele>
        <time>2017-10-19T06:59:19Z</time>
      </trkpt>
      <trkpt lat="46.77085" lon="5.60318">
        <ele>272</ele>
        <time>2017-10-19T06:59:35Z</time>
      </trkpt>
      <trkpt lat="46.77115" lon="5.60317">
        <ele>275</ele>
        <time>2017-10-19T07:00:06Z</time>
      </trkpt>
      <trkpt lat="46.7713" lon="5.60318">
        <ele>277</ele>
        <time>2017-10-19T07:00:22Z</time>
      </trkpt>
      <trkpt lat="46.77144" lon="5.60327">
        <ele>279</ele>
        <time>2017-10-19T07:00:39Z</time>
      </trkpt>
      <trkpt lat="46.77144" lon="5.60334">
        <ele>280</ele>
        <time>2017-10-19T07:00:49Z</time>
      </trkpt>
      <trkpt lat="46.77142" lon="5.60352">
        <ele>281</ele>
        <time>2017-10-19T07:01:17Z</time>
      </trkpt>
      <trkpt lat="46.77139" lon="5.60358">
        <ele>281</ele>
        <time>2017-10-19T07:01:23Z</time>
      </trkpt>
      <trkpt lat="46.77137" lon="5.60365">
        <ele>282</ele>
        <time>2017-10-19T07:01:28Z</time>
      </trkpt>
      <trkpt lat="46.77136" lon="5.60379">
        <ele>281</ele>
        <time>2017-10-19T07:01:39Z</time>
      </trkpt>
      <trkpt lat="46.77136" lon="5.60386">
        <ele>281</ele>
        <time>2017-10-19T07:01:43Z</time>
      </trkpt>
      <trkpt lat="46.77136" lon="5.60404">
        <ele>280</ele>
        <time>2017-10-19T07:02:01Z</time>
      </trkpt>
      <trkpt lat="46.77133" lon="5.6041">
        <ele>280</ele>
        <time>2017-10-19T07:02:08Z</time>
      </trkpt>
      <trkpt lat="46.77133" lon="5.6043">
        <ele>281</ele>
        <time>2017-10-19T07:02:57Z</time>
      </trkpt>
      <trkpt lat="46.77132" lon="5.60437">
        <ele>281</ele>
        <time>2017-10-19T07:03:02Z</time>
      </trkpt>
      <trkpt lat="46.77126" lon="5.60466">
        <ele>280</ele>
        <time>2017-10-19T07:03:22Z</time>
      </trkpt>
      <trkpt lat="46.77126" lon="5.60479">
        <ele>280</ele>
        <time>2017-10-19T07:03:28Z</time>
      </trkpt>
      <trkpt lat="46.77123" lon="5.60485">
        <ele>280</ele>
        <time>2017-10-19T07:03:32Z</time>
      </trkpt>
      <trkpt lat="46.7712" lon="5.60498">
        <ele>280</ele>
        <time>2017-10-19T07:03:39Z</time>
      </trkpt>
      <trkpt lat="46.77119" lon="5.60521">
        <ele>280</ele>
        <time>2017-10-19T07:03:52Z</time>
      </trkpt>
      <trkpt lat="46.77118" lon="5.60528">
        <ele>281</ele>
        <time>2017-10-19T07:03:56Z</time>
      </trkpt>
      <trkpt lat="46.77117" lon="5.60543">
        <ele>280</ele>
        <time>2017-10-19T07:04:09Z</time>
      </trkpt>
      <trkpt lat="46.7712" lon="5.60556">
        <ele>280</ele>
        <time>2017-10-19T07:04:19Z</time>
      </trkpt>
      <trkpt lat="46.77131" lon="5.60594">
        <ele>281</ele>
        <time>2017-10-19T07:04:42Z</time>
      </trkpt>
      <trkpt lat="46.77136" lon="5.60619">
        <ele>283</ele>
        <time>2017-10-19T07:04:59Z</time>
      </trkpt>
      <trkpt lat="46.77139" lon="5.60633">
        <ele>283</ele>
        <time>2017-10-19T07:05:09Z</time>
      </trkpt>
      <trkpt lat="46.77142" lon="5.60647">
        <ele>283</ele>
        <time>2017-10-19T07:05:19Z</time>
      </trkpt>
      <trkpt lat="46.77145" lon="5.6066">
        <ele>285</ele>
        <time>2017-10-19T07:05:28Z</time>
      </trkpt>
      <trkpt lat="46.77152" lon="5.60668">
        <ele>287</ele>
        <time>2017-10-19T07:06:18Z</time>
      </trkpt>
      <trkpt lat="46.77157" lon="5.60679">
        <ele>289</ele>
        <time>2017-10-19T07:06:29Z</time>
      </trkpt>
      <trkpt lat="46.77156" lon="5.60694">
        <ele>289</ele>
        <time>2017-10-19T07:06:38Z</time>
      </trkpt>
      <trkpt lat="46.77155" lon="5.60701">
        <ele>290</ele>
        <time>2017-10-19T07:06:43Z</time>
      </trkpt>
      <trkpt lat="46.77155" lon="5.60715">
        <ele>288</ele>
        <time>2017-10-19T07:06:54Z</time>
      </trkpt>
      <trkpt lat="46.77155" lon="5.60722">
        <ele>289</ele>
        <time>2017-10-19T07:06:57Z</time>
      </trkpt>
      <trkpt lat="46.7716" lon="5.60728">
        <ele>289</ele>
        <time>2017-10-19T07:07:08Z</time>
      </trkpt>
      <trkpt lat="46.77164" lon="5.60732">
        <ele>289</ele>
        <time>2017-10-19T07:07:13Z</time>
      </trkpt>
      <trkpt lat="46.77169" lon="5.6074">
        <ele>290</ele>
        <time>2017-10-19T07:07:30Z</time>
      </trkpt>
      <trkpt lat="46.77174" lon="5.60744">
        <ele>293</ele>
        <time>2017-10-19T07:07:51Z</time>
      </trkpt>
      <trkpt lat="46.77176" lon="5.6076">
        <ele>295</ele>
        <time>2017-10-19T07:08:14Z</time>
      </trkpt>
      <trkpt lat="46.77186" lon="5.60754">
        <ele>295</ele>
        <time>2017-10-19T07:08:34Z</time>
      </trkpt>
      <trkpt lat="46.77196" lon="5.60734">
        <ele>299</ele>
        <time>2017-10-19T07:09:14Z</time>
      </trkpt>
      <trkpt lat="46.77203" lon="5.60724">
        <ele>301</ele>
        <time>2017-10-19T07:09:28Z</time>
      </trkpt>
      <trkpt lat="46.77207" lon="5.60711">
        <ele>301</ele>
        <time>2017-10-19T07:09:43Z</time>
      </trkpt>
      <trkpt lat="46.77211" lon="5.60699">
        <ele>303</ele>
        <time>2017-10-19T07:09:54Z</time>
      </trkpt>
      <trkpt lat="46.77216" lon="5.60645">
        <ele>305</ele>
        <time>2017-10-19T07:10:35Z</time>
      </trkpt>
      <trkpt lat="46.77218" lon="5.60631">
        <ele>305</ele>
        <time>2017-10-19T07:10:47Z</time>
      </trkpt>
      <trkpt lat="46.77221" lon="5.60617">
        <ele>306</ele>
        <time>2017-10-19T07:10:57Z</time>
      </trkpt>
      <trkpt lat="46.77225" lon="5.60605">
        <ele>306</ele>
        <time>2017-10-19T07:11:06Z</time>
      </trkpt>
      <trkpt lat="46.77235" lon="5.60582">
        <ele>307</ele>
        <time>2017-10-19T07:11:24Z</time>
      </trkpt>
      <trkpt lat="46.7724" lon="5.60569">
        <ele>308</ele>
        <time>2017-10-19T07:11:33Z</time>
      </trkpt>
      <trkpt lat="46.77246" lon="5.60559">
        <ele>309</ele>
        <time>2017-10-19T07:11:43Z</time>
      </trkpt>
      <trkpt lat="46.77252" lon="5.60549">
        <ele>310</ele>
        <time>2017-10-19T07:11:54Z</time>
      </trkpt>
      <trkpt lat="46.77257" lon="5.60548">
        <ele>317</ele>
        <time>2017-10-19T07:14:08Z</time>
      </trkpt>
      <trkpt lat="46.77256" lon="5.60556">
        <ele>317</ele>
        <time>2017-10-19T07:15:45Z</time>
      </trkpt>
      <trkpt lat="46.77256" lon="5.60564">
        <ele>318</ele>
        <time>2017-10-19T07:15:54Z</time>
      </trkpt>
      <trkpt lat="46.77252" lon="5.60568">
        <ele>319</ele>
        <time>2017-10-19T07:17:25Z</time>
      </trkpt>
      <trkpt lat="46.77249" lon="5.60573">
        <ele>321</ele>
        <time>2017-10-19T07:17:33Z</time>
      </trkpt>
      <trkpt lat="46.77249" lon="5.6058">
        <ele>323</ele>
        <time>2017-10-19T07:17:40Z</time>
      </trkpt>
      <trkpt lat="46.77248" lon="5.60587">
        <ele>325</ele>
        <time>2017-10-19T07:17:45Z</time>
      </trkpt>
      <trkpt lat="46.77248" lon="5.60602">
        <ele>326</ele>
        <time>2017-10-19T07:17:56Z</time>
      </trkpt>
      <trkpt lat="46.7725" lon="5.60622">
        <ele>327</ele>
        <time>2017-10-19T07:18:12Z</time>
      </trkpt>
      <trkpt lat="46.77255" lon="5.60638">
        <ele>329</ele>
        <time>2017-10-19T07:18:25Z</time>
      </trkpt>
      <trkpt lat="46.77261" lon="5.6065">
        <ele>330</ele>
        <time>2017-10-19T07:18:38Z</time>
      </trkpt>
      <trkpt lat="46.77265" lon="5.60654">
        <ele>330</ele>
        <time>2017-10-19T07:18:44Z</time>
      </trkpt>
      <trkpt lat="46.77286" lon="5.60672">
        <ele>334</ele>
        <time>2017-10-19T07:19:14Z</time>
      </trkpt>
      <trkpt lat="46.7729" lon="5.60676">
        <ele>334</ele>
        <time>2017-10-19T07:19:20Z</time>
      </trkpt>
      <trkpt lat="46.77297" lon="5.60686">
        <ele>335</ele>
        <time>2017-10-19T07:19:31Z</time>
      </trkpt>
      <trkpt lat="46.77304" lon="5.60699">
        <ele>337</ele>
        <time>2017-10-19T07:19:49Z</time>
      </trkpt>
      <trkpt lat="46.77311" lon="5.6071">
        <ele>339</ele>
        <time>2017-10-19T07:20:01Z</time>
      </trkpt>
      <trkpt lat="46.77318" lon="5.60718">
        <ele>339</ele>
        <time>2017-10-19T07:20:12Z</time>
      </trkpt>
      <trkpt lat="46.77329" lon="5.60722">
        <ele>339</ele>
        <time>2017-10-19T07:20:22Z</time>
      </trkpt>
      <trkpt lat="46.77333" lon="5.60725">
        <ele>338</ele>
        <time>2017-10-19T07:20:28Z</time>
      </trkpt>
      <trkpt lat="46.77338" lon="5.60726">
        <ele>337</ele>
        <time>2017-10-19T07:20:33Z</time>
      </trkpt>
      <trkpt lat="46.77342" lon="5.60731">
        <ele>337</ele>
        <time>2017-10-19T07:20:42Z</time>
      </trkpt>
      <trkpt lat="46.77346" lon="5.60743">
        <ele>339</ele>
        <time>2017-10-19T07:20:53Z</time>
      </trkpt>
      <trkpt lat="46.77353" lon="5.60751">
        <ele>340</ele>
        <time>2017-10-19T07:21:02Z</time>
      </trkpt>
      <trkpt lat="46.77361" lon="5.60758">
        <ele>341</ele>
        <time>2017-10-19T07:21:12Z</time>
      </trkpt>
      <trkpt lat="46.77381" lon="5.60778">
        <ele>346</ele>
        <time>2017-10-19T07:21:37Z</time>
      </trkpt>
      <trkpt lat="46.77384" lon="5.60784">
        <ele>347</ele>
        <time>2017-10-19T07:21:42Z</time>
      </trkpt>
      <trkpt lat="46.77388" lon="5.60789">
        <ele>348</ele>
        <time>2017-10-19T07:21:47Z</time>
      </trkpt>
      <trkpt lat="46.77393" lon="5.6079">
        <ele>348</ele>
        <time>2017-10-19T07:21:51Z</time>
      </trkpt>
      <trkpt lat="46.77418" lon="5.60791">
        <ele>352</ele>
        <time>2017-10-19T07:22:17Z</time>
      </trkpt>
      <trkpt lat="46.77423" lon="5.60789">
        <ele>353</ele>
        <time>2017-10-19T07:22:22Z</time>
      </trkpt>
      <trkpt lat="46.77431" lon="5.60782">
        <ele>353</ele>
        <time>2017-10-19T07:22:31Z</time>
      </trkpt>
      <trkpt lat="46.77436" lon="5.60784">
        <ele>354</ele>
        <time>2017-10-19T07:22:38Z</time>
      </trkpt>
      <trkpt lat="46.77441" lon="5.60785">
        <ele>355</ele>
        <time>2017-10-19T07:22:44Z</time>
      </trkpt>
      <trkpt lat="46.77445" lon="5.60788">
        <ele>355</ele>
        <time>2017-10-19T07:22:50Z</time>
      </trkpt>
      <trkpt lat="46.77448" lon="5.60793">
        <ele>356</ele>
        <time>2017-10-19T07:22:55Z</time>
      </trkpt>
      <trkpt lat="46.77457" lon="5.60799">
        <ele>359</ele>
        <time>2017-10-19T07:23:06Z</time>
      </trkpt>
      <trkpt lat="46.77461" lon="5.60803">
        <ele>360</ele>
        <time>2017-10-19T07:23:12Z</time>
      </trkpt>
      <trkpt lat="46.7748" lon="5.60816">
        <ele>363</ele>
        <time>2017-10-19T07:23:32Z</time>
      </trkpt>
      <trkpt lat="46.77491" lon="5.60827">
        <ele>365</ele>
        <time>2017-10-19T07:23:50Z</time>
      </trkpt>
      <trkpt lat="46.77497" lon="5.60827">
        <ele>368</ele>
        <time>2017-10-19T07:24:04Z</time>
      </trkpt>
      <trkpt lat="46.77505" lon="5.60834">
        <ele>369</ele>
        <time>2017-10-19T07:24:15Z</time>
      </trkpt>
      <trkpt lat="46.77509" lon="5.6084">
        <ele>369</ele>
        <time>2017-10-19T07:24:20Z</time>
      </trkpt>
      <trkpt lat="46.77513" lon="5.60845">
        <ele>369</ele>
        <time>2017-10-19T07:24:25Z</time>
      </trkpt>
      <trkpt lat="46.77518" lon="5.60847">
        <ele>370</ele>
        <time>2017-10-19T07:24:30Z</time>
      </trkpt>
      <trkpt lat="46.77522" lon="5.60852">
        <ele>370</ele>
        <time>2017-10-19T07:24:35Z</time>
      </trkpt>
      <trkpt lat="46.77531" lon="5.60859">
        <ele>371</ele>
        <time>2017-10-19T07:24:44Z</time>
      </trkpt>
      <trkpt lat="46.77545" lon="5.60868">
        <ele>372</ele>
        <time>2017-10-19T07:24:59Z</time>
      </trkpt>
      <trkpt lat="46.77553" lon="5.60876">
        <ele>373</ele>
        <time>2017-10-19T07:25:08Z</time>
      </trkpt>
      <trkpt lat="46.77558" lon="5.60878">
        <ele>373</ele>
        <time>2017-10-19T07:25:15Z</time>
      </trkpt>
      <trkpt lat="46.77563" lon="5.60881">
        <ele>373</ele>
        <time>2017-10-19T07:25:20Z</time>
      </trkpt>
      <trkpt lat="46.77566" lon="5.60887">
        <ele>373</ele>
        <time>2017-10-19T07:25:26Z</time>
      </trkpt>
      <trkpt lat="46.77569" lon="5.60892">
        <ele>374</ele>
        <time>2017-10-19T07:25:31Z</time>
      </trkpt>
      <trkpt lat="46.77573" lon="5.60896">
        <ele>375</ele>
        <time>2017-10-19T07:25:36Z</time>
      </trkpt>
      <trkpt lat="46.77577" lon="5.60901">
        <ele>376</ele>
        <time>2017-10-19T07:25:42Z</time>
      </trkpt>
      <trkpt lat="46.77582" lon="5.60904">
        <ele>377</ele>
        <time>2017-10-19T07:25:47Z</time>
      </trkpt>
      <trkpt lat="46.77598" lon="5.60923">
        <ele>378</ele>
        <time>2017-10-19T07:26:07Z</time>
      </trkpt>
      <trkpt lat="46.77622" lon="5.60939">
        <ele>380</ele>
        <time>2017-10-19T07:26:30Z</time>
      </trkpt>
      <trkpt lat="46.77626" lon="5.60945">
        <ele>380</ele>
        <time>2017-10-19T07:26:35Z</time>
      </trkpt>
      <trkpt lat="46.77631" lon="5.60947">
        <ele>381</ele>
        <time>2017-10-19T07:26:39Z</time>
      </trkpt>
      <trkpt lat="46.77635" lon="5.60953">
        <ele>381</ele>
        <time>2017-10-19T07:26:44Z</time>
      </trkpt>
      <trkpt lat="46.7764" lon="5.60956">
        <ele>382</ele>
        <time>2017-10-19T07:26:49Z</time>
      </trkpt>
      <trkpt lat="46.77655" lon="5.60971">
        <ele>385</ele>
        <time>2017-10-19T07:27:06Z</time>
      </trkpt>
      <trkpt lat="46.7766" lon="5.60975">
        <ele>386</ele>
        <time>2017-10-19T07:27:10Z</time>
      </trkpt>
      <trkpt lat="46.77664" lon="5.60978">
        <ele>386</ele>
        <time>2017-10-19T07:27:14Z</time>
      </trkpt>
      <trkpt lat="46.77668" lon="5.60983">
        <ele>387</ele>
        <time>2017-10-19T07:27:19Z</time>
      </trkpt>
      <trkpt lat="46.77677" lon="5.6099">
        <ele>389</ele>
        <time>2017-10-19T07:27:30Z</time>
      </trkpt>
      <trkpt lat="46.77682" lon="5.60993">
        <ele>389</ele>
        <time>2017-10-19T07:27:36Z</time>
      </trkpt>
      <trkpt lat="46.77686" lon="5.60997">
        <ele>389</ele>
        <time>2017-10-19T07:27:41Z</time>
      </trkpt>
      <trkpt lat="46.77691" lon="5.60999">
        <ele>389</ele>
        <time>2017-10-19T07:27:45Z</time>
      </trkpt>
      <trkpt lat="46.77711" lon="5.6102">
        <ele>393</ele>
        <time>2017-10-19T07:28:06Z</time>
      </trkpt>
      <trkpt lat="46.77716" lon="5.61022">
        <ele>394</ele>
        <time>2017-10-19T07:28:11Z</time>
      </trkpt>
      <trkpt lat="46.77721" lon="5.61023">
        <ele>394</ele>
        <time>2017-10-19T07:28:15Z</time>
      </trkpt>
      <trkpt lat="46.77731" lon="5.61029">
        <ele>394</ele>
        <time>2017-10-19T07:28:24Z</time>
      </trkpt>
      <trkpt lat="46.77743" lon="5.61041">
        <ele>395</ele>
        <time>2017-10-19T07:28:37Z</time>
      </trkpt>
      <trkpt lat="46.77752" lon="5.61047">
        <ele>395</ele>
        <time>2017-10-19T07:28:48Z</time>
      </trkpt>
      <trkpt lat="46.77755" lon="5.61054">
        <ele>395</ele>
        <time>2017-10-19T07:28:54Z</time>
      </trkpt>
      <trkpt lat="46.77759" lon="5.61059">
        <ele>394</ele>
        <time>2017-10-19T07:28:59Z</time>
      </trkpt>
      <trkpt lat="46.77773" lon="5.61071">
        <ele>392</ele>
        <time>2017-10-19T07:29:12Z</time>
      </trkpt>
      <trkpt lat="46.77776" lon="5.61075">
        <ele>392</ele>
        <time>2017-10-19T07:29:16Z</time>
      </trkpt>
      <trkpt lat="46.77786" lon="5.6108">
        <ele>392</ele>
        <time>2017-10-19T07:29:27Z</time>
      </trkpt>
      <trkpt lat="46.778" lon="5.61088">
        <ele>393</ele>
        <time>2017-10-19T07:29:38Z</time>
      </trkpt>
      <trkpt lat="46.77808" lon="5.61098">
        <ele>394</ele>
        <time>2017-10-19T07:29:47Z</time>
      </trkpt>
      <trkpt lat="46.77813" lon="5.611">
        <ele>394</ele>
        <time>2017-10-19T07:29:52Z</time>
      </trkpt>
      <trkpt lat="46.77817" lon="5.61097">
        <ele>394</ele>
        <time>2017-10-19T07:29:57Z</time>
      </trkpt>
      <trkpt lat="46.77828" lon="5.611">
        <ele>394</ele>
        <time>2017-10-19T07:30:06Z</time>
      </trkpt>
      <trkpt lat="46.77837" lon="5.61105">
        <ele>393</ele>
        <time>2017-10-19T07:30:15Z</time>
      </trkpt>
      <trkpt lat="46.77842" lon="5.61106">
        <ele>393</ele>
        <time>2017-10-19T07:30:20Z</time>
      </trkpt>
      <trkpt lat="46.77846" lon="5.61108">
        <ele>393</ele>
        <time>2017-10-19T07:30:25Z</time>
      </trkpt>
      <trkpt lat="46.7785" lon="5.61113">
        <ele>392</ele>
        <time>2017-10-19T07:30:29Z</time>
      </trkpt>
      <trkpt lat="46.77854" lon="5.61116">
        <ele>392</ele>
        <time>2017-10-19T07:30:35Z</time>
      </trkpt>
      <trkpt lat="46.77859" lon="5.61119">
        <ele>392</ele>
        <time>2017-10-19T07:30:41Z</time>
      </trkpt>
      <trkpt lat="46.77866" lon="5.61131">
        <ele>392</ele>
        <time>2017-10-19T07:30:50Z</time>
      </trkpt>
      <trkpt lat="46.77869" lon="5.61135">
        <ele>392</ele>
        <time>2017-10-19T07:30:56Z</time>
      </trkpt>
      <trkpt lat="46.7787" lon="5.61141">
        <ele>392</ele>
        <time>2017-10-19T07:31:05Z</time>
      </trkpt>
      <trkpt lat="46.77873" lon="5.61147">
        <ele>392</ele>
        <time>2017-10-19T07:31:11Z</time>
      </trkpt>
      <trkpt lat="46.77875" lon="5.61154">
        <ele>391</ele>
        <time>2017-10-19T07:31:17Z</time>
      </trkpt>
      <trkpt lat="46.77881" lon="5.61174">
        <ele>391</ele>
        <time>2017-10-19T07:31:32Z</time>
      </trkpt>
      <trkpt lat="46.77882" lon="5.61189">
        <ele>391</ele>
        <time>2017-10-19T07:31:42Z</time>
      </trkpt>
      <trkpt lat="46.77882" lon="5.61204">
        <ele>391</ele>
        <time>2017-10-19T07:31:49Z</time>
      </trkpt>
      <trkpt lat="46.77884" lon="5.61219">
        <ele>392</ele>
        <time>2017-10-19T07:31:57Z</time>
      </trkpt>
      <trkpt lat="46.77885" lon="5.61232">
        <ele>391</ele>
        <time>2017-10-19T07:32:06Z</time>
      </trkpt>
      <trkpt lat="46.77886" lon="5.61247">
        <ele>391</ele>
        <time>2017-10-19T07:32:17Z</time>
      </trkpt>
      <trkpt lat="46.77888" lon="5.6126">
        <ele>392</ele>
        <time>2017-10-19T07:32:24Z</time>
      </trkpt>
      <trkpt lat="46.77889" lon="5.61274">
        <ele>391</ele>
        <time>2017-10-19T07:32:31Z</time>
      </trkpt>
      <trkpt lat="46.77894" lon="5.61287">
        <ele>390</ele>
        <time>2017-10-19T07:32:42Z</time>
      </trkpt>
      <trkpt lat="46.7792" lon="5.6132">
        <ele>387</ele>
        <time>2017-10-19T07:33:09Z</time>
      </trkpt>
      <trkpt lat="46.77924" lon="5.61323">
        <ele>387</ele>
        <time>2017-10-19T07:33:14Z</time>
      </trkpt>
      <trkpt lat="46.77931" lon="5.61333">
        <ele>384</ele>
        <time>2017-10-19T07:33:24Z</time>
      </trkpt>
      <trkpt lat="46.77933" lon="5.61339">
        <ele>383</ele>
        <time>2017-10-19T07:33:29Z</time>
      </trkpt>
      <trkpt lat="46.77937" lon="5.61344">
        <ele>383</ele>
        <time>2017-10-19T07:33:34Z</time>
      </trkpt>
      <trkpt lat="46.77939" lon="5.6135">
        <ele>382</ele>
        <time>2017-10-19T07:33:42Z</time>
      </trkpt>
      <trkpt lat="46.77939" lon="5.61358">
        <ele>381</ele>
        <time>2017-10-19T07:33:47Z</time>
      </trkpt>
      <trkpt lat="46.77937" lon="5.61364">
        <ele>380</ele>
        <time>2017-10-19T07:33:53Z</time>
      </trkpt>
      <trkpt lat="46.77938" lon="5.61372">
        <ele>380</ele>
        <time>2017-10-19T07:33:58Z</time>
      </trkpt>
      <trkpt lat="46.7794" lon="5.61379">
        <ele>379</ele>
        <time>2017-10-19T07:34:02Z</time>
      </trkpt>
      <trkpt lat="46.7794" lon="5.61386">
        <ele>379</ele>
        <time>2017-10-19T07:34:07Z</time>
      </trkpt>
      <trkpt lat="46.77938" lon="5.61394">
        <ele>379</ele>
        <time>2017-10-19T07:34:12Z</time>
      </trkpt>
      <trkpt lat="46.77939" lon="5.61401">
        <ele>377</ele>
        <time>2017-10-19T07:35:36Z</time>
      </trkpt>
      <trkpt lat="46.77939" lon="5.61408">
        <ele>377</ele>
        <time>2017-10-19T07:35:40Z</time>
      </trkpt>
      <trkpt lat="46.77938" lon="5.61415">
        <ele>376</ele>
        <time>2017-10-19T07:35:44Z</time>
      </trkpt>
      <trkpt lat="46.77936" lon="5.61422">
        <ele>376</ele>
        <time>2017-10-19T07:35:49Z</time>
      </trkpt>
      <trkpt lat="46.7793" lon="5.61433">
        <ele>374</ele>
        <time>2017-10-19T07:35:59Z</time>
      </trkpt>
      <trkpt lat="46.77924" lon="5.61456">
        <ele>373</ele>
        <time>2017-10-19T07:36:14Z</time>
      </trkpt>
      <trkpt lat="46.77924" lon="5.61463">
        <ele>372</ele>
        <time>2017-10-19T07:36:19Z</time>
      </trkpt>
      <trkpt lat="46.77927" lon="5.61468">
        <ele>371</ele>
        <time>2017-10-19T07:36:24Z</time>
      </trkpt>
      <trkpt lat="46.77931" lon="5.61472">
        <ele>371</ele>
        <time>2017-10-19T07:36:29Z</time>
      </trkpt>
      <trkpt lat="46.77936" lon="5.61475">
        <ele>371</ele>
        <time>2017-10-19T07:36:33Z</time>
      </trkpt>
      <trkpt lat="46.77944" lon="5.61481">
        <ele>372</ele>
        <time>2017-10-19T07:36:43Z</time>
      </trkpt>
      <trkpt lat="46.7795" lon="5.61481">
        <ele>372</ele>
        <time>2017-10-19T07:36:48Z</time>
      </trkpt>
      <trkpt lat="46.77959" lon="5.61486">
        <ele>372</ele>
        <time>2017-10-19T07:36:59Z</time>
      </trkpt>
      <trkpt lat="46.77988" lon="5.6149">
        <ele>371</ele>
        <time>2017-10-19T07:37:23Z</time>
      </trkpt>
      <trkpt lat="46.77993" lon="5.61492">
        <ele>370</ele>
        <time>2017-10-19T07:37:27Z</time>
      </trkpt>
      <trkpt lat="46.77998" lon="5.61492">
        <ele>370</ele>
        <time>2017-10-19T07:37:32Z</time>
      </trkpt>
      <trkpt lat="46.78029" lon="5.61496">
        <ele>366</ele>
        <time>2017-10-19T07:37:59Z</time>
      </trkpt>
      <trkpt lat="46.78034" lon="5.61493">
        <ele>366</ele>
        <time>2017-10-19T07:38:02Z</time>
      </trkpt>
      <trkpt lat="46.78039" lon="5.61495">
        <ele>366</ele>
        <time>2017-10-19T07:38:07Z</time>
      </trkpt>
      <trkpt lat="46.78044" lon="5.61494">
        <ele>366</ele>
        <time>2017-10-19T07:38:11Z</time>
      </trkpt>
      <trkpt lat="46.78049" lon="5.61497">
        <ele>365</ele>
        <time>2017-10-19T07:38:16Z</time>
      </trkpt>
      <trkpt lat="46.78054" lon="5.61498">
        <ele>365</ele>
        <time>2017-10-19T07:38:20Z</time>
      </trkpt>
      <trkpt lat="46.78058" lon="5.61497">
        <ele>363</ele>
        <time>2017-10-19T07:38:27Z</time>
      </trkpt>
      <trkpt lat="46.78063" lon="5.61494">
        <ele>363</ele>
        <time>2017-10-19T07:38:31Z</time>
      </trkpt>
      <trkpt lat="46.78067" lon="5.61497">
        <ele>363</ele>
        <time>2017-10-19T07:38:55Z</time>
      </trkpt>
      <trkpt lat="46.78077" lon="5.61501">
        <ele>362</ele>
        <time>2017-10-19T07:39:03Z</time>
      </trkpt>
      <trkpt lat="46.78086" lon="5.61499">
        <ele>360</ele>
        <time>2017-10-19T07:39:12Z</time>
      </trkpt>
      <trkpt lat="46.78096" lon="5.61494">
        <ele>359</ele>
        <time>2017-10-19T07:39:25Z</time>
      </trkpt>
      <trkpt lat="46.78105" lon="5.61497">
        <ele>358</ele>
        <time>2017-10-19T07:39:38Z</time>
      </trkpt>
      <trkpt lat="46.78109" lon="5.615">
        <ele>358</ele>
        <time>2017-10-19T07:39:43Z</time>
      </trkpt>
      <trkpt lat="46.78112" lon="5.61505">
        <ele>359</ele>
        <time>2017-10-19T07:39:48Z</time>
      </trkpt>
      <trkpt lat="46.78117" lon="5.61508">
        <ele>358</ele>
        <time>2017-10-19T07:39:54Z</time>
      </trkpt>
      <trkpt lat="46.78125" lon="5.61514">
        <ele>358</ele>
        <time>2017-10-19T07:40:06Z</time>
      </trkpt>
      <trkpt lat="46.78129" lon="5.61518">
        <ele>358</ele>
        <time>2017-10-19T07:40:11Z</time>
      </trkpt>
      <trkpt lat="46.78133" lon="5.61522">
        <ele>358</ele>
        <time>2017-10-19T07:40:16Z</time>
      </trkpt>
      <trkpt lat="46.78137" lon="5.61527">
        <ele>358</ele>
        <time>2017-10-19T07:40:22Z</time>
      </trkpt>
      <trkpt lat="46.78141" lon="5.6153">
        <ele>358</ele>
        <time>2017-10-19T07:40:27Z</time>
      </trkpt>
      <trkpt lat="46.78147" lon="5.61539">
        <ele>357</ele>
        <time>2017-10-19T07:40:36Z</time>
      </trkpt>
      <trkpt lat="46.78156" lon="5.61546">
        <ele>355</ele>
        <time>2017-10-19T07:40:45Z</time>
      </trkpt>
      <trkpt lat="46.78165" lon="5.61556">
        <ele>355</ele>
        <time>2017-10-19T07:40:54Z</time>
      </trkpt>
      <trkpt lat="46.7817" lon="5.61558">
        <ele>355</ele>
        <time>2017-10-19T07:40:59Z</time>
      </trkpt>
      <trkpt lat="46.78175" lon="5.61561">
        <ele>355</ele>
        <time>2017-10-19T07:41:06Z</time>
      </trkpt>
      <trkpt lat="46.7819" lon="5.61579">
        <ele>351</ele>
        <time>2017-10-19T07:41:25Z</time>
      </trkpt>
      <trkpt lat="46.78194" lon="5.61584">
        <ele>351</ele>
        <time>2017-10-19T07:41:30Z</time>
      </trkpt>
      <trkpt lat="46.78197" lon="5.6159">
        <ele>350</ele>
        <time>2017-10-19T07:41:36Z</time>
      </trkpt>
      <trkpt lat="46.78204" lon="5.61599">
        <ele>350</ele>
        <time>2017-10-19T07:41:46Z</time>
      </trkpt>
      <trkpt lat="46.78215" lon="5.61604">
        <ele>346</ele>
        <time>2017-10-19T07:41:56Z</time>
      </trkpt>
      <trkpt lat="46.78219" lon="5.61607">
        <ele>346</ele>
        <time>2017-10-19T07:42:00Z</time>
      </trkpt>
      <trkpt lat="46.78224" lon="5.61608">
        <ele>346</ele>
        <time>2017-10-19T07:42:04Z</time>
      </trkpt>
      <trkpt lat="46.78234" lon="5.61608">
        <ele>345</ele>
        <time>2017-10-19T07:42:14Z</time>
      </trkpt>
      <trkpt lat="46.7824" lon="5.61607">
        <ele>343</ele>
        <time>2017-10-19T07:42:29Z</time>
      </trkpt>
      <trkpt lat="46.78255" lon="5.61607">
        <ele>342</ele>
        <time>2017-10-19T07:42:46Z</time>
      </trkpt>
      <trkpt lat="46.78266" lon="5.61602">
        <ele>340</ele>
        <time>2017-10-19T07:42:53Z</time>
      </trkpt>
      <trkpt lat="46.78271" lon="5.61602">
        <ele>339</ele>
        <time>2017-10-19T07:42:57Z</time>
      </trkpt>
      <trkpt lat="46.7828" lon="5.61607">
        <ele>338</ele>
        <time>2017-10-19T07:43:06Z</time>
      </trkpt>
      <trkpt lat="46.78291" lon="5.61623">
        <ele>337</ele>
        <time>2017-10-19T07:43:20Z</time>
      </trkpt>
      <trkpt lat="46.783" lon="5.61639">
        <ele>337</ele>
        <time>2017-10-19T07:43:35Z</time>
      </trkpt>
      <trkpt lat="46.78305" lon="5.61651">
        <ele>338</ele>
        <time>2017-10-19T07:43:46Z</time>
      </trkpt>
      <trkpt lat="46.78309" lon="5.61655">
        <ele>338</ele>
        <time>2017-10-19T07:43:50Z</time>
      </trkpt>
      <trkpt lat="46.78318" lon="5.61658">
        <ele>338</ele>
        <time>2017-10-19T07:43:59Z</time>
      </trkpt>
      <trkpt lat="46.78322" lon="5.61655">
        <ele>338</ele>
        <time>2017-10-19T07:45:16Z</time>
      </trkpt>
      <trkpt lat="46.78327" lon="5.61653">
        <ele>338</ele>
        <time>2017-10-19T07:45:39Z</time>
      </trkpt>
      <trkpt lat="46.78337" lon="5.61644">
        <ele>339</ele>
        <time>2017-10-19T07:45:48Z</time>
      </trkpt>
      <trkpt lat="46.78341" lon="5.6164">
        <ele>340</ele>
        <time>2017-10-19T07:45:53Z</time>
      </trkpt>
      <trkpt lat="46.78346" lon="5.61629">
        <ele>342</ele>
        <time>2017-10-19T07:46:03Z</time>
      </trkpt>
      <trkpt lat="46.78344" lon="5.61622">
        <ele>342</ele>
        <time>2017-10-19T07:46:19Z</time>
      </trkpt>
      <trkpt lat="46.78348" lon="5.61619">
        <ele>341</ele>
        <time>2017-10-19T07:46:33Z</time>
      </trkpt>
      <trkpt lat="46.7835" lon="5.61625">
        <ele>341</ele>
        <time>2017-10-19T07:46:39Z</time>
      </trkpt>
      <trkpt lat="46.78352" lon="5.61632">
        <ele>341</ele>
        <time>2017-10-19T07:46:45Z</time>
      </trkpt>
      <trkpt lat="46.78357" lon="5.61642">
        <ele>338</ele>
        <time>2017-10-19T07:47:11Z</time>
      </trkpt>
      <trkpt lat="46.78359" lon="5.61648">
        <ele>338</ele>
        <time>2017-10-19T07:47:15Z</time>
      </trkpt>
      <trkpt lat="46.78361" lon="5.61654">
        <ele>338</ele>
        <time>2017-10-19T07:47:20Z</time>
      </trkpt>
      <trkpt lat="46.78366" lon="5.61676">
        <ele>338</ele>
        <time>2017-10-19T07:47:34Z</time>
      </trkpt>
      <trkpt lat="46.78369" lon="5.61681">
        <ele>338</ele>
        <time>2017-10-19T07:47:41Z</time>
      </trkpt>
      <trkpt lat="46.78372" lon="5.61686">
        <ele>339</ele>
        <time>2017-10-19T07:47:51Z</time>
      </trkpt>
      <trkpt lat="46.78377" lon="5.61687">
        <ele>341</ele>
        <time>2017-10-19T07:48:59Z</time>
      </trkpt>
      <trkpt lat="46.7838" lon="5.61685">
        <ele>345</ele>
        <time>2017-10-19T07:50:20Z</time>
      </trkpt>
      <trkpt lat="46.78387" lon="5.61678">
        <ele>345</ele>
        <time>2017-10-19T07:50:43Z</time>
      </trkpt>
      <trkpt lat="46.78388" lon="5.61671">
        <ele>348</ele>
        <time>2017-10-19T07:51:02Z</time>
      </trkpt>
      <trkpt lat="46.78388" lon="5.61665">
        <ele>350</ele>
        <time>2017-10-19T07:51:11Z</time>
      </trkpt>
      <trkpt lat="46.78386" lon="5.61645">
        <ele>352</ele>
        <time>2017-10-19T07:51:27Z</time>
      </trkpt>
      <trkpt lat="46.78383" lon="5.61638">
        <ele>352</ele>
        <time>2017-10-19T07:51:32Z</time>
      </trkpt>
      <trkpt lat="46.78381" lon="5.6163">
        <ele>352</ele>
        <time>2017-10-19T07:51:41Z</time>
      </trkpt>
      <trkpt lat="46.7838" lon="5.61622">
        <ele>353</ele>
        <time>2017-10-19T07:51:48Z</time>
      </trkpt>
      <trkpt lat="46.78378" lon="5.61616">
        <ele>353</ele>
        <time>2017-10-19T07:51:55Z</time>
      </trkpt>
      <trkpt lat="46.78374" lon="5.6161">
        <ele>352</ele>
        <time>2017-10-19T07:52:08Z</time>
      </trkpt>
      <trkpt lat="46.78371" lon="5.61604">
        <ele>353</ele>
        <time>2017-10-19T07:52:16Z</time>
      </trkpt>
      <trkpt lat="46.78368" lon="5.61598">
        <ele>354</ele>
        <time>2017-10-19T07:52:30Z</time>
      </trkpt>
      <trkpt lat="46.78365" lon="5.61587">
        <ele>354</ele>
        <time>2017-10-19T07:53:43Z</time>
      </trkpt>
      <trkpt lat="46.78367" lon="5.61581">
        <ele>355</ele>
        <time>2017-10-19T07:53:49Z</time>
      </trkpt>
      <trkpt lat="46.78369" lon="5.61569">
        <ele>356</ele>
        <time>2017-10-19T07:54:19Z</time>
      </trkpt>
      <trkpt lat="46.78378" lon="5.61568">
        <ele>359</ele>
        <time>2017-10-19T07:54:40Z</time>
      </trkpt>
      <trkpt lat="46.78383" lon="5.61568">
        <ele>361</ele>
        <time>2017-10-19T07:54:52Z</time>
      </trkpt>
      <trkpt lat="46.78392" lon="5.61574">
        <ele>364</ele>
        <time>2017-10-19T07:55:11Z</time>
      </trkpt>
      <trkpt lat="46.78402" lon="5.61578">
        <ele>367</ele>
        <time>2017-10-19T07:55:30Z</time>
      </trkpt>
      <trkpt lat="46.78415" lon="5.61588">
        <ele>371</ele>
        <time>2017-10-19T07:55:50Z</time>
      </trkpt>
      <trkpt lat="46.78418" lon="5.61592">
        <ele>372</ele>
        <time>2017-10-19T07:55:57Z</time>
      </trkpt>
      <trkpt lat="46.78436" lon="5.61605">
        <ele>377</ele>
        <time>2017-10-19T07:56:25Z</time>
      </trkpt>
      <trkpt lat="46.78434" lon="5.61615">
        <ele>379</ele>
        <time>2017-10-19T07:56:55Z</time>
      </trkpt>
      <trkpt lat="46.78435" lon="5.61621">
        <ele>381</ele>
        <time>2017-10-19T07:57:00Z</time>
      </trkpt>
      <trkpt lat="46.78449" lon="5.61651">
        <ele>385</ele>
        <time>2017-10-19T07:57:32Z</time>
      </trkpt>
      <trkpt lat="46.78452" lon="5.61657">
        <ele>385</ele>
        <time>2017-10-19T07:57:38Z</time>
      </trkpt>
      <trkpt lat="46.78469" lon="5.61668">
        <ele>389</ele>
        <time>2017-10-19T07:58:02Z</time>
      </trkpt>
      <trkpt lat="46.78484" lon="5.61669">
        <ele>391</ele>
        <time>2017-10-19T07:58:18Z</time>
      </trkpt>
      <trkpt lat="46.78487" lon="5.61667">
        <ele>393</ele>
        <time>2017-10-19T08:00:30Z</time>
      </trkpt>
      <trkpt lat="46.78493" lon="5.61675">
        <ele>395</ele>
        <time>2017-10-19T08:01:24Z</time>
      </trkpt>
      <trkpt lat="46.78498" lon="5.61673">
        <ele>395</ele>
        <time>2017-10-19T08:02:30Z</time>
      </trkpt>
      <trkpt lat="46.78513" lon="5.61688">
        <ele>397</ele>
        <time>2017-10-19T08:07:41Z</time>
      </trkpt>
      <trkpt lat="46.78517" lon="5.61691">
        <ele>398</ele>
        <time>2017-10-19T08:07:46Z</time>
      </trkpt>
      <trkpt lat="46.7852" lon="5.61696">
        <ele>398</ele>
        <time>2017-10-19T08:07:52Z</time>
      </trkpt>
      <trkpt lat="46.78529" lon="5.61699">
        <ele>399</ele>
        <time>2017-10-19T08:08:29Z</time>
      </trkpt>
      <trkpt lat="46.78543" lon="5.61705">
        <ele>399</ele>
        <time>2017-10-19T08:08:45Z</time>
      </trkpt>
      <trkpt lat="46.78548" lon="5.61709">
        <ele>399</ele>
        <time>2017-10-19T08:08:52Z</time>
      </trkpt>
      <trkpt lat="46.78552" lon="5.61712">
        <ele>399</ele>
        <time>2017-10-19T08:08:57Z</time>
      </trkpt>
      <trkpt lat="46.78555" lon="5.61717">
        <ele>399</ele>
        <time>2017-10-19T08:09:11Z</time>
      </trkpt>
      <trkpt lat="46.78564" lon="5.61713">
        <ele>399</ele>
        <time>2017-10-19T08:09:24Z</time>
      </trkpt>
      <trkpt lat="46.78567" lon="5.61709">
        <ele>399</ele>
        <time>2017-10-19T08:09:28Z</time>
      </trkpt>
      <trkpt lat="46.78564" lon="5.617">
        <ele>399</ele>
        <time>2017-10-19T08:09:49Z</time>
      </trkpt>
      <trkpt lat="46.78559" lon="5.61698">
        <ele>400</ele>
        <time>2017-10-19T08:10:03Z</time>
      </trkpt>
      <trkpt lat="46.78554" lon="5.61695">
        <ele>401</ele>
        <time>2017-10-19T08:10:13Z</time>
      </trkpt>
      <trkpt lat="46.78551" lon="5.61697">
        <ele>401</ele>
        <time>2017-10-19T08:10:31Z</time>
      </trkpt>
      <trkpt lat="46.78557" lon="5.6171">
        <ele>401</ele>
        <time>2017-10-19T08:10:41Z</time>
      </trkpt>
      <trkpt lat="46.78558" lon="5.61717">
        <ele>401</ele>
        <time>2017-10-19T08:10:46Z</time>
      </trkpt>
      <trkpt lat="46.78565" lon="5.61728">
        <ele>401</ele>
        <time>2017-10-19T08:11:01Z</time>
      </trkpt>
      <trkpt lat="46.78568" lon="5.61733">
        <ele>401</ele>
        <time>2017-10-19T08:11:10Z</time>
      </trkpt>
      <trkpt lat="46.78574" lon="5.61739">
        <ele>400</ele>
        <time>2017-10-19T08:11:22Z</time>
      </trkpt>
      <trkpt lat="46.78579" lon="5.61739">
        <ele>400</ele>
        <time>2017-10-19T08:12:10Z</time>
      </trkpt>
      <trkpt lat="46.78581" lon="5.61748">
        <ele>401</ele>
        <time>2017-10-19T08:13:58Z</time>
      </trkpt>
      <trkpt lat="46.78575" lon="5.61749">
        <ele>400</ele>
        <time>2017-10-19T08:15:39Z</time>
      </trkpt>
      <trkpt lat="46.78576" lon="5.61756">
        <ele>400</ele>
        <time>2017-10-19T08:15:44Z</time>
      </trkpt>
      <trkpt lat="46.78583" lon="5.61766">
        <ele>400</ele>
        <time>2017-10-19T08:15:57Z</time>
      </trkpt>
      <trkpt lat="46.78585" lon="5.61773">
        <ele>401</ele>
        <time>2017-10-19T08:16:02Z</time>
      </trkpt>
      <trkpt lat="46.78589" lon="5.61785">
        <ele>401</ele>
        <time>2017-10-19T08:16:12Z</time>
      </trkpt>
      <trkpt lat="46.78591" lon="5.61792">
        <ele>401</ele>
        <time>2017-10-19T08:16:18Z</time>
      </trkpt>
      <trkpt lat="46.78595" lon="5.61796">
        <ele>402</ele>
        <time>2017-10-19T08:16:24Z</time>
      </trkpt>
      <trkpt lat="46.78598" lon="5.61802">
        <ele>403</ele>
        <time>2017-10-19T08:16:30Z</time>
      </trkpt>
      <trkpt lat="46.78603" lon="5.61798">
        <ele>403</ele>
        <time>2017-10-19T08:16:56Z</time>
      </trkpt>
      <trkpt lat="46.78607" lon="5.61799">
        <ele>404</ele>
        <time>2017-10-19T08:17:50Z</time>
      </trkpt>
      <trkpt lat="46.78598" lon="5.61799">
        <ele>406</ele>
        <time>2017-10-19T08:18:42Z</time>
      </trkpt>
      <trkpt lat="46.78594" lon="5.61803">
        <ele>408</ele>
        <time>2017-10-19T08:18:47Z</time>
      </trkpt>
      <trkpt lat="46.78594" lon="5.61811">
        <ele>410</ele>
        <time>2017-10-19T08:18:57Z</time>
      </trkpt>
      <trkpt lat="46.786" lon="5.61809">
        <ele>410</ele>
        <time>2017-10-19T08:19:09Z</time>
      </trkpt>
      <trkpt lat="46.78605" lon="5.6181">
        <ele>412</ele>
        <time>2017-10-19T08:19:16Z</time>
      </trkpt>
      <trkpt lat="46.78611" lon="5.61809">
        <ele>411</ele>
        <time>2017-10-19T08:19:40Z</time>
      </trkpt>
      <trkpt lat="46.78615" lon="5.61813">
        <ele>410</ele>
        <time>2017-10-19T08:19:44Z</time>
      </trkpt>
      <trkpt lat="46.78623" lon="5.61819">
        <ele>409</ele>
        <time>2017-10-19T08:19:52Z</time>
      </trkpt>
      <trkpt lat="46.78627" lon="5.61823">
        <ele>409</ele>
        <time>2017-10-19T08:19:56Z</time>
      </trkpt>
      <trkpt lat="46.78649" lon="5.61845">
        <ele>405</ele>
        <time>2017-10-19T08:20:21Z</time>
      </trkpt>
      <trkpt lat="46.78651" lon="5.61852">
        <ele>404</ele>
        <time>2017-10-19T08:20:27Z</time>
      </trkpt>
      <trkpt lat="46.78652" lon="5.61861">
        <ele>404</ele>
        <time>2017-10-19T08:20:31Z</time>
      </trkpt>
      <trkpt lat="46.78655" lon="5.61866">
        <ele>404</ele>
        <time>2017-10-19T08:20:36Z</time>
      </trkpt>
      <trkpt lat="46.78654" lon="5.61873">
        <ele>404</ele>
        <time>2017-10-19T08:20:45Z</time>
      </trkpt>
      <trkpt lat="46.78653" lon="5.61879">
        <ele>404</ele>
        <time>2017-10-19T08:20:50Z</time>
      </trkpt>
      <trkpt lat="46.78662" lon="5.61935">
        <ele>405</ele>
        <time>2017-10-19T08:21:23Z</time>
      </trkpt>
      <trkpt lat="46.78666" lon="5.61949">
        <ele>404</ele>
        <time>2017-10-19T08:21:31Z</time>
      </trkpt>
      <trkpt lat="46.78668" lon="5.61955">
        <ele>405</ele>
        <time>2017-10-19T08:21:36Z</time>
      </trkpt>
      <trkpt lat="46.78667" lon="5.61959">
        <ele>405</ele>
        <time>2017-10-19T08:21:52Z</time>
      </trkpt>
      <trkpt lat="46.78667" lon="5.61967">
        <ele>406</ele>
        <time>2017-10-19T08:22:06Z</time>
      </trkpt>
      <trkpt lat="46.7867" lon="5.61977">
        <ele>407</ele>
        <time>2017-10-19T08:22:18Z</time>
      </trkpt>
      <trkpt lat="46.78673" lon="5.61992">
        <ele>407</ele>
        <time>2017-10-19T08:22:30Z</time>
      </trkpt>
      <trkpt lat="46.78676" lon="5.61998">
        <ele>408</ele>
        <time>2017-10-19T08:22:35Z</time>
      </trkpt>
      <trkpt lat="46.78678" lon="5.62004">
        <ele>408</ele>
        <time>2017-10-19T08:22:41Z</time>
      </trkpt>
      <trkpt lat="46.78681" lon="5.62009">
        <ele>408</ele>
        <time>2017-10-19T08:22:46Z</time>
      </trkpt>
      <trkpt lat="46.7868" lon="5.62028">
        <ele>408</ele>
        <time>2017-10-19T08:23:07Z</time>
      </trkpt>
      <trkpt lat="46.78677" lon="5.6204">
        <ele>410</ele>
        <time>2017-10-19T08:23:18Z</time>
      </trkpt>
      <trkpt lat="46.78679" lon="5.62054">
        <ele>411</ele>
        <time>2017-10-19T08:23:29Z</time>
      </trkpt>
      <trkpt lat="46.78683" lon="5.62049">
        <ele>416</ele>
        <time>2017-10-19T08:24:13Z</time>
      </trkpt>
      <trkpt lat="46.78682" lon="5.62042">
        <ele>418</ele>
        <time>2017-10-19T08:24:19Z</time>
      </trkpt>
      <trkpt lat="46.78679" lon="5.62036">
        <ele>418</ele>
        <time>2017-10-19T08:24:24Z</time>
      </trkpt>
      <trkpt lat="46.78678" lon="5.62029">
        <ele>418</ele>
        <time>2017-10-19T08:24:29Z</time>
      </trkpt>
      <trkpt lat="46.78663" lon="5.62006">
        <ele>417</ele>
        <time>2017-10-19T08:24:44Z</time>
      </trkpt>
      <trkpt lat="46.78663" lon="5.61998">
        <ele>417</ele>
        <time>2017-10-19T08:24:49Z</time>
      </trkpt>
      <trkpt lat="46.78662" lon="5.61991">
        <ele>417</ele>
        <time>2017-10-19T08:24:54Z</time>
      </trkpt>
      <trkpt lat="46.78662" lon="5.61985">
        <ele>420</ele>
        <time>2017-10-19T08:25:10Z</time>
      </trkpt>
      <trkpt lat="46.78658" lon="5.6198">
        <ele>421</ele>
        <time>2017-10-19T08:25:22Z</time>
      </trkpt>
      <trkpt lat="46.78656" lon="5.61965">
        <ele>422</ele>
        <time>2017-10-19T08:25:32Z</time>
      </trkpt>
      <trkpt lat="46.78653" lon="5.61959">
        <ele>422</ele>
        <time>2017-10-19T08:25:36Z</time>
      </trkpt>
      <trkpt lat="46.7865" lon="5.61954">
        <ele>422</ele>
        <time>2017-10-19T08:25:41Z</time>
      </trkpt>
      <trkpt lat="46.78651" lon="5.61946">
        <ele>417</ele>
        <time>2017-10-19T08:25:47Z</time>
      </trkpt>
      <trkpt lat="46.78649" lon="5.61939">
        <ele>416</ele>
        <time>2017-10-19T08:25:52Z</time>
      </trkpt>
      <trkpt lat="46.7864" lon="5.6193">
        <ele>415</ele>
        <time>2017-10-19T08:26:02Z</time>
      </trkpt>
      <trkpt lat="46.78639" lon="5.61922">
        <ele>415</ele>
        <time>2017-10-19T08:26:08Z</time>
      </trkpt>
      <trkpt lat="46.78637" lon="5.61909">
        <ele>414</ele>
        <time>2017-10-19T08:26:19Z</time>
      </trkpt>
      <trkpt lat="46.78633" lon="5.61912">
        <ele>414</ele>
        <time>2017-10-19T08:26:31Z</time>
      </trkpt>
      <trkpt lat="46.78629" lon="5.61916">
        <ele>414</ele>
        <time>2017-10-19T08:26:36Z</time>
      </trkpt>
      <trkpt lat="46.78619" lon="5.61904">
        <ele>414</ele>
        <time>2017-10-19T08:27:50Z</time>
      </trkpt>
      <trkpt lat="46.78615" lon="5.61901">
        <ele>414</ele>
        <time>2017-10-19T08:27:58Z</time>
      </trkpt>
      <trkpt lat="46.78614" lon="5.61895">
        <ele>415</ele>
        <time>2017-10-19T08:28:04Z</time>
      </trkpt>
      <trkpt lat="46.78616" lon="5.61889">
        <ele>415</ele>
        <time>2017-10-19T08:28:11Z</time>
      </trkpt>
      <trkpt lat="46.78621" lon="5.61886">
        <ele>416</ele>
        <time>2017-10-19T08:28:16Z</time>
      </trkpt>
      <trkpt lat="46.78619" lon="5.61878">
        <ele>416</ele>
        <time>2017-10-19T08:28:32Z</time>
      </trkpt>
      <trkpt lat="46.78612" lon="5.61883">
        <ele>417</ele>
        <time>2017-10-19T08:30:29Z</time>
      </trkpt>
      <trkpt lat="46.78607" lon="5.61884">
        <ele>418</ele>
        <time>2017-10-19T08:30:34Z</time>
      </trkpt>
      <trkpt lat="46.78602" lon="5.61884">
        <ele>418</ele>
        <time>2017-10-19T08:30:39Z</time>
      </trkpt>
      <trkpt lat="46.78598" lon="5.61887">
        <ele>416</ele>
        <time>2017-10-19T08:31:46Z</time>
      </trkpt>
      <trkpt lat="46.78597" lon="5.61897">
        <ele>417</ele>
        <time>2017-10-19T08:32:42Z</time>
      </trkpt>
      <trkpt lat="46.78601" lon="5.61894">
        <ele>418</ele>
        <time>2017-10-19T08:32:49Z</time>
      </trkpt>
      <trkpt lat="46.78602" lon="5.61898">
        <ele>418</ele>
        <time>2017-10-19T08:34:11Z</time>
      </trkpt>
      <trkpt lat="46.78605" lon="5.61904">
        <ele>418</ele>
        <time>2017-10-19T08:34:15Z</time>
      </trkpt>
      <trkpt lat="46.78606" lon="5.61911">
        <ele>420</ele>
        <time>2017-10-19T08:34:20Z</time>
      </trkpt>
      <trkpt lat="46.78611" lon="5.61912">
        <ele>419</ele>
        <time>2017-10-19T08:34:24Z</time>
      </trkpt>
      <trkpt lat="46.78616" lon="5.61914">
        <ele>418</ele>
        <time>2017-10-19T08:34:30Z</time>
      </trkpt>
      <trkpt lat="46.78627" lon="5.6193">
        <ele>415</ele>
        <time>2017-10-19T08:35:26Z</time>
      </trkpt>
      <trkpt lat="46.78631" lon="5.61942">
        <ele>414</ele>
        <time>2017-10-19T08:35:35Z</time>
      </trkpt>
      <trkpt lat="46.78638" lon="5.61953">
        <ele>415</ele>
        <time>2017-10-19T08:35:42Z</time>
      </trkpt>
      <trkpt lat="46.78641" lon="5.61965">
        <ele>416</ele>
        <time>2017-10-19T08:35:51Z</time>
      </trkpt>
      <trkpt lat="46.78641" lon="5.61979">
        <ele>416</ele>
        <time>2017-10-19T08:36:00Z</time>
      </trkpt>
      <trkpt lat="46.78643" lon="5.61986">
        <ele>416</ele>
        <time>2017-10-19T08:36:06Z</time>
      </trkpt>
      <trkpt lat="46.78645" lon="5.61994">
        <ele>416</ele>
        <time>2017-10-19T08:36:12Z</time>
      </trkpt>
      <trkpt lat="46.78649" lon="5.61999">
        <ele>417</ele>
        <time>2017-10-19T08:36:26Z</time>
      </trkpt>
      <trkpt lat="46.78651" lon="5.62005">
        <ele>417</ele>
        <time>2017-10-19T08:36:31Z</time>
      </trkpt>
      <trkpt lat="46.78654" lon="5.62011">
        <ele>417</ele>
        <time>2017-10-19T08:36:35Z</time>
      </trkpt>
      <trkpt lat="46.78655" lon="5.62018">
        <ele>417</ele>
        <time>2017-10-19T08:36:41Z</time>
      </trkpt>
      <trkpt lat="46.78659" lon="5.62039">
        <ele>419</ele>
        <time>2017-10-19T08:36:54Z</time>
      </trkpt>
      <trkpt lat="46.78671" lon="5.62071">
        <ele>422</ele>
        <time>2017-10-19T08:37:19Z</time>
      </trkpt>
      <trkpt lat="46.78672" lon="5.62078">
        <ele>422</ele>
        <time>2017-10-19T08:37:23Z</time>
      </trkpt>
      <trkpt lat="46.78682" lon="5.62105">
        <ele>424</ele>
        <time>2017-10-19T08:37:44Z</time>
      </trkpt>
      <trkpt lat="46.78688" lon="5.62115">
        <ele>423</ele>
        <time>2017-10-19T08:37:53Z</time>
      </trkpt>
      <trkpt lat="46.78691" lon="5.62128">
        <ele>425</ele>
        <time>2017-10-19T08:38:04Z</time>
      </trkpt>
      <trkpt lat="46.78709" lon="5.62163">
        <ele>427</ele>
        <time>2017-10-19T08:38:32Z</time>
      </trkpt>
      <trkpt lat="46.78733" lon="5.62206">
        <ele>433</ele>
        <time>2017-10-19T08:39:13Z</time>
      </trkpt>
      <trkpt lat="46.78746" lon="5.62226">
        <ele>436</ele>
        <time>2017-10-19T08:39:31Z</time>
      </trkpt>
      <trkpt lat="46.78764" lon="5.62238">
        <ele>437</ele>
        <time>2017-10-19T08:39:46Z</time>
      </trkpt>
      <trkpt lat="46.78773" lon="5.6224">
        <ele>438</ele>
        <time>2017-10-19T08:39:54Z</time>
      </trkpt>
      <trkpt lat="46.78781" lon="5.62249">
        <ele>439</ele>
        <time>2017-10-19T08:40:06Z</time>
      </trkpt>
      <trkpt lat="46.7879" lon="5.62252">
        <ele>440</ele>
        <time>2017-10-19T08:40:14Z</time>
      </trkpt>
      <trkpt lat="46.78798" lon="5.62258">
        <ele>442</ele>
        <time>2017-10-19T08:40:26Z</time>
      </trkpt>
      <trkpt lat="46.7881" lon="5.6228">
        <ele>444</ele>
        <time>2017-10-19T08:40:47Z</time>
      </trkpt>
      <trkpt lat="46.78819" lon="5.62285">
        <ele>444</ele>
        <time>2017-10-19T08:40:55Z</time>
      </trkpt>
      <trkpt lat="46.7884" lon="5.62298">
        <ele>448</ele>
        <time>2017-10-19T08:41:23Z</time>
      </trkpt>
      <trkpt lat="46.78845" lon="5.62298">
        <ele>449</ele>
        <time>2017-10-19T08:41:29Z</time>
      </trkpt>
      <trkpt lat="46.7885" lon="5.623">
        <ele>449</ele>
        <time>2017-10-19T08:41:34Z</time>
      </trkpt>
      <trkpt lat="46.78858" lon="5.6231">
        <ele>450</ele>
        <time>2017-10-19T08:41:44Z</time>
      </trkpt>
      <trkpt lat="46.78862" lon="5.62314">
        <ele>450</ele>
        <time>2017-10-19T08:41:50Z</time>
      </trkpt>
      <trkpt lat="46.78867" lon="5.62319">
        <ele>451</ele>
        <time>2017-10-19T08:41:57Z</time>
      </trkpt>
      <trkpt lat="46.7887" lon="5.62324">
        <ele>452</ele>
        <time>2017-10-19T08:42:02Z</time>
      </trkpt>
      <trkpt lat="46.78873" lon="5.62329">
        <ele>453</ele>
        <time>2017-10-19T08:42:07Z</time>
      </trkpt>
      <trkpt lat="46.78877" lon="5.62332">
        <ele>454</ele>
        <time>2017-10-19T08:42:12Z</time>
      </trkpt>
      <trkpt lat="46.789" lon="5.6236">
        <ele>456</ele>
        <time>2017-10-19T08:42:57Z</time>
      </trkpt>
      <trkpt lat="46.78903" lon="5.62371">
        <ele>458</ele>
        <time>2017-10-19T08:45:00Z</time>
      </trkpt>
      <trkpt lat="46.78899" lon="5.62376">
        <ele>459</ele>
        <time>2017-10-19T08:45:05Z</time>
      </trkpt>
      <trkpt lat="46.7889" lon="5.62382">
        <ele>463</ele>
        <time>2017-10-19T08:45:18Z</time>
      </trkpt>
      <trkpt lat="46.78886" lon="5.62387">
        <ele>464</ele>
        <time>2017-10-19T08:45:24Z</time>
      </trkpt>
      <trkpt lat="46.78881" lon="5.62391">
        <ele>465</ele>
        <time>2017-10-19T08:45:27Z</time>
      </trkpt>
      <trkpt lat="46.78876" lon="5.62403">
        <ele>466</ele>
        <time>2017-10-19T08:45:35Z</time>
      </trkpt>
      <trkpt lat="46.78849" lon="5.62418">
        <ele>469</ele>
        <time>2017-10-19T08:46:06Z</time>
      </trkpt>
      <trkpt lat="46.78842" lon="5.62426">
        <ele>469</ele>
        <time>2017-10-19T08:46:18Z</time>
      </trkpt>
      <trkpt lat="46.78835" lon="5.62436">
        <ele>468</ele>
        <time>2017-10-19T08:46:28Z</time>
      </trkpt>
      <trkpt lat="46.78818" lon="5.62452">
        <ele>470</ele>
        <time>2017-10-19T08:46:47Z</time>
      </trkpt>
      <trkpt lat="46.78811" lon="5.6246">
        <ele>472</ele>
        <time>2017-10-19T08:47:02Z</time>
      </trkpt>
      <trkpt lat="46.7877" lon="5.62469">
        <ele>479</ele>
        <time>2017-10-19T08:47:40Z</time>
      </trkpt>
      <trkpt lat="46.78761" lon="5.62473">
        <ele>479</ele>
        <time>2017-10-19T08:47:49Z</time>
      </trkpt>
      <trkpt lat="46.78754" lon="5.62483">
        <ele>479</ele>
        <time>2017-10-19T08:47:57Z</time>
      </trkpt>
      <trkpt lat="46.78754" lon="5.62497">
        <ele>478</ele>
        <time>2017-10-19T08:48:05Z</time>
      </trkpt>
      <trkpt lat="46.78754" lon="5.62511">
        <ele>478</ele>
        <time>2017-10-19T08:48:13Z</time>
      </trkpt>
      <trkpt lat="46.78747" lon="5.6252">
        <ele>477</ele>
        <time>2017-10-19T08:48:21Z</time>
      </trkpt>
      <trkpt lat="46.78731" lon="5.62536">
        <ele>477</ele>
        <time>2017-10-19T08:48:35Z</time>
      </trkpt>
      <trkpt lat="46.78725" lon="5.62547">
        <ele>476</ele>
        <time>2017-10-19T08:48:46Z</time>
      </trkpt>
      <trkpt lat="46.78717" lon="5.62554">
        <ele>476</ele>
        <time>2017-10-19T08:48:54Z</time>
      </trkpt>
      <trkpt lat="46.78701" lon="5.6257">
        <ele>476</ele>
        <time>2017-10-19T08:49:19Z</time>
      </trkpt>
      <trkpt lat="46.78691" lon="5.62571">
        <ele>476</ele>
        <time>2017-10-19T08:49:23Z</time>
      </trkpt>
      <trkpt lat="46.78681" lon="5.62574">
        <ele>476</ele>
        <time>2017-10-19T08:49:29Z</time>
      </trkpt>
      <trkpt lat="46.78673" lon="5.62582">
        <ele>476</ele>
        <time>2017-10-19T08:49:36Z</time>
      </trkpt>
      <trkpt lat="46.78646" lon="5.62621">
        <ele>475</ele>
        <time>2017-10-19T08:50:10Z</time>
      </trkpt>
      <trkpt lat="46.78638" lon="5.62629">
        <ele>475</ele>
        <time>2017-10-19T08:50:17Z</time>
      </trkpt>
      <trkpt lat="46.78611" lon="5.62647">
        <ele>474</ele>
        <time>2017-10-19T08:50:48Z</time>
      </trkpt>
      <trkpt lat="46.78603" lon="5.62653">
        <ele>474</ele>
        <time>2017-10-19T08:50:56Z</time>
      </trkpt>
      <trkpt lat="46.78558" lon="5.62656">
        <ele>472</ele>
        <time>2017-10-19T08:51:30Z</time>
      </trkpt>
      <trkpt lat="46.7855" lon="5.62662">
        <ele>472</ele>
        <time>2017-10-19T08:51:46Z</time>
      </trkpt>
      <trkpt lat="46.78539" lon="5.62664">
        <ele>471</ele>
        <time>2017-10-19T08:51:56Z</time>
      </trkpt>
      <trkpt lat="46.7851" lon="5.62655">
        <ele>471</ele>
        <time>2017-10-19T08:52:32Z</time>
      </trkpt>
      <trkpt lat="46.785" lon="5.62656">
        <ele>471</ele>
        <time>2017-10-19T08:52:38Z</time>
      </trkpt>
      <trkpt lat="46.7846" lon="5.62652">
        <ele>471</ele>
        <time>2017-10-19T08:53:16Z</time>
      </trkpt>
      <trkpt lat="46.78442" lon="5.62642">
        <ele>470</ele>
        <time>2017-10-19T08:53:31Z</time>
      </trkpt>
      <trkpt lat="46.78429" lon="5.62643">
        <ele>469</ele>
        <time>2017-10-19T08:53:41Z</time>
      </trkpt>
      <trkpt lat="46.78421" lon="5.62636">
        <ele>469</ele>
        <time>2017-10-19T08:53:49Z</time>
      </trkpt>
      <trkpt lat="46.78412" lon="5.62631">
        <ele>468</ele>
        <time>2017-10-19T08:53:57Z</time>
      </trkpt>
      <trkpt lat="46.78404" lon="5.62622">
        <ele>467</ele>
        <time>2017-10-19T08:54:06Z</time>
      </trkpt>
      <trkpt lat="46.78399" lon="5.6261">
        <ele>466</ele>
        <time>2017-10-19T08:54:13Z</time>
      </trkpt>
      <trkpt lat="46.78391" lon="5.62602">
        <ele>466</ele>
        <time>2017-10-19T08:54:25Z</time>
      </trkpt>
      <trkpt lat="46.78384" lon="5.62591">
        <ele>466</ele>
        <time>2017-10-19T08:54:33Z</time>
      </trkpt>
      <trkpt lat="46.78361" lon="5.62568">
        <ele>465</ele>
        <time>2017-10-19T08:54:57Z</time>
      </trkpt>
      <trkpt lat="46.78351" lon="5.62545">
        <ele>465</ele>
        <time>2017-10-19T08:55:17Z</time>
      </trkpt>
      <trkpt lat="46.78342" lon="5.62538">
        <ele>464</ele>
        <time>2017-10-19T08:55:24Z</time>
      </trkpt>
      <trkpt lat="46.78335" lon="5.62529">
        <ele>464</ele>
        <time>2017-10-19T08:55:33Z</time>
      </trkpt>
      <trkpt lat="46.78325" lon="5.62525">
        <ele>464</ele>
        <time>2017-10-19T08:55:41Z</time>
      </trkpt>
      <trkpt lat="46.78317" lon="5.62518">
        <ele>464</ele>
        <time>2017-10-19T08:55:47Z</time>
      </trkpt>
      <trkpt lat="46.78307" lon="5.62514">
        <ele>464</ele>
        <time>2017-10-19T08:55:54Z</time>
      </trkpt>
      <trkpt lat="46.7829" lon="5.62502">
        <ele>464</ele>
        <time>2017-10-19T08:56:09Z</time>
      </trkpt>
      <trkpt lat="46.78281" lon="5.62495">
        <ele>463</ele>
        <time>2017-10-19T08:56:18Z</time>
      </trkpt>
      <trkpt lat="46.78267" lon="5.62491">
        <ele>462</ele>
        <time>2017-10-19T08:56:30Z</time>
      </trkpt>
      <trkpt lat="46.78257" lon="5.62494">
        <ele>462</ele>
        <time>2017-10-19T08:56:39Z</time>
      </trkpt>
      <trkpt lat="46.78251" lon="5.62495">
        <ele>463</ele>
        <time>2017-10-19T08:56:44Z</time>
      </trkpt>
      <trkpt lat="46.78233" lon="5.62488">
        <ele>463</ele>
        <time>2017-10-19T08:57:05Z</time>
      </trkpt>
      <trkpt lat="46.78198" lon="5.62482">
        <ele>459</ele>
        <time>2017-10-19T08:57:39Z</time>
      </trkpt>
      <trkpt lat="46.78193" lon="5.62482">
        <ele>459</ele>
        <time>2017-10-19T08:57:44Z</time>
      </trkpt>
      <trkpt lat="46.78188" lon="5.62479">
        <ele>459</ele>
        <time>2017-10-19T08:57:49Z</time>
      </trkpt>
      <trkpt lat="46.78178" lon="5.62481">
        <ele>459</ele>
        <time>2017-10-19T08:57:59Z</time>
      </trkpt>
      <trkpt lat="46.78168" lon="5.62487">
        <ele>458</ele>
        <time>2017-10-19T08:58:08Z</time>
      </trkpt>
      <trkpt lat="46.78164" lon="5.62491">
        <ele>459</ele>
        <time>2017-10-19T08:58:12Z</time>
      </trkpt>
      <trkpt lat="46.78132" lon="5.62525">
        <ele>461</ele>
        <time>2017-10-19T08:58:47Z</time>
      </trkpt>
      <trkpt lat="46.78124" lon="5.62535">
        <ele>462</ele>
        <time>2017-10-19T08:58:56Z</time>
      </trkpt>
      <trkpt lat="46.7812" lon="5.62539">
        <ele>461</ele>
        <time>2017-10-19T08:59:00Z</time>
      </trkpt>
      <trkpt lat="46.78103" lon="5.62549">
        <ele>460</ele>
        <time>2017-10-19T08:59:17Z</time>
      </trkpt>
      <trkpt lat="46.78098" lon="5.6255">
        <ele>460</ele>
        <time>2017-10-19T08:59:22Z</time>
      </trkpt>
      <trkpt lat="46.78093" lon="5.62554">
        <ele>458</ele>
        <time>2017-10-19T08:59:27Z</time>
      </trkpt>
      <trkpt lat="46.78084" lon="5.62557">
        <ele>457</ele>
        <time>2017-10-19T08:59:35Z</time>
      </trkpt>
      <trkpt lat="46.78078" lon="5.62557">
        <ele>457</ele>
        <time>2017-10-19T08:59:39Z</time>
      </trkpt>
      <trkpt lat="46.78035" lon="5.62556">
        <ele>461</ele>
        <time>2017-10-19T09:00:13Z</time>
      </trkpt>
      <trkpt lat="46.7803" lon="5.62556">
        <ele>461</ele>
        <time>2017-10-19T09:00:17Z</time>
      </trkpt>
      <trkpt lat="46.78021" lon="5.62553">
        <ele>461</ele>
        <time>2017-10-19T09:00:25Z</time>
      </trkpt>
      <trkpt lat="46.78002" lon="5.62548">
        <ele>459</ele>
        <time>2017-10-19T09:00:41Z</time>
      </trkpt>
      <trkpt lat="46.77988" lon="5.62548">
        <ele>460</ele>
        <time>2017-10-19T09:00:53Z</time>
      </trkpt>
      <trkpt lat="46.77983" lon="5.62547">
        <ele>460</ele>
        <time>2017-10-19T09:00:57Z</time>
      </trkpt>
      <trkpt lat="46.77978" lon="5.62547">
        <ele>460</ele>
        <time>2017-10-19T09:01:01Z</time>
      </trkpt>
      <trkpt lat="46.77967" lon="5.62551">
        <ele>460</ele>
        <time>2017-10-19T09:01:09Z</time>
      </trkpt>
      <trkpt lat="46.77963" lon="5.62555">
        <ele>460</ele>
        <time>2017-10-19T09:01:13Z</time>
      </trkpt>
      <trkpt lat="46.77959" lon="5.62558">
        <ele>459</ele>
        <time>2017-10-19T09:01:17Z</time>
      </trkpt>
      <trkpt lat="46.77955" lon="5.62562">
        <ele>459</ele>
        <time>2017-10-19T09:01:21Z</time>
      </trkpt>
      <trkpt lat="46.77938" lon="5.6258">
        <ele>460</ele>
        <time>2017-10-19T09:01:40Z</time>
      </trkpt>
      <trkpt lat="46.77933" lon="5.62585">
        <ele>459</ele>
        <time>2017-10-19T09:01:45Z</time>
      </trkpt>
      <trkpt lat="46.77924" lon="5.62592">
        <ele>460</ele>
        <time>2017-10-19T09:01:54Z</time>
      </trkpt>
      <trkpt lat="46.7792" lon="5.62595">
        <ele>460</ele>
        <time>2017-10-19T09:01:59Z</time>
      </trkpt>
      <trkpt lat="46.77915" lon="5.62596">
        <ele>460</ele>
        <time>2017-10-19T09:02:03Z</time>
      </trkpt>
      <trkpt lat="46.77909" lon="5.62594">
        <ele>461</ele>
        <time>2017-10-19T09:02:07Z</time>
      </trkpt>
      <trkpt lat="46.77874" lon="5.62574">
        <ele>465</ele>
        <time>2017-10-19T09:02:36Z</time>
      </trkpt>
      <trkpt lat="46.77869" lon="5.62573">
        <ele>465</ele>
        <time>2017-10-19T09:02:41Z</time>
      </trkpt>
      <trkpt lat="46.77863" lon="5.62574">
        <ele>465</ele>
        <time>2017-10-19T09:02:46Z</time>
      </trkpt>
      <trkpt lat="46.77849" lon="5.62579">
        <ele>465</ele>
        <time>2017-10-19T09:02:59Z</time>
      </trkpt>
      <trkpt lat="46.77833" lon="5.62577">
        <ele>465</ele>
        <time>2017-10-19T09:03:15Z</time>
      </trkpt>
      <trkpt lat="46.77824" lon="5.62575">
        <ele>465</ele>
        <time>2017-10-19T09:03:23Z</time>
      </trkpt>
      <trkpt lat="46.77818" lon="5.62575">
        <ele>465</ele>
        <time>2017-10-19T09:03:28Z</time>
      </trkpt>
      <trkpt lat="46.77807" lon="5.6257">
        <ele>466</ele>
        <time>2017-10-19T09:03:36Z</time>
      </trkpt>
      <trkpt lat="46.77803" lon="5.62572">
        <ele>466</ele>
        <time>2017-10-19T09:03:42Z</time>
      </trkpt>
      <trkpt lat="46.77798" lon="5.62576">
        <ele>466</ele>
        <time>2017-10-19T09:03:46Z</time>
      </trkpt>
      <trkpt lat="46.77794" lon="5.62577">
        <ele>466</ele>
        <time>2017-10-19T09:03:50Z</time>
      </trkpt>
      <trkpt lat="46.7779" lon="5.6258">
        <ele>466</ele>
        <time>2017-10-19T09:03:54Z</time>
      </trkpt>
      <trkpt lat="46.77786" lon="5.62586">
        <ele>466</ele>
        <time>2017-10-19T09:04:01Z</time>
      </trkpt>
      <trkpt lat="46.77755" lon="5.62619">
        <ele>465</ele>
        <time>2017-10-19T09:04:34Z</time>
      </trkpt>
      <trkpt lat="46.77733" lon="5.62651">
        <ele>465</ele>
        <time>2017-10-19T09:04:58Z</time>
      </trkpt>
      <trkpt lat="46.77711" lon="5.62697">
        <ele>465</ele>
        <time>2017-10-19T09:05:30Z</time>
      </trkpt>
      <trkpt lat="46.77694" lon="5.62732">
        <ele>465</ele>
        <time>2017-10-19T09:06:00Z</time>
      </trkpt>
      <trkpt lat="46.7769" lon="5.62738">
        <ele>466</ele>
        <time>2017-10-19T09:06:05Z</time>
      </trkpt>
      <trkpt lat="46.77688" lon="5.62744">
        <ele>466</ele>
        <time>2017-10-19T09:06:09Z</time>
      </trkpt>
      <trkpt lat="46.77685" lon="5.62752">
        <ele>466</ele>
        <time>2017-10-19T09:06:27Z</time>
      </trkpt>
      <trkpt lat="46.77668" lon="5.62798">
        <ele>467</ele>
        <time>2017-10-19T09:06:59Z</time>
      </trkpt>
      <trkpt lat="46.77661" lon="5.62815">
        <ele>468</ele>
        <time>2017-10-19T09:07:11Z</time>
      </trkpt>
      <trkpt lat="46.77654" lon="5.62826">
        <ele>469</ele>
        <time>2017-10-19T09:07:20Z</time>
      </trkpt>
      <trkpt lat="46.7764" lon="5.62848">
        <ele>469</ele>
        <time>2017-10-19T09:07:39Z</time>
      </trkpt>
      <trkpt lat="46.77633" lon="5.62856">
        <ele>470</ele>
        <time>2017-10-19T09:07:49Z</time>
      </trkpt>
      <trkpt lat="46.77629" lon="5.62865">
        <ele>471</ele>
        <time>2017-10-19T09:08:15Z</time>
      </trkpt>
      <trkpt lat="46.77626" lon="5.62869">
        <ele>471</ele>
        <time>2017-10-19T09:08:20Z</time>
      </trkpt>
      <trkpt lat="46.77621" lon="5.62872">
        <ele>472</ele>
        <time>2017-10-19T09:08:24Z</time>
      </trkpt>
      <trkpt lat="46.77613" lon="5.6288">
        <ele>472</ele>
        <time>2017-10-19T09:08:34Z</time>
      </trkpt>
      <trkpt lat="46.7761" lon="5.62886">
        <ele>472</ele>
        <time>2017-10-19T09:08:41Z</time>
      </trkpt>
      <trkpt lat="46.77589" lon="5.62909">
        <ele>472</ele>
        <time>2017-10-19T09:09:06Z</time>
      </trkpt>
      <trkpt lat="46.77581" lon="5.62919">
        <ele>473</ele>
        <time>2017-10-19T09:09:16Z</time>
      </trkpt>
      <trkpt lat="46.77575" lon="5.62933">
        <ele>474</ele>
        <time>2017-10-19T09:09:26Z</time>
      </trkpt>
      <trkpt lat="46.77573" lon="5.62954">
        <ele>475</ele>
        <time>2017-10-19T09:09:40Z</time>
      </trkpt>
      <trkpt lat="46.7757" lon="5.6296">
        <ele>475</ele>
        <time>2017-10-19T09:09:44Z</time>
      </trkpt>
      <trkpt lat="46.77565" lon="5.62963">
        <ele>475</ele>
        <time>2017-10-19T09:09:48Z</time>
      </trkpt>
      <trkpt lat="46.77559" lon="5.62963">
        <ele>475</ele>
        <time>2017-10-19T09:09:52Z</time>
      </trkpt>
      <trkpt lat="46.77554" lon="5.62961">
        <ele>475</ele>
        <time>2017-10-19T09:09:56Z</time>
      </trkpt>
      <trkpt lat="46.77545" lon="5.62954">
        <ele>474</ele>
        <time>2017-10-19T09:10:04Z</time>
      </trkpt>
      <trkpt lat="46.77541" lon="5.62953">
        <ele>474</ele>
        <time>2017-10-19T09:10:08Z</time>
      </trkpt>
      <trkpt lat="46.77531" lon="5.62954">
        <ele>474</ele>
        <time>2017-10-19T09:10:16Z</time>
      </trkpt>
      <trkpt lat="46.77526" lon="5.62952">
        <ele>474</ele>
        <time>2017-10-19T09:10:20Z</time>
      </trkpt>
      <trkpt lat="46.77509" lon="5.62932">
        <ele>474</ele>
        <time>2017-10-19T09:10:41Z</time>
      </trkpt>
      <trkpt lat="46.77505" lon="5.62926">
        <ele>474</ele>
        <time>2017-10-19T09:10:46Z</time>
      </trkpt>
      <trkpt lat="46.77502" lon="5.6292">
        <ele>474</ele>
        <time>2017-10-19T09:10:51Z</time>
      </trkpt>
      <trkpt lat="46.77495" lon="5.6291">
        <ele>474</ele>
        <time>2017-10-19T09:10:59Z</time>
      </trkpt>
      <trkpt lat="46.77494" lon="5.62903">
        <ele>474</ele>
        <time>2017-10-19T09:11:03Z</time>
      </trkpt>
      <trkpt lat="46.77485" lon="5.62895">
        <ele>474</ele>
        <time>2017-10-19T09:11:10Z</time>
      </trkpt>
      <trkpt lat="46.77482" lon="5.62889">
        <ele>474</ele>
        <time>2017-10-19T09:11:14Z</time>
      </trkpt>
      <trkpt lat="46.77464" lon="5.62876">
        <ele>474</ele>
        <time>2017-10-19T09:11:29Z</time>
      </trkpt>
      <trkpt lat="46.77447" lon="5.62858">
        <ele>475</ele>
        <time>2017-10-19T09:11:49Z</time>
      </trkpt>
      <trkpt lat="46.77443" lon="5.62857">
        <ele>475</ele>
        <time>2017-10-19T09:11:53Z</time>
      </trkpt>
      <trkpt lat="46.77423" lon="5.62848">
        <ele>476</ele>
        <time>2017-10-19T09:12:12Z</time>
      </trkpt>
      <trkpt lat="46.77407" lon="5.62844">
        <ele>476</ele>
        <time>2017-10-19T09:12:23Z</time>
      </trkpt>
      <trkpt lat="46.77397" lon="5.62842">
        <ele>477</ele>
        <time>2017-10-19T09:12:31Z</time>
      </trkpt>
      <trkpt lat="46.77391" lon="5.62839">
        <ele>477</ele>
        <time>2017-10-19T09:12:36Z</time>
      </trkpt>
      <trkpt lat="46.77381" lon="5.6284">
        <ele>477</ele>
        <time>2017-10-19T09:12:42Z</time>
      </trkpt>
      <trkpt lat="46.7736" lon="5.62837">
        <ele>478</ele>
        <time>2017-10-19T09:12:58Z</time>
      </trkpt>
      <trkpt lat="46.77355" lon="5.62835">
        <ele>478</ele>
        <time>2017-10-19T09:13:04Z</time>
      </trkpt>
      <trkpt lat="46.7735" lon="5.62834">
        <ele>478</ele>
        <time>2017-10-19T09:13:08Z</time>
      </trkpt>
      <trkpt lat="46.77346" lon="5.6283">
        <ele>478</ele>
        <time>2017-10-19T09:13:12Z</time>
      </trkpt>
      <trkpt lat="46.77341" lon="5.62828">
        <ele>478</ele>
        <time>2017-10-19T09:13:17Z</time>
      </trkpt>
      <trkpt lat="46.77322" lon="5.62824">
        <ele>480</ele>
        <time>2017-10-19T09:13:33Z</time>
      </trkpt>
      <trkpt lat="46.77317" lon="5.62821">
        <ele>480</ele>
        <time>2017-10-19T09:13:36Z</time>
      </trkpt>
      <trkpt lat="46.77313" lon="5.62816">
        <ele>480</ele>
        <time>2017-10-19T09:13:42Z</time>
      </trkpt>
      <trkpt lat="46.77309" lon="5.62814">
        <ele>481</ele>
        <time>2017-10-19T09:13:45Z</time>
      </trkpt>
      <trkpt lat="46.77304" lon="5.62812">
        <ele>481</ele>
        <time>2017-10-19T09:13:49Z</time>
      </trkpt>
      <trkpt lat="46.77289" lon="5.62808">
        <ele>481</ele>
        <time>2017-10-19T09:14:01Z</time>
      </trkpt>
      <trkpt lat="46.77269" lon="5.62816">
        <ele>481</ele>
        <time>2017-10-19T09:14:15Z</time>
      </trkpt>
      <trkpt lat="46.77264" lon="5.62818">
        <ele>482</ele>
        <time>2017-10-19T09:14:20Z</time>
      </trkpt>
      <trkpt lat="46.77259" lon="5.6282">
        <ele>482</ele>
        <time>2017-10-19T09:14:25Z</time>
      </trkpt>
      <trkpt lat="46.77251" lon="5.62828">
        <ele>483</ele>
        <time>2017-10-19T09:14:34Z</time>
      </trkpt>
      <trkpt lat="46.77246" lon="5.62831">
        <ele>484</ele>
        <time>2017-10-19T09:14:39Z</time>
      </trkpt>
      <trkpt lat="46.77244" lon="5.62825">
        <ele>484</ele>
        <time>2017-10-19T09:14:48Z</time>
      </trkpt>
      <trkpt lat="46.77241" lon="5.62816">
        <ele>484</ele>
        <time>2017-10-19T09:15:01Z</time>
      </trkpt>
      <trkpt lat="46.77237" lon="5.62811">
        <ele>484</ele>
        <time>2017-10-19T09:15:07Z</time>
      </trkpt>
      <trkpt lat="46.77222" lon="5.62801">
        <ele>484</ele>
        <time>2017-10-19T09:15:21Z</time>
      </trkpt>
      <trkpt lat="46.77218" lon="5.62797">
        <ele>484</ele>
        <time>2017-10-19T09:15:24Z</time>
      </trkpt>
      <trkpt lat="46.77213" lon="5.62795">
        <ele>484</ele>
        <time>2017-10-19T09:15:27Z</time>
      </trkpt>
      <trkpt lat="46.77209" lon="5.6279">
        <ele>484</ele>
        <time>2017-10-19T09:15:32Z</time>
      </trkpt>
      <trkpt lat="46.77171" lon="5.62773">
        <ele>483</ele>
        <time>2017-10-19T09:16:04Z</time>
      </trkpt>
      <trkpt lat="46.77136" lon="5.62748">
        <ele>482</ele>
        <time>2017-10-19T09:16:36Z</time>
      </trkpt>
      <trkpt lat="46.77119" lon="5.6274">
        <ele>482</ele>
        <time>2017-10-19T09:16:50Z</time>
      </trkpt>
      <trkpt lat="46.77081" lon="5.62733">
        <ele>483</ele>
        <time>2017-10-19T09:17:24Z</time>
      </trkpt>
      <trkpt lat="46.77072" lon="5.62729">
        <ele>483</ele>
        <time>2017-10-19T09:17:32Z</time>
      </trkpt>
      <trkpt lat="46.77036" lon="5.62712">
        <ele>482</ele>
        <time>2017-10-19T09:18:07Z</time>
      </trkpt>
      <trkpt lat="46.77027" lon="5.62707">
        <ele>482</ele>
        <time>2017-10-19T09:18:16Z</time>
      </trkpt>
      <trkpt lat="46.77018" lon="5.62708">
        <ele>481</ele>
        <time>2017-10-19T09:18:25Z</time>
      </trkpt>
      <trkpt lat="46.7699" lon="5.62701">
        <ele>480</ele>
        <time>2017-10-19T09:18:48Z</time>
      </trkpt>
      <trkpt lat="46.76981" lon="5.62696">
        <ele>479</ele>
        <time>2017-10-19T09:18:58Z</time>
      </trkpt>
      <trkpt lat="46.76957" lon="5.6267">
        <ele>477</ele>
        <time>2017-10-19T09:19:32Z</time>
      </trkpt>
      <trkpt lat="46.76948" lon="5.62662">
        <ele>476</ele>
        <time>2017-10-19T09:19:42Z</time>
      </trkpt>
      <trkpt lat="46.76933" lon="5.62654">
        <ele>476</ele>
        <time>2017-10-19T09:19:58Z</time>
      </trkpt>
      <trkpt lat="46.76909" lon="5.62645">
        <ele>477</ele>
        <time>2017-10-19T09:20:22Z</time>
      </trkpt>
      <trkpt lat="46.76905" lon="5.62639">
        <ele>477</ele>
        <time>2017-10-19T09:20:29Z</time>
      </trkpt>
      <trkpt lat="46.76896" lon="5.62631">
        <ele>477</ele>
        <time>2017-10-19T09:20:39Z</time>
      </trkpt>
      <trkpt lat="46.76886" lon="5.62629">
        <ele>478</ele>
        <time>2017-10-19T09:20:45Z</time>
      </trkpt>
      <trkpt lat="46.76882" lon="5.62628">
        <ele>478</ele>
        <time>2017-10-19T09:20:52Z</time>
      </trkpt>
      <trkpt lat="46.76856" lon="5.62618">
        <ele>482</ele>
        <time>2017-10-19T09:21:16Z</time>
      </trkpt>
      <trkpt lat="46.76825" lon="5.62608">
        <ele>483</ele>
        <time>2017-10-19T09:21:39Z</time>
      </trkpt>
      <trkpt lat="46.76805" lon="5.62592">
        <ele>483</ele>
        <time>2017-10-19T09:22:07Z</time>
      </trkpt>
      <trkpt lat="46.76795" lon="5.62589">
        <ele>484</ele>
        <time>2017-10-19T09:22:32Z</time>
      </trkpt>
      <trkpt lat="46.76792" lon="5.62593">
        <ele>484</ele>
        <time>2017-10-19T09:22:53Z</time>
      </trkpt>
      <trkpt lat="46.76768" lon="5.62618">
        <ele>481</ele>
        <time>2017-10-19T09:32:44Z</time>
      </trkpt>
      <trkpt lat="46.76767" lon="5.62625">
        <ele>481</ele>
        <time>2017-10-19T09:32:49Z</time>
      </trkpt>
      <trkpt lat="46.76765" lon="5.62631">
        <ele>482</ele>
        <time>2017-10-19T09:32:54Z</time>
      </trkpt>
      <trkpt lat="46.76762" lon="5.62637">
        <ele>482</ele>
        <time>2017-10-19T09:32:58Z</time>
      </trkpt>
      <trkpt lat="46.76759" lon="5.62658">
        <ele>483</ele>
        <time>2017-10-19T09:33:13Z</time>
      </trkpt>
      <trkpt lat="46.76739" lon="5.62706">
        <ele>482</ele>
        <time>2017-10-19T09:33:43Z</time>
      </trkpt>
      <trkpt lat="46.76712" lon="5.62747">
        <ele>478</ele>
        <time>2017-10-19T09:34:22Z</time>
      </trkpt>
      <trkpt lat="46.76701" lon="5.62761">
        <ele>477</ele>
        <time>2017-10-19T09:34:36Z</time>
      </trkpt>
      <trkpt lat="46.76698" lon="5.62774">
        <ele>477</ele>
        <time>2017-10-19T09:34:45Z</time>
      </trkpt>
      <trkpt lat="46.76701" lon="5.62797">
        <ele>475</ele>
        <time>2017-10-19T09:34:58Z</time>
      </trkpt>
      <trkpt lat="46.76699" lon="5.62805">
        <ele>475</ele>
        <time>2017-10-19T09:35:03Z</time>
      </trkpt>
      <trkpt lat="46.76704" lon="5.62816">
        <ele>476</ele>
        <time>2017-10-19T09:35:11Z</time>
      </trkpt>
      <trkpt lat="46.76706" lon="5.62823">
        <ele>475</ele>
        <time>2017-10-19T09:35:16Z</time>
      </trkpt>
      <trkpt lat="46.76705" lon="5.6283">
        <ele>475</ele>
        <time>2017-10-19T09:35:20Z</time>
      </trkpt>
      <trkpt lat="46.76707" lon="5.62837">
        <ele>475</ele>
        <time>2017-10-19T09:35:24Z</time>
      </trkpt>
      <trkpt lat="46.76708" lon="5.62843">
        <ele>476</ele>
        <time>2017-10-19T09:35:29Z</time>
      </trkpt>
      <trkpt lat="46.76704" lon="5.62856">
        <ele>476</ele>
        <time>2017-10-19T09:35:44Z</time>
      </trkpt>
      <trkpt lat="46.76709" lon="5.62868">
        <ele>475</ele>
        <time>2017-10-19T09:35:53Z</time>
      </trkpt>
      <trkpt lat="46.76721" lon="5.6289">
        <ele>475</ele>
        <time>2017-10-19T09:36:10Z</time>
      </trkpt>
      <trkpt lat="46.76718" lon="5.62904">
        <ele>475</ele>
        <time>2017-10-19T09:36:34Z</time>
      </trkpt>
      <trkpt lat="46.76715" lon="5.62917">
        <ele>475</ele>
        <time>2017-10-19T09:36:43Z</time>
      </trkpt>
      <trkpt lat="46.76711" lon="5.62929">
        <ele>474</ele>
        <time>2017-10-19T09:36:51Z</time>
      </trkpt>
      <trkpt lat="46.76706" lon="5.62942">
        <ele>473</ele>
        <time>2017-10-19T09:37:00Z</time>
      </trkpt>
      <trkpt lat="46.76698" lon="5.6295">
        <ele>473</ele>
        <time>2017-10-19T09:37:09Z</time>
      </trkpt>
      <trkpt lat="46.76697" lon="5.62978">
        <ele>470</ele>
        <time>2017-10-19T09:37:23Z</time>
      </trkpt>
      <trkpt lat="46.767" lon="5.62992">
        <ele>469</ele>
        <time>2017-10-19T09:37:31Z</time>
      </trkpt>
      <trkpt lat="46.76703" lon="5.63004">
        <ele>468</ele>
        <time>2017-10-19T09:37:39Z</time>
      </trkpt>
      <trkpt lat="46.76704" lon="5.63017">
        <ele>467</ele>
        <time>2017-10-19T09:37:48Z</time>
      </trkpt>
      <trkpt lat="46.76704" lon="5.63032">
        <ele>467</ele>
        <time>2017-10-19T09:38:02Z</time>
      </trkpt>
      <trkpt lat="46.76709" lon="5.63043">
        <ele>466</ele>
        <time>2017-10-19T09:38:12Z</time>
      </trkpt>
      <trkpt lat="46.76715" lon="5.63053">
        <ele>466</ele>
        <time>2017-10-19T09:38:19Z</time>
      </trkpt>
      <trkpt lat="46.76724" lon="5.63058">
        <ele>466</ele>
        <time>2017-10-19T09:38:29Z</time>
      </trkpt>
      <trkpt lat="46.76731" lon="5.63065">
        <ele>466</ele>
        <time>2017-10-19T09:38:39Z</time>
      </trkpt>
      <trkpt lat="46.7674" lon="5.63072">
        <ele>467</ele>
        <time>2017-10-19T09:38:50Z</time>
      </trkpt>
      <trkpt lat="46.76753" lon="5.63092">
        <ele>469</ele>
        <time>2017-10-19T09:39:06Z</time>
      </trkpt>
      <trkpt lat="46.76779" lon="5.63112">
        <ele>473</ele>
        <time>2017-10-19T09:39:36Z</time>
      </trkpt>
      <trkpt lat="46.76786" lon="5.63121">
        <ele>473</ele>
        <time>2017-10-19T09:39:44Z</time>
      </trkpt>
      <trkpt lat="46.76793" lon="5.63132">
        <ele>474</ele>
        <time>2017-10-19T09:39:52Z</time>
      </trkpt>
      <trkpt lat="46.76805" lon="5.63155">
        <ele>474</ele>
        <time>2017-10-19T09:40:10Z</time>
      </trkpt>
      <trkpt lat="46.76812" lon="5.63164">
        <ele>473</ele>
        <time>2017-10-19T09:40:19Z</time>
      </trkpt>
      <trkpt lat="46.76816" lon="5.63167">
        <ele>473</ele>
        <time>2017-10-19T09:40:23Z</time>
      </trkpt>
      <trkpt lat="46.76817" lon="5.63174">
        <ele>473</ele>
        <time>2017-10-19T09:40:27Z</time>
      </trkpt>
      <trkpt lat="46.76822" lon="5.63186">
        <ele>473</ele>
        <time>2017-10-19T09:40:36Z</time>
      </trkpt>
      <trkpt lat="46.76825" lon="5.63193">
        <ele>473</ele>
        <time>2017-10-19T09:40:41Z</time>
      </trkpt>
      <trkpt lat="46.76829" lon="5.63199">
        <ele>473</ele>
        <time>2017-10-19T09:40:45Z</time>
      </trkpt>
      <trkpt lat="46.76832" lon="5.63203">
        <ele>473</ele>
        <time>2017-10-19T09:40:49Z</time>
      </trkpt>
      <trkpt lat="46.76834" lon="5.6321">
        <ele>473</ele>
        <time>2017-10-19T09:40:55Z</time>
      </trkpt>
      <trkpt lat="46.76837" lon="5.63217">
        <ele>474</ele>
        <time>2017-10-19T09:40:59Z</time>
      </trkpt>
      <trkpt lat="46.76843" lon="5.63229">
        <ele>473</ele>
        <time>2017-10-19T09:41:08Z</time>
      </trkpt>
      <trkpt lat="46.7685" lon="5.63239">
        <ele>473</ele>
        <time>2017-10-19T09:41:18Z</time>
      </trkpt>
      <trkpt lat="46.76859" lon="5.63244">
        <ele>473</ele>
        <time>2017-10-19T09:41:27Z</time>
      </trkpt>
      <trkpt lat="46.76871" lon="5.63274">
        <ele>474</ele>
        <time>2017-10-19T09:41:52Z</time>
      </trkpt>
      <trkpt lat="46.76874" lon="5.63286">
        <ele>474</ele>
        <time>2017-10-19T09:42:02Z</time>
      </trkpt>
      <trkpt lat="46.76879" lon="5.63298">
        <ele>473</ele>
        <time>2017-10-19T09:42:14Z</time>
      </trkpt>
      <trkpt lat="46.76884" lon="5.63326">
        <ele>472</ele>
        <time>2017-10-19T09:42:28Z</time>
      </trkpt>
      <trkpt lat="46.76882" lon="5.6334">
        <ele>472</ele>
        <time>2017-10-19T09:42:39Z</time>
      </trkpt>
      <trkpt lat="46.76883" lon="5.63347">
        <ele>472</ele>
        <time>2017-10-19T09:42:45Z</time>
      </trkpt>
      <trkpt lat="46.76883" lon="5.63354">
        <ele>472</ele>
        <time>2017-10-19T09:42:52Z</time>
      </trkpt>
      <trkpt lat="46.76883" lon="5.63361">
        <ele>472</ele>
        <time>2017-10-19T09:42:58Z</time>
      </trkpt>
      <trkpt lat="46.76886" lon="5.63367">
        <ele>472</ele>
        <time>2017-10-19T09:43:03Z</time>
      </trkpt>
      <trkpt lat="46.7689" lon="5.63371">
        <ele>472</ele>
        <time>2017-10-19T09:43:08Z</time>
      </trkpt>
      <trkpt lat="46.76889" lon="5.63379">
        <ele>473</ele>
        <time>2017-10-19T09:43:16Z</time>
      </trkpt>
      <trkpt lat="46.7689" lon="5.63386">
        <ele>473</ele>
        <time>2017-10-19T09:43:20Z</time>
      </trkpt>
      <trkpt lat="46.7689" lon="5.63392">
        <ele>472</ele>
        <time>2017-10-19T09:43:24Z</time>
      </trkpt>
      <trkpt lat="46.76892" lon="5.63401">
        <ele>472</ele>
        <time>2017-10-19T09:43:29Z</time>
      </trkpt>
      <trkpt lat="46.76895" lon="5.63423">
        <ele>471</ele>
        <time>2017-10-19T09:43:43Z</time>
      </trkpt>
      <trkpt lat="46.76899" lon="5.63427">
        <ele>471</ele>
        <time>2017-10-19T09:43:47Z</time>
      </trkpt>
      <trkpt lat="46.76903" lon="5.63441">
        <ele>471</ele>
        <time>2017-10-19T09:43:57Z</time>
      </trkpt>
      <trkpt lat="46.76906" lon="5.63447">
        <ele>471</ele>
        <time>2017-10-19T09:44:01Z</time>
      </trkpt>
      <trkpt lat="46.76907" lon="5.63454">
        <ele>471</ele>
        <time>2017-10-19T09:44:06Z</time>
      </trkpt>
      <trkpt lat="46.76907" lon="5.63461">
        <ele>471</ele>
        <time>2017-10-19T09:44:11Z</time>
      </trkpt>
      <trkpt lat="46.76906" lon="5.63468">
        <ele>473</ele>
        <time>2017-10-19T09:44:20Z</time>
      </trkpt>
      <trkpt lat="46.76908" lon="5.63475">
        <ele>474</ele>
        <time>2017-10-19T09:44:27Z</time>
      </trkpt>
      <trkpt lat="46.7691" lon="5.63482">
        <ele>474</ele>
        <time>2017-10-19T09:44:32Z</time>
      </trkpt>
      <trkpt lat="46.76909" lon="5.6349">
        <ele>474</ele>
        <time>2017-10-19T09:44:40Z</time>
      </trkpt>
      <trkpt lat="46.76905" lon="5.63503">
        <ele>475</ele>
        <time>2017-10-19T09:44:54Z</time>
      </trkpt>
      <trkpt lat="46.76902" lon="5.63508">
        <ele>476</ele>
        <time>2017-10-19T09:45:00Z</time>
      </trkpt>
      <trkpt lat="46.76902" lon="5.63516">
        <ele>476</ele>
        <time>2017-10-19T09:45:14Z</time>
      </trkpt>
      <trkpt lat="46.76902" lon="5.63525">
        <ele>477</ele>
        <time>2017-10-19T09:45:47Z</time>
      </trkpt>
      <trkpt lat="46.76902" lon="5.63535">
        <ele>476</ele>
        <time>2017-10-19T09:46:03Z</time>
      </trkpt>
      <trkpt lat="46.76897" lon="5.63538">
        <ele>476</ele>
        <time>2017-10-19T09:46:09Z</time>
      </trkpt>
      <trkpt lat="46.76893" lon="5.63539">
        <ele>477</ele>
        <time>2017-10-19T09:46:15Z</time>
      </trkpt>
      <trkpt lat="46.76891" lon="5.63545">
        <ele>477</ele>
        <time>2017-10-19T09:46:19Z</time>
      </trkpt>
      <trkpt lat="46.76889" lon="5.63552">
        <ele>478</ele>
        <time>2017-10-19T09:46:24Z</time>
      </trkpt>
      <trkpt lat="46.76883" lon="5.63554">
        <ele>478</ele>
        <time>2017-10-19T09:46:30Z</time>
      </trkpt>
      <trkpt lat="46.76878" lon="5.63557">
        <ele>478</ele>
        <time>2017-10-19T09:46:34Z</time>
      </trkpt>
      <trkpt lat="46.76875" lon="5.63563">
        <ele>478</ele>
        <time>2017-10-19T09:46:38Z</time>
      </trkpt>
      <trkpt lat="46.76873" lon="5.63569">
        <ele>478</ele>
        <time>2017-10-19T09:46:43Z</time>
      </trkpt>
      <trkpt lat="46.76872" lon="5.63576">
        <ele>478</ele>
        <time>2017-10-19T09:46:50Z</time>
      </trkpt>
      <trkpt lat="46.76869" lon="5.63583">
        <ele>477</ele>
        <time>2017-10-19T09:46:55Z</time>
      </trkpt>
      <trkpt lat="46.76864" lon="5.63586">
        <ele>477</ele>
        <time>2017-10-19T09:47:02Z</time>
      </trkpt>
      <trkpt lat="46.76862" lon="5.63593">
        <ele>477</ele>
        <time>2017-10-19T09:47:06Z</time>
      </trkpt>
      <trkpt lat="46.76861" lon="5.636">
        <ele>477</ele>
        <time>2017-10-19T09:47:12Z</time>
      </trkpt>
      <trkpt lat="46.76859" lon="5.63606">
        <ele>477</ele>
        <time>2017-10-19T09:47:18Z</time>
      </trkpt>
      <trkpt lat="46.7686" lon="5.63611">
        <ele>473</ele>
        <time>2017-10-19T09:49:01Z</time>
      </trkpt>
      <trkpt lat="46.76864" lon="5.63608">
        <ele>475</ele>
        <time>2017-10-19T09:50:08Z</time>
      </trkpt>
      <trkpt lat="46.76867" lon="5.63602">
        <ele>476</ele>
        <time>2017-10-19T09:52:01Z</time>
      </trkpt>
      <trkpt lat="46.76888" lon="5.63598">
        <ele>474</ele>
        <time>2017-10-19T10:26:11Z</time>
      </trkpt>
      <trkpt lat="46.76893" lon="5.63601">
        <ele>474</ele>
        <time>2017-10-19T10:26:17Z</time>
      </trkpt>
      <trkpt lat="46.76916" lon="5.63612">
        <ele>474</ele>
        <time>2017-10-19T10:26:43Z</time>
      </trkpt>
      <trkpt lat="46.76921" lon="5.63615">
        <ele>473</ele>
        <time>2017-10-19T10:26:48Z</time>
      </trkpt>
      <trkpt lat="46.76926" lon="5.63615">
        <ele>473</ele>
        <time>2017-10-19T10:26:53Z</time>
      </trkpt>
      <trkpt lat="46.76928" lon="5.63609">
        <ele>473</ele>
        <time>2017-10-19T10:27:10Z</time>
      </trkpt>
      <trkpt lat="46.7693" lon="5.6361">
        <ele>474</ele>
        <time>2017-10-19T10:28:22Z</time>
      </trkpt>
      <trkpt lat="46.76934" lon="5.63614">
        <ele>474</ele>
        <time>2017-10-19T10:28:27Z</time>
      </trkpt>
      <trkpt lat="46.76938" lon="5.63608">
        <ele>474</ele>
        <time>2017-10-19T10:28:54Z</time>
      </trkpt>
      <trkpt lat="46.76932" lon="5.63606">
        <ele>475</ele>
        <time>2017-10-19T10:30:00Z</time>
      </trkpt>
      <trkpt lat="46.76926" lon="5.63607">
        <ele>475</ele>
        <time>2017-10-19T10:30:05Z</time>
      </trkpt>
      <trkpt lat="46.76922" lon="5.63605">
        <ele>474</ele>
        <time>2017-10-19T10:30:08Z</time>
      </trkpt>
      <trkpt lat="46.76912" lon="5.63599">
        <ele>473</ele>
        <time>2017-10-19T10:30:18Z</time>
      </trkpt>
      <trkpt lat="46.76908" lon="5.63596">
        <ele>473</ele>
        <time>2017-10-19T10:30:24Z</time>
      </trkpt>
      <trkpt lat="46.76909" lon="5.63588">
        <ele>472</ele>
        <time>2017-10-19T10:30:29Z</time>
      </trkpt>
      <trkpt lat="46.76909" lon="5.63582">
        <ele>473</ele>
        <time>2017-10-19T10:30:56Z</time>
      </trkpt>
      <trkpt lat="46.76894" lon="5.63587">
        <ele>473</ele>
        <time>2017-10-19T10:31:07Z</time>
      </trkpt>
      <trkpt lat="46.76889" lon="5.63585">
        <ele>473</ele>
        <time>2017-10-19T10:31:12Z</time>
      </trkpt>
      <trkpt lat="46.76885" lon="5.63582">
        <ele>473</ele>
        <time>2017-10-19T10:31:16Z</time>
      </trkpt>
      <trkpt lat="46.76881" lon="5.63579">
        <ele>473</ele>
        <time>2017-10-19T10:31:22Z</time>
      </trkpt>
      <trkpt lat="46.76877" lon="5.63575">
        <ele>473</ele>
        <time>2017-10-19T10:31:31Z</time>
      </trkpt>
      <trkpt lat="46.76871" lon="5.63585">
        <ele>473</ele>
        <time>2017-10-19T10:31:41Z</time>
      </trkpt>
      <trkpt lat="46.76867" lon="5.63588">
        <ele>473</ele>
        <time>2017-10-19T10:31:45Z</time>
      </trkpt>
      <trkpt lat="46.76859" lon="5.63608">
        <ele>471</ele>
        <time>2017-10-19T10:35:38Z</time>
      </trkpt>
      <trkpt lat="46.76861" lon="5.63612">
        <ele>472</ele>
        <time>2017-10-19T10:39:27Z</time>
      </trkpt>
      <trkpt lat="46.76865" lon="5.63617">
        <ele>471</ele>
        <time>2017-10-19T10:39:58Z</time>
      </trkpt>
      <trkpt lat="46.76867" lon="5.63627">
        <ele>470</ele>
        <time>2017-10-19T10:40:12Z</time>
      </trkpt>
      <trkpt lat="46.76876" lon="5.63642">
        <ele>468</ele>
        <time>2017-10-19T10:40:41Z</time>
      </trkpt>
      <trkpt lat="46.7688" lon="5.63647">
        <ele>468</ele>
        <time>2017-10-19T10:40:48Z</time>
      </trkpt>
      <trkpt lat="46.76883" lon="5.63657">
        <ele>468</ele>
        <time>2017-10-19T10:41:02Z</time>
      </trkpt>
      <trkpt lat="46.76892" lon="5.63665">
        <ele>469</ele>
        <time>2017-10-19T10:41:23Z</time>
      </trkpt>
      <trkpt lat="46.76898" lon="5.63664">
        <ele>470</ele>
        <time>2017-10-19T10:42:28Z</time>
      </trkpt>
      <trkpt lat="46.76906" lon="5.63656">
        <ele>469</ele>
        <time>2017-10-19T10:42:37Z</time>
      </trkpt>
      <trkpt lat="46.76908" lon="5.63649">
        <ele>470</ele>
        <time>2017-10-19T10:42:44Z</time>
      </trkpt>
      <trkpt lat="46.76922" lon="5.63638">
        <ele>471</ele>
        <time>2017-10-19T10:43:01Z</time>
      </trkpt>
      <trkpt lat="46.76932" lon="5.63616">
        <ele>473</ele>
        <time>2017-10-19T10:43:32Z</time>
      </trkpt>
      <trkpt lat="46.76927" lon="5.63627">
        <ele>473</ele>
        <time>2017-10-19T10:45:03Z</time>
      </trkpt>
      <trkpt lat="46.76923" lon="5.63631">
        <ele>473</ele>
        <time>2017-10-19T10:45:06Z</time>
      </trkpt>
      <trkpt lat="46.76918" lon="5.63635">
        <ele>473</ele>
        <time>2017-10-19T10:45:12Z</time>
      </trkpt>
      <trkpt lat="46.76912" lon="5.63645">
        <ele>473</ele>
        <time>2017-10-19T10:45:22Z</time>
      </trkpt>
      <trkpt lat="46.76903" lon="5.63663">
        <ele>472</ele>
        <time>2017-10-19T10:45:37Z</time>
      </trkpt>
      <trkpt lat="46.76901" lon="5.63669">
        <ele>471</ele>
        <time>2017-10-19T10:45:42Z</time>
      </trkpt>
      <trkpt lat="46.76899" lon="5.63679">
        <ele>471</ele>
        <time>2017-10-19T10:46:57Z</time>
      </trkpt>
      <trkpt lat="46.76903" lon="5.63686">
        <ele>469</ele>
        <time>2017-10-19T10:47:07Z</time>
      </trkpt>
      <trkpt lat="46.76903" lon="5.63693">
        <ele>469</ele>
        <time>2017-10-19T10:47:28Z</time>
      </trkpt>
      <trkpt lat="46.76909" lon="5.63698">
        <ele>468</ele>
        <time>2017-10-19T10:48:37Z</time>
      </trkpt>
      <trkpt lat="46.76912" lon="5.63705">
        <ele>468</ele>
        <time>2017-10-19T10:48:43Z</time>
      </trkpt>
      <trkpt lat="46.76919" lon="5.6372">
        <ele>470</ele>
        <time>2017-10-19T10:49:06Z</time>
      </trkpt>
      <trkpt lat="46.76931" lon="5.63734">
        <ele>470</ele>
        <time>2017-10-19T10:49:22Z</time>
      </trkpt>
      <trkpt lat="46.76937" lon="5.63746">
        <ele>471</ele>
        <time>2017-10-19T10:49:34Z</time>
      </trkpt>
      <trkpt lat="46.76944" lon="5.63755">
        <ele>471</ele>
        <time>2017-10-19T10:49:44Z</time>
      </trkpt>
      <trkpt lat="46.76947" lon="5.63761">
        <ele>471</ele>
        <time>2017-10-19T10:49:49Z</time>
      </trkpt>
      <trkpt lat="46.76956" lon="5.63768">
        <ele>471</ele>
        <time>2017-10-19T10:49:58Z</time>
      </trkpt>
      <trkpt lat="46.76959" lon="5.63773">
        <ele>471</ele>
        <time>2017-10-19T10:50:03Z</time>
      </trkpt>
      <trkpt lat="46.76963" lon="5.63776">
        <ele>472</ele>
        <time>2017-10-19T10:50:08Z</time>
      </trkpt>
      <trkpt lat="46.76968" lon="5.6378">
        <ele>472</ele>
        <time>2017-10-19T10:50:13Z</time>
      </trkpt>
      <trkpt lat="46.76972" lon="5.63782">
        <ele>472</ele>
        <time>2017-10-19T10:50:18Z</time>
      </trkpt>
      <trkpt lat="46.76976" lon="5.63785">
        <ele>472</ele>
        <time>2017-10-19T10:50:25Z</time>
      </trkpt>
      <trkpt lat="46.7698" lon="5.6379">
        <ele>472</ele>
        <time>2017-10-19T10:50:32Z</time>
      </trkpt>
      <trkpt lat="46.76979" lon="5.63803">
        <ele>472</ele>
        <time>2017-10-19T10:50:45Z</time>
      </trkpt>
      <trkpt lat="46.76981" lon="5.63811">
        <ele>472</ele>
        <time>2017-10-19T10:50:50Z</time>
      </trkpt>
      <trkpt lat="46.76984" lon="5.63817">
        <ele>473</ele>
        <time>2017-10-19T10:50:54Z</time>
      </trkpt>
      <trkpt lat="46.76989" lon="5.6382">
        <ele>474</ele>
        <time>2017-10-19T10:50:59Z</time>
      </trkpt>
      <trkpt lat="46.76994" lon="5.63821">
        <ele>475</ele>
        <time>2017-10-19T10:51:04Z</time>
      </trkpt>
      <trkpt lat="46.76998" lon="5.63822">
        <ele>475</ele>
        <time>2017-10-19T10:51:09Z</time>
      </trkpt>
      <trkpt lat="46.76998" lon="5.63828">
        <ele>476</ele>
        <time>2017-10-19T10:51:18Z</time>
      </trkpt>
      <trkpt lat="46.76995" lon="5.63834">
        <ele>476</ele>
        <time>2017-10-19T10:51:27Z</time>
      </trkpt>
      <trkpt lat="46.76991" lon="5.63846">
        <ele>477</ele>
        <time>2017-10-19T10:51:50Z</time>
      </trkpt>
      <trkpt lat="46.76987" lon="5.63852">
        <ele>477</ele>
        <time>2017-10-19T10:51:56Z</time>
      </trkpt>
      <trkpt lat="46.76982" lon="5.63857">
        <ele>478</ele>
        <time>2017-10-19T10:52:00Z</time>
      </trkpt>
      <trkpt lat="46.7698" lon="5.63864">
        <ele>478</ele>
        <time>2017-10-19T10:52:05Z</time>
      </trkpt>
      <trkpt lat="46.76957" lon="5.63903">
        <ele>479</ele>
        <time>2017-10-19T10:52:36Z</time>
      </trkpt>
      <trkpt lat="46.76953" lon="5.63908">
        <ele>479</ele>
        <time>2017-10-19T10:52:40Z</time>
      </trkpt>
      <trkpt lat="46.76949" lon="5.63914">
        <ele>480</ele>
        <time>2017-10-19T10:52:45Z</time>
      </trkpt>
      <trkpt lat="46.76944" lon="5.63927">
        <ele>481</ele>
        <time>2017-10-19T10:52:52Z</time>
      </trkpt>
      <trkpt lat="46.76931" lon="5.63982">
        <ele>487</ele>
        <time>2017-10-19T10:53:24Z</time>
      </trkpt>
      <trkpt lat="46.76927" lon="5.63993">
        <ele>487</ele>
        <time>2017-10-19T10:53:32Z</time>
      </trkpt>
      <trkpt lat="46.7691" lon="5.64047">
        <ele>488</ele>
        <time>2017-10-19T10:54:12Z</time>
      </trkpt>
      <trkpt lat="46.76907" lon="5.64061">
        <ele>488</ele>
        <time>2017-10-19T10:54:21Z</time>
      </trkpt>
      <trkpt lat="46.76904" lon="5.64082">
        <ele>489</ele>
        <time>2017-10-19T10:54:35Z</time>
      </trkpt>
      <trkpt lat="46.769" lon="5.6409">
        <ele>488</ele>
        <time>2017-10-19T10:54:48Z</time>
      </trkpt>
      <trkpt lat="46.76869" lon="5.64092">
        <ele>486</ele>
        <time>2017-10-19T10:55:20Z</time>
      </trkpt>
      <trkpt lat="46.76849" lon="5.64097">
        <ele>486</ele>
        <time>2017-10-19T10:55:36Z</time>
      </trkpt>
      <trkpt lat="46.76839" lon="5.64098">
        <ele>487</ele>
        <time>2017-10-19T10:55:44Z</time>
      </trkpt>
      <trkpt lat="46.76823" lon="5.64103">
        <ele>487</ele>
        <time>2017-10-19T10:56:00Z</time>
      </trkpt>
      <trkpt lat="46.76818" lon="5.64106">
        <ele>487</ele>
        <time>2017-10-19T10:56:04Z</time>
      </trkpt>
      <trkpt lat="46.76808" lon="5.64106">
        <ele>487</ele>
        <time>2017-10-19T10:56:13Z</time>
      </trkpt>
      <trkpt lat="46.76777" lon="5.64101">
        <ele>488</ele>
        <time>2017-10-19T10:56:50Z</time>
      </trkpt>
      <trkpt lat="46.76767" lon="5.641">
        <ele>488</ele>
        <time>2017-10-19T10:56:59Z</time>
      </trkpt>
      <trkpt lat="46.76763" lon="5.64096">
        <ele>489</ele>
        <time>2017-10-19T10:57:13Z</time>
      </trkpt>
      <trkpt lat="46.76739" lon="5.64086">
        <ele>491</ele>
        <time>2017-10-19T10:57:45Z</time>
      </trkpt>
      <trkpt lat="46.76709" lon="5.64068">
        <ele>493</ele>
        <time>2017-10-19T10:58:17Z</time>
      </trkpt>
      <trkpt lat="46.76705" lon="5.64063">
        <ele>493</ele>
        <time>2017-10-19T10:58:24Z</time>
      </trkpt>
      <trkpt lat="46.76665" lon="5.64048">
        <ele>493</ele>
        <time>2017-10-19T10:58:57Z</time>
      </trkpt>
      <trkpt lat="46.7666" lon="5.64047">
        <ele>494</ele>
        <time>2017-10-19T10:59:02Z</time>
      </trkpt>
      <trkpt lat="46.7665" lon="5.64048">
        <ele>494</ele>
        <time>2017-10-19T10:59:10Z</time>
      </trkpt>
      <trkpt lat="46.76614" lon="5.64041">
        <ele>493</ele>
        <time>2017-10-19T10:59:41Z</time>
      </trkpt>
      <trkpt lat="46.76599" lon="5.6404">
        <ele>492</ele>
        <time>2017-10-19T10:59:55Z</time>
      </trkpt>
      <trkpt lat="46.76565" lon="5.64024">
        <ele>493</ele>
        <time>2017-10-19T11:00:28Z</time>
      </trkpt>
      <trkpt lat="46.76527" lon="5.6401">
        <ele>491</ele>
        <time>2017-10-19T11:01:02Z</time>
      </trkpt>
      <trkpt lat="46.76491" lon="5.64001">
        <ele>489</ele>
        <time>2017-10-19T11:01:34Z</time>
      </trkpt>
      <trkpt lat="46.76465" lon="5.63996">
        <ele>488</ele>
        <time>2017-10-19T11:01:55Z</time>
      </trkpt>
      <trkpt lat="46.7646" lon="5.63996">
        <ele>488</ele>
        <time>2017-10-19T11:01:59Z</time>
      </trkpt>
      <trkpt lat="46.7645" lon="5.63994">
        <ele>487</ele>
        <time>2017-10-19T11:02:07Z</time>
      </trkpt>
      <trkpt lat="46.76416" lon="5.63995">
        <ele>487</ele>
        <time>2017-10-19T11:02:34Z</time>
      </trkpt>
      <trkpt lat="46.76382" lon="5.64009">
        <ele>486</ele>
        <time>2017-10-19T11:03:06Z</time>
      </trkpt>
      <trkpt lat="46.76368" lon="5.64017">
        <ele>485</ele>
        <time>2017-10-19T11:03:18Z</time>
      </trkpt>
      <trkpt lat="46.76359" lon="5.64024">
        <ele>484</ele>
        <time>2017-10-19T11:03:26Z</time>
      </trkpt>
      <trkpt lat="46.76341" lon="5.64035">
        <ele>483</ele>
        <time>2017-10-19T11:03:42Z</time>
      </trkpt>
      <trkpt lat="46.76328" lon="5.64045">
        <ele>481</ele>
        <time>2017-10-19T11:03:53Z</time>
      </trkpt>
      <trkpt lat="46.76311" lon="5.64056">
        <ele>479</ele>
        <time>2017-10-19T11:04:09Z</time>
      </trkpt>
      <trkpt lat="46.76301" lon="5.6406">
        <ele>479</ele>
        <time>2017-10-19T11:04:18Z</time>
      </trkpt>
      <trkpt lat="46.7629" lon="5.64059">
        <ele>478</ele>
        <time>2017-10-19T11:04:28Z</time>
      </trkpt>
      <trkpt lat="46.76285" lon="5.64056">
        <ele>478</ele>
        <time>2017-10-19T11:04:33Z</time>
      </trkpt>
      <trkpt lat="46.76276" lon="5.64039">
        <ele>477</ele>
        <time>2017-10-19T11:04:50Z</time>
      </trkpt>
      <trkpt lat="46.76272" lon="5.64033">
        <ele>477</ele>
        <time>2017-10-19T11:04:55Z</time>
      </trkpt>
      <trkpt lat="46.76264" lon="5.64023">
        <ele>478</ele>
        <time>2017-10-19T11:05:06Z</time>
      </trkpt>
      <trkpt lat="46.7626" lon="5.64019">
        <ele>478</ele>
        <time>2017-10-19T11:05:10Z</time>
      </trkpt>
      <trkpt lat="46.76257" lon="5.64013">
        <ele>478</ele>
        <time>2017-10-19T11:05:16Z</time>
      </trkpt>
      <trkpt lat="46.76255" lon="5.64007">
        <ele>478</ele>
        <time>2017-10-19T11:05:23Z</time>
      </trkpt>
      <trkpt lat="46.76253" lon="5.64001">
        <ele>479</ele>
        <time>2017-10-19T11:05:29Z</time>
      </trkpt>
      <trkpt lat="46.76245" lon="5.63991">
        <ele>480</ele>
        <time>2017-10-19T11:05:39Z</time>
      </trkpt>
      <trkpt lat="46.76242" lon="5.63985">
        <ele>480</ele>
        <time>2017-10-19T11:05:44Z</time>
      </trkpt>
      <trkpt lat="46.76239" lon="5.63979">
        <ele>480</ele>
        <time>2017-10-19T11:05:50Z</time>
      </trkpt>
      <trkpt lat="46.76235" lon="5.63966">
        <ele>480</ele>
        <time>2017-10-19T11:06:00Z</time>
      </trkpt>
      <trkpt lat="46.7623" lon="5.63953">
        <ele>479</ele>
        <time>2017-10-19T11:06:09Z</time>
      </trkpt>
      <trkpt lat="46.76227" lon="5.63947">
        <ele>479</ele>
        <time>2017-10-19T11:06:13Z</time>
      </trkpt>
      <trkpt lat="46.76225" lon="5.63941">
        <ele>479</ele>
        <time>2017-10-19T11:06:17Z</time>
      </trkpt>
      <trkpt lat="46.76226" lon="5.63918">
        <ele>480</ele>
        <time>2017-10-19T11:06:33Z</time>
      </trkpt>
      <trkpt lat="46.76224" lon="5.63904">
        <ele>480</ele>
        <time>2017-10-19T11:06:43Z</time>
      </trkpt>
      <trkpt lat="46.76224" lon="5.63897">
        <ele>481</ele>
        <time>2017-10-19T11:06:49Z</time>
      </trkpt>
      <trkpt lat="46.76224" lon="5.6389">
        <ele>481</ele>
        <time>2017-10-19T11:06:53Z</time>
      </trkpt>
      <trkpt lat="46.76222" lon="5.63883">
        <ele>481</ele>
        <time>2017-10-19T11:06:59Z</time>
      </trkpt>
      <trkpt lat="46.76222" lon="5.63867">
        <ele>479</ele>
        <time>2017-10-19T11:07:07Z</time>
      </trkpt>
      <trkpt lat="46.76221" lon="5.6386">
        <ele>478</ele>
        <time>2017-10-19T11:07:11Z</time>
      </trkpt>
      <trkpt lat="46.7622" lon="5.63852">
        <ele>477</ele>
        <time>2017-10-19T11:07:15Z</time>
      </trkpt>
      <trkpt lat="46.76221" lon="5.63845">
        <ele>477</ele>
        <time>2017-10-19T11:07:19Z</time>
      </trkpt>
      <trkpt lat="46.76213" lon="5.63826">
        <ele>475</ele>
        <time>2017-10-19T11:07:31Z</time>
      </trkpt>
      <trkpt lat="46.76209" lon="5.6382">
        <ele>474</ele>
        <time>2017-10-19T11:07:35Z</time>
      </trkpt>
      <trkpt lat="46.76197" lon="5.63805">
        <ele>474</ele>
        <time>2017-10-19T11:07:45Z</time>
      </trkpt>
      <trkpt lat="46.76193" lon="5.63801">
        <ele>474</ele>
        <time>2017-10-19T11:07:50Z</time>
      </trkpt>
      <trkpt lat="46.76185" lon="5.63799">
        <ele>472</ele>
        <time>2017-10-19T11:08:02Z</time>
      </trkpt>
      <trkpt lat="46.7618" lon="5.63794">
        <ele>470</ele>
        <time>2017-10-19T11:08:18Z</time>
      </trkpt>
      <trkpt lat="46.76181" lon="5.63788">
        <ele>469</ele>
        <time>2017-10-19T11:08:23Z</time>
      </trkpt>
      <trkpt lat="46.76178" lon="5.63783">
        <ele>468</ele>
        <time>2017-10-19T11:08:31Z</time>
      </trkpt>
      <trkpt lat="46.76168" lon="5.63757">
        <ele>470</ele>
        <time>2017-10-19T11:08:53Z</time>
      </trkpt>
      <trkpt lat="46.76167" lon="5.6375">
        <ele>471</ele>
        <time>2017-10-19T11:09:01Z</time>
      </trkpt>
      <trkpt lat="46.76162" lon="5.63738">
        <ele>472</ele>
        <time>2017-10-19T11:09:16Z</time>
      </trkpt>
      <trkpt lat="46.76161" lon="5.63731">
        <ele>471</ele>
        <time>2017-10-19T11:09:22Z</time>
      </trkpt>
      <trkpt lat="46.76148" lon="5.63708">
        <ele>469</ele>
        <time>2017-10-19T11:09:35Z</time>
      </trkpt>
      <trkpt lat="46.76143" lon="5.63705">
        <ele>468</ele>
        <time>2017-10-19T11:09:39Z</time>
      </trkpt>
      <trkpt lat="46.7614" lon="5.63699">
        <ele>468</ele>
        <time>2017-10-19T11:09:45Z</time>
      </trkpt>
      <trkpt lat="46.76125" lon="5.63682">
        <ele>464</ele>
        <time>2017-10-19T11:10:03Z</time>
      </trkpt>
      <trkpt lat="46.76122" lon="5.63675">
        <ele>464</ele>
        <time>2017-10-19T11:10:09Z</time>
      </trkpt>
      <trkpt lat="46.76105" lon="5.63657">
        <ele>463</ele>
        <time>2017-10-19T11:10:26Z</time>
      </trkpt>
      <trkpt lat="46.76096" lon="5.63649">
        <ele>462</ele>
        <time>2017-10-19T11:10:37Z</time>
      </trkpt>
      <trkpt lat="46.76093" lon="5.63643">
        <ele>462</ele>
        <time>2017-10-19T11:10:42Z</time>
      </trkpt>
      <trkpt lat="46.76088" lon="5.63638">
        <ele>461</ele>
        <time>2017-10-19T11:10:46Z</time>
      </trkpt>
      <trkpt lat="46.76084" lon="5.63632">
        <ele>461</ele>
        <time>2017-10-19T11:10:50Z</time>
      </trkpt>
      <trkpt lat="46.76077" lon="5.63622">
        <ele>461</ele>
        <time>2017-10-19T11:10:58Z</time>
      </trkpt>
      <trkpt lat="46.76074" lon="5.63615">
        <ele>461</ele>
        <time>2017-10-19T11:11:03Z</time>
      </trkpt>
      <trkpt lat="46.76067" lon="5.6361">
        <ele>461</ele>
        <time>2017-10-19T11:11:18Z</time>
      </trkpt>
      <trkpt lat="46.76062" lon="5.63609">
        <ele>461</ele>
        <time>2017-10-19T11:11:24Z</time>
      </trkpt>
      <trkpt lat="46.76059" lon="5.63605">
        <ele>460</ele>
        <time>2017-10-19T11:11:29Z</time>
      </trkpt>
      <trkpt lat="46.76054" lon="5.63602">
        <ele>458</ele>
        <time>2017-10-19T11:11:36Z</time>
      </trkpt>
      <trkpt lat="46.7605" lon="5.63597">
        <ele>457</ele>
        <time>2017-10-19T11:11:40Z</time>
      </trkpt>
      <trkpt lat="46.76026" lon="5.63582">
        <ele>453</ele>
        <time>2017-10-19T11:12:04Z</time>
      </trkpt>
      <trkpt lat="46.76024" lon="5.63577">
        <ele>454</ele>
        <time>2017-10-19T11:12:08Z</time>
      </trkpt>
      <trkpt lat="46.76018" lon="5.63565">
        <ele>454</ele>
        <time>2017-10-19T11:12:17Z</time>
      </trkpt>
      <trkpt lat="46.76014" lon="5.63561">
        <ele>454</ele>
        <time>2017-10-19T11:12:23Z</time>
      </trkpt>
      <trkpt lat="46.76011" lon="5.63556">
        <ele>454</ele>
        <time>2017-10-19T11:12:27Z</time>
      </trkpt>
      <trkpt lat="46.76007" lon="5.63553">
        <ele>454</ele>
        <time>2017-10-19T11:12:31Z</time>
      </trkpt>
      <trkpt lat="46.76002" lon="5.63548">
        <ele>453</ele>
        <time>2017-10-19T11:12:36Z</time>
      </trkpt>
      <trkpt lat="46.75998" lon="5.63546">
        <ele>453</ele>
        <time>2017-10-19T11:12:41Z</time>
      </trkpt>
      <trkpt lat="46.75994" lon="5.63539">
        <ele>453</ele>
        <time>2017-10-19T11:12:45Z</time>
      </trkpt>
      <trkpt lat="46.75979" lon="5.63522">
        <ele>452</ele>
        <time>2017-10-19T11:13:02Z</time>
      </trkpt>
      <trkpt lat="46.75971" lon="5.63515">
        <ele>451</ele>
        <time>2017-10-19T11:13:11Z</time>
      </trkpt>
      <trkpt lat="46.75967" lon="5.63511">
        <ele>452</ele>
        <time>2017-10-19T11:13:15Z</time>
      </trkpt>
      <trkpt lat="46.75964" lon="5.63505">
        <ele>452</ele>
        <time>2017-10-19T11:13:19Z</time>
      </trkpt>
      <trkpt lat="46.75956" lon="5.63496">
        <ele>452</ele>
        <time>2017-10-19T11:13:28Z</time>
      </trkpt>
      <trkpt lat="46.75944" lon="5.63481">
        <ele>451</ele>
        <time>2017-10-19T11:13:44Z</time>
      </trkpt>
      <trkpt lat="46.75941" lon="5.63475">
        <ele>451</ele>
        <time>2017-10-19T11:13:48Z</time>
      </trkpt>
      <trkpt lat="46.75937" lon="5.63471">
        <ele>451</ele>
        <time>2017-10-19T11:13:52Z</time>
      </trkpt>
      <trkpt lat="46.75932" lon="5.6347">
        <ele>451</ele>
        <time>2017-10-19T11:13:56Z</time>
      </trkpt>
      <trkpt lat="46.75929" lon="5.63465">
        <ele>450</ele>
        <time>2017-10-19T11:14:00Z</time>
      </trkpt>
      <trkpt lat="46.75921" lon="5.63456">
        <ele>449</ele>
        <time>2017-10-19T11:14:12Z</time>
      </trkpt>
      <trkpt lat="46.75915" lon="5.63445">
        <ele>449</ele>
        <time>2017-10-19T11:14:20Z</time>
      </trkpt>
      <trkpt lat="46.75895" lon="5.63424">
        <ele>444</ele>
        <time>2017-10-19T11:14:50Z</time>
      </trkpt>
      <trkpt lat="46.75886" lon="5.63408">
        <ele>444</ele>
        <time>2017-10-19T11:15:01Z</time>
      </trkpt>
      <trkpt lat="46.75878" lon="5.634">
        <ele>441</ele>
        <time>2017-10-19T11:15:13Z</time>
      </trkpt>
      <trkpt lat="46.75875" lon="5.63393">
        <ele>441</ele>
        <time>2017-10-19T11:15:17Z</time>
      </trkpt>
      <trkpt lat="46.75873" lon="5.63388">
        <ele>441</ele>
        <time>2017-10-19T11:15:21Z</time>
      </trkpt>
      <trkpt lat="46.7587" lon="5.63382">
        <ele>441</ele>
        <time>2017-10-19T11:15:26Z</time>
      </trkpt>
      <trkpt lat="46.75868" lon="5.63376">
        <ele>440</ele>
        <time>2017-10-19T11:15:31Z</time>
      </trkpt>
      <trkpt lat="46.75864" lon="5.63371">
        <ele>441</ele>
        <time>2017-10-19T11:15:36Z</time>
      </trkpt>
      <trkpt lat="46.75862" lon="5.63364">
        <ele>442</ele>
        <time>2017-10-19T11:15:43Z</time>
      </trkpt>
      <trkpt lat="46.75858" lon="5.63359">
        <ele>442</ele>
        <time>2017-10-19T11:15:49Z</time>
      </trkpt>
      <trkpt lat="46.75855" lon="5.63351">
        <ele>442</ele>
        <time>2017-10-19T11:15:53Z</time>
      </trkpt>
      <trkpt lat="46.75849" lon="5.6334">
        <ele>441</ele>
        <time>2017-10-19T11:16:03Z</time>
      </trkpt>
      <trkpt lat="46.75838" lon="5.63325">
        <ele>438</ele>
        <time>2017-10-19T11:16:14Z</time>
      </trkpt>
      <trkpt lat="46.75829" lon="5.63318">
        <ele>436</ele>
        <time>2017-10-19T11:16:25Z</time>
      </trkpt>
      <trkpt lat="46.75825" lon="5.63314">
        <ele>436</ele>
        <time>2017-10-19T11:16:29Z</time>
      </trkpt>
      <trkpt lat="46.75821" lon="5.63306">
        <ele>436</ele>
        <time>2017-10-19T11:16:33Z</time>
      </trkpt>
      <trkpt lat="46.75818" lon="5.633">
        <ele>436</ele>
        <time>2017-10-19T11:16:38Z</time>
      </trkpt>
      <trkpt lat="46.75815" lon="5.63295">
        <ele>436</ele>
        <time>2017-10-19T11:16:43Z</time>
      </trkpt>
      <trkpt lat="46.75807" lon="5.63287">
        <ele>437</ele>
        <time>2017-10-19T11:16:54Z</time>
      </trkpt>
      <trkpt lat="46.75804" lon="5.63282">
        <ele>439</ele>
        <time>2017-10-19T11:16:59Z</time>
      </trkpt>
      <trkpt lat="46.758" lon="5.63279">
        <ele>439</ele>
        <time>2017-10-19T11:17:04Z</time>
      </trkpt>
      <trkpt lat="46.75795" lon="5.63278">
        <ele>440</ele>
        <time>2017-10-19T11:17:10Z</time>
      </trkpt>
      <trkpt lat="46.7579" lon="5.63274">
        <ele>440</ele>
        <time>2017-10-19T11:17:14Z</time>
      </trkpt>
      <trkpt lat="46.75767" lon="5.63261">
        <ele>436</ele>
        <time>2017-10-19T11:17:48Z</time>
      </trkpt>
      <trkpt lat="46.7576" lon="5.63252">
        <ele>437</ele>
        <time>2017-10-19T11:17:57Z</time>
      </trkpt>
      <trkpt lat="46.75755" lon="5.63249">
        <ele>437</ele>
        <time>2017-10-19T11:18:02Z</time>
      </trkpt>
      <trkpt lat="46.7575" lon="5.63245">
        <ele>437</ele>
        <time>2017-10-19T11:18:05Z</time>
      </trkpt>
      <trkpt lat="46.75746" lon="5.6324">
        <ele>437</ele>
        <time>2017-10-19T11:18:09Z</time>
      </trkpt>
      <trkpt lat="46.75743" lon="5.63234">
        <ele>437</ele>
        <time>2017-10-19T11:18:13Z</time>
      </trkpt>
      <trkpt lat="46.7574" lon="5.63228">
        <ele>435</ele>
        <time>2017-10-19T11:18:28Z</time>
      </trkpt>
      <trkpt lat="46.75733" lon="5.63215">
        <ele>435</ele>
        <time>2017-10-19T11:18:40Z</time>
      </trkpt>
      <trkpt lat="46.75732" lon="5.63208">
        <ele>435</ele>
        <time>2017-10-19T11:18:44Z</time>
      </trkpt>
      <trkpt lat="46.75729" lon="5.63194">
        <ele>435</ele>
        <time>2017-10-19T11:18:52Z</time>
      </trkpt>
      <trkpt lat="46.75726" lon="5.63189">
        <ele>434</ele>
        <time>2017-10-19T11:18:57Z</time>
      </trkpt>
      <trkpt lat="46.75724" lon="5.63183">
        <ele>434</ele>
        <time>2017-10-19T11:19:00Z</time>
      </trkpt>
      <trkpt lat="46.7572" lon="5.63177">
        <ele>433</ele>
        <time>2017-10-19T11:19:03Z</time>
      </trkpt>
      <trkpt lat="46.75716" lon="5.63164">
        <ele>432</ele>
        <time>2017-10-19T11:19:11Z</time>
      </trkpt>
      <trkpt lat="46.75715" lon="5.6315">
        <ele>431</ele>
        <time>2017-10-19T11:19:19Z</time>
      </trkpt>
      <trkpt lat="46.75711" lon="5.63145">
        <ele>430</ele>
        <time>2017-10-19T11:19:24Z</time>
      </trkpt>
      <trkpt lat="46.75708" lon="5.6314">
        <ele>428</ele>
        <time>2017-10-19T11:19:31Z</time>
      </trkpt>
      <trkpt lat="46.75705" lon="5.63134">
        <ele>428</ele>
        <time>2017-10-19T11:19:37Z</time>
      </trkpt>
      <trkpt lat="46.75696" lon="5.63126">
        <ele>427</ele>
        <time>2017-10-19T11:19:43Z</time>
      </trkpt>
      <trkpt lat="46.75688" lon="5.63117">
        <ele>427</ele>
        <time>2017-10-19T11:19:52Z</time>
      </trkpt>
      <trkpt lat="46.75683" lon="5.63114">
        <ele>427</ele>
        <time>2017-10-19T11:20:00Z</time>
      </trkpt>
      <trkpt lat="46.75681" lon="5.63106">
        <ele>428</ele>
        <time>2017-10-19T11:20:06Z</time>
      </trkpt>
      <trkpt lat="46.75685" lon="5.63086">
        <ele>432</ele>
        <time>2017-10-19T11:20:18Z</time>
      </trkpt>
      <trkpt lat="46.75684" lon="5.63078">
        <ele>433</ele>
        <time>2017-10-19T11:20:23Z</time>
      </trkpt>
      <trkpt lat="46.75682" lon="5.63072">
        <ele>432</ele>
        <time>2017-10-19T11:20:26Z</time>
      </trkpt>
      <trkpt lat="46.75677" lon="5.63067">
        <ele>431</ele>
        <time>2017-10-19T11:20:29Z</time>
      </trkpt>
      <trkpt lat="46.75669" lon="5.6305">
        <ele>426</ele>
        <time>2017-10-19T11:20:41Z</time>
      </trkpt>
      <trkpt lat="46.75668" lon="5.63043">
        <ele>424</ele>
        <time>2017-10-19T11:20:44Z</time>
      </trkpt>
      <trkpt lat="46.75667" lon="5.63027">
        <ele>423</ele>
        <time>2017-10-19T11:20:52Z</time>
      </trkpt>
      <trkpt lat="46.75671" lon="5.63018">
        <ele>418</ele>
        <time>2017-10-19T11:22:20Z</time>
      </trkpt>
      <trkpt lat="46.75669" lon="5.63012">
        <ele>418</ele>
        <time>2017-10-19T11:22:24Z</time>
      </trkpt>
      <trkpt lat="46.75668" lon="5.63005">
        <ele>417</ele>
        <time>2017-10-19T11:22:29Z</time>
      </trkpt>
      <trkpt lat="46.75666" lon="5.62998">
        <ele>417</ele>
        <time>2017-10-19T11:22:34Z</time>
      </trkpt>
      <trkpt lat="46.75664" lon="5.62992">
        <ele>417</ele>
        <time>2017-10-19T11:22:38Z</time>
      </trkpt>
      <trkpt lat="46.75661" lon="5.62986">
        <ele>417</ele>
        <time>2017-10-19T11:22:42Z</time>
      </trkpt>
      <trkpt lat="46.75658" lon="5.6298">
        <ele>418</ele>
        <time>2017-10-19T11:22:49Z</time>
      </trkpt>
      <trkpt lat="46.75659" lon="5.62972">
        <ele>419</ele>
        <time>2017-10-19T11:22:55Z</time>
      </trkpt>
      <trkpt lat="46.75657" lon="5.62965">
        <ele>419</ele>
        <time>2017-10-19T11:23:00Z</time>
      </trkpt>
      <trkpt lat="46.75656" lon="5.62957">
        <ele>418</ele>
        <time>2017-10-19T11:23:04Z</time>
      </trkpt>
      <trkpt lat="46.75654" lon="5.62951">
        <ele>418</ele>
        <time>2017-10-19T11:23:08Z</time>
      </trkpt>
      <trkpt lat="46.75651" lon="5.62946">
        <ele>419</ele>
        <time>2017-10-19T11:23:12Z</time>
      </trkpt>
      <trkpt lat="46.75641" lon="5.62939">
        <ele>419</ele>
        <time>2017-10-19T11:23:19Z</time>
      </trkpt>
      <trkpt lat="46.75633" lon="5.62927">
        <ele>420</ele>
        <time>2017-10-19T11:23:28Z</time>
      </trkpt>
      <trkpt lat="46.75631" lon="5.62919">
        <ele>420</ele>
        <time>2017-10-19T11:23:32Z</time>
      </trkpt>
      <trkpt lat="46.7563" lon="5.62912">
        <ele>420</ele>
        <time>2017-10-19T11:23:37Z</time>
      </trkpt>
      <trkpt lat="46.75628" lon="5.62904">
        <ele>421</ele>
        <time>2017-10-19T11:23:42Z</time>
      </trkpt>
      <trkpt lat="46.75625" lon="5.62898">
        <ele>422</ele>
        <time>2017-10-19T11:23:47Z</time>
      </trkpt>
      <trkpt lat="46.75617" lon="5.62887">
        <ele>423</ele>
        <time>2017-10-19T11:23:55Z</time>
      </trkpt>
      <trkpt lat="46.75614" lon="5.62872">
        <ele>423</ele>
        <time>2017-10-19T11:24:06Z</time>
      </trkpt>
      <trkpt lat="46.75612" lon="5.62864">
        <ele>422</ele>
        <time>2017-10-19T11:24:11Z</time>
      </trkpt>
      <trkpt lat="46.7561" lon="5.62857">
        <ele>422</ele>
        <time>2017-10-19T11:24:16Z</time>
      </trkpt>
      <trkpt lat="46.75596" lon="5.62823">
        <ele>424</ele>
        <time>2017-10-19T11:24:41Z</time>
      </trkpt>
      <trkpt lat="46.75596" lon="5.62809">
        <ele>426</ele>
        <time>2017-10-19T11:24:53Z</time>
      </trkpt>
      <trkpt lat="46.75597" lon="5.62802">
        <ele>426</ele>
        <time>2017-10-19T11:25:03Z</time>
      </trkpt>
      <trkpt lat="46.75595" lon="5.62794">
        <ele>426</ele>
        <time>2017-10-19T11:25:09Z</time>
      </trkpt>
      <trkpt lat="46.75592" lon="5.62779">
        <ele>428</ele>
        <time>2017-10-19T11:25:19Z</time>
      </trkpt>
      <trkpt lat="46.75589" lon="5.62773">
        <ele>429</ele>
        <time>2017-10-19T11:25:25Z</time>
      </trkpt>
      <trkpt lat="46.75586" lon="5.62767">
        <ele>429</ele>
        <time>2017-10-19T11:25:30Z</time>
      </trkpt>
      <trkpt lat="46.75583" lon="5.62763">
        <ele>429</ele>
        <time>2017-10-19T11:25:36Z</time>
      </trkpt>
      <trkpt lat="46.7558" lon="5.62757">
        <ele>429</ele>
        <time>2017-10-19T11:25:40Z</time>
      </trkpt>
      <trkpt lat="46.75578" lon="5.6275">
        <ele>430</ele>
        <time>2017-10-19T11:25:44Z</time>
      </trkpt>
      <trkpt lat="46.75583" lon="5.62707">
        <ele>433</ele>
        <time>2017-10-19T11:26:14Z</time>
      </trkpt>
      <trkpt lat="46.75586" lon="5.62702">
        <ele>433</ele>
        <time>2017-10-19T11:26:20Z</time>
      </trkpt>
      <trkpt lat="46.7559" lon="5.62698">
        <ele>434</ele>
        <time>2017-10-19T11:26:25Z</time>
      </trkpt>
      <trkpt lat="46.75615" lon="5.62691">
        <ele>435</ele>
        <time>2017-10-19T11:26:50Z</time>
      </trkpt>
      <trkpt lat="46.75631" lon="5.62675">
        <ele>437</ele>
        <time>2017-10-19T11:27:09Z</time>
      </trkpt>
      <trkpt lat="46.75634" lon="5.62669">
        <ele>437</ele>
        <time>2017-10-19T11:27:15Z</time>
      </trkpt>
      <trkpt lat="46.75636" lon="5.62662">
        <ele>438</ele>
        <time>2017-10-19T11:27:21Z</time>
      </trkpt>
      <trkpt lat="46.7564" lon="5.62631">
        <ele>439</ele>
        <time>2017-10-19T11:27:41Z</time>
      </trkpt>
      <trkpt lat="46.75643" lon="5.62626">
        <ele>440</ele>
        <time>2017-10-19T11:27:45Z</time>
      </trkpt>
      <trkpt lat="46.75645" lon="5.6262">
        <ele>440</ele>
        <time>2017-10-19T11:27:53Z</time>
      </trkpt>
      <trkpt lat="46.7565" lon="5.62609">
        <ele>441</ele>
        <time>2017-10-19T11:28:47Z</time>
      </trkpt>
      <trkpt lat="46.75652" lon="5.62602">
        <ele>440</ele>
        <time>2017-10-19T11:28:51Z</time>
      </trkpt>
      <trkpt lat="46.75654" lon="5.62594">
        <ele>440</ele>
        <time>2017-10-19T11:28:56Z</time>
      </trkpt>
      <trkpt lat="46.75655" lon="5.6258">
        <ele>442</ele>
        <time>2017-10-19T11:29:09Z</time>
      </trkpt>
      <trkpt lat="46.75654" lon="5.62572">
        <ele>442</ele>
        <time>2017-10-19T11:29:14Z</time>
      </trkpt>
      <trkpt lat="46.75655" lon="5.62565">
        <ele>442</ele>
        <time>2017-10-19T11:29:20Z</time>
      </trkpt>
      <trkpt lat="46.75656" lon="5.62557">
        <ele>442</ele>
        <time>2017-10-19T11:29:27Z</time>
      </trkpt>
      <trkpt lat="46.75658" lon="5.6255">
        <ele>443</ele>
        <time>2017-10-19T11:29:31Z</time>
      </trkpt>
      <trkpt lat="46.75659" lon="5.62543">
        <ele>443</ele>
        <time>2017-10-19T11:29:37Z</time>
      </trkpt>
      <trkpt lat="46.75662" lon="5.62538">
        <ele>444</ele>
        <time>2017-10-19T11:29:43Z</time>
      </trkpt>
      <trkpt lat="46.75664" lon="5.62531">
        <ele>444</ele>
        <time>2017-10-19T11:29:52Z</time>
      </trkpt>
      <trkpt lat="46.75661" lon="5.62526">
        <ele>447</ele>
        <time>2017-10-19T11:30:46Z</time>
      </trkpt>
      <trkpt lat="46.75657" lon="5.62517">
        <ele>445</ele>
        <time>2017-10-19T11:31:00Z</time>
      </trkpt>
      <trkpt lat="46.75656" lon="5.62511">
        <ele>445</ele>
        <time>2017-10-19T11:31:06Z</time>
      </trkpt>
      <trkpt lat="46.75654" lon="5.62504">
        <ele>445</ele>
        <time>2017-10-19T11:31:22Z</time>
      </trkpt>
      <trkpt lat="46.75648" lon="5.62495">
        <ele>448</ele>
        <time>2017-10-19T11:35:45Z</time>
      </trkpt>
      <trkpt lat="46.75643" lon="5.62494">
        <ele>449</ele>
        <time>2017-10-19T11:35:52Z</time>
      </trkpt>
      <trkpt lat="46.75641" lon="5.62486">
        <ele>453</ele>
        <time>2017-10-19T11:36:49Z</time>
      </trkpt>
      <trkpt lat="46.75639" lon="5.62493">
        <ele>450</ele>
        <time>2017-10-19T11:38:29Z</time>
      </trkpt>
      <trkpt lat="46.75636" lon="5.62487">
        <ele>449</ele>
        <time>2017-10-19T11:39:17Z</time>
      </trkpt>
      <trkpt lat="46.75631" lon="5.6248">
        <ele>447</ele>
        <time>2017-10-19T11:39:46Z</time>
      </trkpt>
      <trkpt lat="46.75627" lon="5.62479">
        <ele>447</ele>
        <time>2017-10-19T11:39:52Z</time>
      </trkpt>
      <trkpt lat="46.75622" lon="5.62477">
        <ele>448</ele>
        <time>2017-10-19T11:39:57Z</time>
      </trkpt>
      <trkpt lat="46.7561" lon="5.62464">
        <ele>449</ele>
        <time>2017-10-19T11:40:10Z</time>
      </trkpt>
      <trkpt lat="46.75601" lon="5.62458">
        <ele>449</ele>
        <time>2017-10-19T11:40:19Z</time>
      </trkpt>
      <trkpt lat="46.75596" lon="5.62457">
        <ele>450</ele>
        <time>2017-10-19T11:40:23Z</time>
      </trkpt>
      <trkpt lat="46.75592" lon="5.62453">
        <ele>450</ele>
        <time>2017-10-19T11:40:27Z</time>
      </trkpt>
      <trkpt lat="46.75589" lon="5.62449">
        <ele>450</ele>
        <time>2017-10-19T11:40:32Z</time>
      </trkpt>
      <trkpt lat="46.75582" lon="5.62438">
        <ele>451</ele>
        <time>2017-10-19T11:40:46Z</time>
      </trkpt>
      <trkpt lat="46.75561" lon="5.62425">
        <ele>451</ele>
        <time>2017-10-19T11:41:05Z</time>
      </trkpt>
      <trkpt lat="46.75556" lon="5.62422">
        <ele>451</ele>
        <time>2017-10-19T11:41:09Z</time>
      </trkpt>
      <trkpt lat="46.75554" lon="5.62415">
        <ele>451</ele>
        <time>2017-10-19T11:41:15Z</time>
      </trkpt>
      <trkpt lat="46.7555" lon="5.6241">
        <ele>450</ele>
        <time>2017-10-19T11:41:22Z</time>
      </trkpt>
      <trkpt lat="46.75547" lon="5.62405">
        <ele>449</ele>
        <time>2017-10-19T11:41:27Z</time>
      </trkpt>
      <trkpt lat="46.75543" lon="5.62401">
        <ele>448</ele>
        <time>2017-10-19T11:41:32Z</time>
      </trkpt>
      <trkpt lat="46.75537" lon="5.62401">
        <ele>448</ele>
        <time>2017-10-19T11:41:36Z</time>
      </trkpt>
      <trkpt lat="46.75533" lon="5.62402">
        <ele>448</ele>
        <time>2017-10-19T11:41:39Z</time>
      </trkpt>
      <trkpt lat="46.75528" lon="5.62402">
        <ele>448</ele>
        <time>2017-10-19T11:41:44Z</time>
      </trkpt>
      <trkpt lat="46.75524" lon="5.624">
        <ele>446</ele>
        <time>2017-10-19T11:41:49Z</time>
      </trkpt>
      <trkpt lat="46.75514" lon="5.62395">
        <ele>445</ele>
        <time>2017-10-19T11:41:59Z</time>
      </trkpt>
      <trkpt lat="46.75506" lon="5.62388">
        <ele>445</ele>
        <time>2017-10-19T11:42:10Z</time>
      </trkpt>
      <trkpt lat="46.75503" lon="5.62382">
        <ele>445</ele>
        <time>2017-10-19T11:42:16Z</time>
      </trkpt>
      <trkpt lat="46.75497" lon="5.6238">
        <ele>444</ele>
        <time>2017-10-19T11:42:36Z</time>
      </trkpt>
      <trkpt lat="46.75492" lon="5.6238">
        <ele>444</ele>
        <time>2017-10-19T11:43:12Z</time>
      </trkpt>
      <trkpt lat="46.75487" lon="5.62378">
        <ele>445</ele>
        <time>2017-10-19T11:43:23Z</time>
      </trkpt>
      <trkpt lat="46.75482" lon="5.62378">
        <ele>444</ele>
        <time>2017-10-19T11:43:27Z</time>
      </trkpt>
      <trkpt lat="46.75473" lon="5.62375">
        <ele>441</ele>
        <time>2017-10-19T11:43:37Z</time>
      </trkpt>
      <trkpt lat="46.75464" lon="5.62378">
        <ele>440</ele>
        <time>2017-10-19T11:44:11Z</time>
      </trkpt>
      <trkpt lat="46.75459" lon="5.62384">
        <ele>440</ele>
        <time>2017-10-19T11:44:23Z</time>
      </trkpt>
      <trkpt lat="46.75454" lon="5.62388">
        <ele>440</ele>
        <time>2017-10-19T11:44:28Z</time>
      </trkpt>
      <trkpt lat="46.75452" lon="5.62394">
        <ele>440</ele>
        <time>2017-10-19T11:44:32Z</time>
      </trkpt>
      <trkpt lat="46.75449" lon="5.624">
        <ele>441</ele>
        <time>2017-10-19T11:44:36Z</time>
      </trkpt>
      <trkpt lat="46.75446" lon="5.62405">
        <ele>440</ele>
        <time>2017-10-19T11:44:40Z</time>
      </trkpt>
      <trkpt lat="46.75442" lon="5.6241">
        <ele>440</ele>
        <time>2017-10-19T11:44:45Z</time>
      </trkpt>
      <trkpt lat="46.75441" lon="5.62416">
        <ele>440</ele>
        <time>2017-10-19T11:44:49Z</time>
      </trkpt>
      <trkpt lat="46.7543" lon="5.62433">
        <ele>438</ele>
        <time>2017-10-19T11:45:06Z</time>
      </trkpt>
      <trkpt lat="46.75427" lon="5.62438">
        <ele>438</ele>
        <time>2017-10-19T11:45:13Z</time>
      </trkpt>
      <trkpt lat="46.75422" lon="5.62441">
        <ele>440</ele>
        <time>2017-10-19T11:45:20Z</time>
      </trkpt>
      <trkpt lat="46.75413" lon="5.62442">
        <ele>441</ele>
        <time>2017-10-19T11:45:31Z</time>
      </trkpt>
      <trkpt lat="46.75404" lon="5.6244">
        <ele>443</ele>
        <time>2017-10-19T11:45:58Z</time>
      </trkpt>
      <trkpt lat="46.75398" lon="5.62442">
        <ele>439</ele>
        <time>2017-10-19T11:46:54Z</time>
      </trkpt>
      <trkpt lat="46.75392" lon="5.62444">
        <ele>439</ele>
        <time>2017-10-19T11:46:59Z</time>
      </trkpt>
      <trkpt lat="46.75388" lon="5.62447">
        <ele>441</ele>
        <time>2017-10-19T11:47:03Z</time>
      </trkpt>
      <trkpt lat="46.75386" lon="5.62432">
        <ele>448</ele>
        <time>2017-10-19T11:48:17Z</time>
      </trkpt>
      <trkpt lat="46.75394" lon="5.62437">
        <ele>427</ele>
        <time>2017-10-19T11:53:54Z</time>
      </trkpt>
      <trkpt lat="46.75397" lon="5.62434">
        <ele>450</ele>
        <time>2017-10-19T11:54:10Z</time>
      </trkpt>
      <trkpt lat="46.75387" lon="5.62449">
        <ele>462</ele>
        <time>2017-10-19T11:55:25Z</time>
      </trkpt>
      <trkpt lat="46.75377" lon="5.62448">
        <ele>460</ele>
        <time>2017-10-19T11:55:35Z</time>
      </trkpt>
      <trkpt lat="46.75372" lon="5.62438">
        <ele>454</ele>
        <time>2017-10-19T11:55:43Z</time>
      </trkpt>
      <trkpt lat="46.75361" lon="5.62443">
        <ele>445</ele>
        <time>2017-10-19T11:55:59Z</time>
      </trkpt>
      <trkpt lat="46.75353" lon="5.62449">
        <ele>439</ele>
        <time>2017-10-19T11:56:17Z</time>
      </trkpt>
      <trkpt lat="46.75349" lon="5.62444">
        <ele>439</ele>
        <time>2017-10-19T11:56:24Z</time>
      </trkpt>
      <trkpt lat="46.75349" lon="5.62437">
        <ele>439</ele>
        <time>2017-10-19T11:56:30Z</time>
      </trkpt>
      <trkpt lat="46.75347" lon="5.6243">
        <ele>441</ele>
        <time>2017-10-19T11:56:37Z</time>
      </trkpt>
      <trkpt lat="46.75346" lon="5.62424">
        <ele>441</ele>
        <time>2017-10-19T11:56:43Z</time>
      </trkpt>
      <trkpt lat="46.75342" lon="5.62419">
        <ele>440</ele>
        <time>2017-10-19T11:56:50Z</time>
      </trkpt>
      <trkpt lat="46.75337" lon="5.62409">
        <ele>440</ele>
        <time>2017-10-19T11:57:10Z</time>
      </trkpt>
      <trkpt lat="46.75335" lon="5.62404">
        <ele>440</ele>
        <time>2017-10-19T11:57:16Z</time>
      </trkpt>
      <trkpt lat="46.75332" lon="5.62398">
        <ele>439</ele>
        <time>2017-10-19T11:57:23Z</time>
      </trkpt>
      <trkpt lat="46.75324" lon="5.624">
        <ele>436</ele>
        <time>2017-10-19T11:58:40Z</time>
      </trkpt>
      <trkpt lat="46.75319" lon="5.624">
        <ele>436</ele>
        <time>2017-10-19T11:58:46Z</time>
      </trkpt>
      <trkpt lat="46.75314" lon="5.62401">
        <ele>435</ele>
        <time>2017-10-19T11:58:50Z</time>
      </trkpt>
      <trkpt lat="46.7531" lon="5.62399">
        <ele>432</ele>
        <time>2017-10-19T11:59:06Z</time>
      </trkpt>
      <trkpt lat="46.75305" lon="5.62399">
        <ele>431</ele>
        <time>2017-10-19T11:59:18Z</time>
      </trkpt>
      <trkpt lat="46.7533" lon="5.62418">
        <ele>434</ele>
        <time>2017-10-19T12:08:15Z</time>
      </trkpt>
      <trkpt lat="46.75334" lon="5.62419">
        <ele>435</ele>
        <time>2017-10-19T12:08:21Z</time>
      </trkpt>
      <trkpt lat="46.7534" lon="5.62421">
        <ele>436</ele>
        <time>2017-10-19T12:08:27Z</time>
      </trkpt>
      <trkpt lat="46.75344" lon="5.62425">
        <ele>437</ele>
        <time>2017-10-19T12:08:33Z</time>
      </trkpt>
      <trkpt lat="46.75344" lon="5.62432">
        <ele>437</ele>
        <time>2017-10-19T12:08:39Z</time>
      </trkpt>
      <trkpt lat="46.75346" lon="5.62439">
        <ele>438</ele>
        <time>2017-10-19T12:08:45Z</time>
      </trkpt>
      <trkpt lat="46.75349" lon="5.62444">
        <ele>438</ele>
        <time>2017-10-19T12:08:54Z</time>
      </trkpt>
      <trkpt lat="46.7535" lon="5.62451">
        <ele>438</ele>
        <time>2017-10-19T12:09:00Z</time>
      </trkpt>
      <trkpt lat="46.75348" lon="5.62457">
        <ele>438</ele>
        <time>2017-10-19T12:09:08Z</time>
      </trkpt>
      <trkpt lat="46.75348" lon="5.62464">
        <ele>438</ele>
        <time>2017-10-19T12:09:15Z</time>
      </trkpt>
      <trkpt lat="46.75349" lon="5.62471">
        <ele>438</ele>
        <time>2017-10-19T12:09:20Z</time>
      </trkpt>
      <trkpt lat="46.75347" lon="5.62485">
        <ele>439</ele>
        <time>2017-10-19T12:09:30Z</time>
      </trkpt>
      <trkpt lat="46.75351" lon="5.6249">
        <ele>440</ele>
        <time>2017-10-19T12:09:38Z</time>
      </trkpt>
      <trkpt lat="46.75356" lon="5.62493">
        <ele>440</ele>
        <time>2017-10-19T12:09:42Z</time>
      </trkpt>
      <trkpt lat="46.75361" lon="5.62493">
        <ele>439</ele>
        <time>2017-10-19T12:09:46Z</time>
      </trkpt>
      <trkpt lat="46.75366" lon="5.62493">
        <ele>439</ele>
        <time>2017-10-19T12:09:51Z</time>
      </trkpt>
      <trkpt lat="46.75371" lon="5.62494">
        <ele>440</ele>
        <time>2017-10-19T12:09:58Z</time>
      </trkpt>
      <trkpt lat="46.75379" lon="5.62503">
        <ele>440</ele>
        <time>2017-10-19T12:10:26Z</time>
      </trkpt>
      <trkpt lat="46.75372" lon="5.62503">
        <ele>440</ele>
        <time>2017-10-19T12:11:10Z</time>
      </trkpt>
      <trkpt lat="46.75368" lon="5.62508">
        <ele>441</ele>
        <time>2017-10-19T12:11:16Z</time>
      </trkpt>
      <trkpt lat="46.75368" lon="5.62516">
        <ele>442</ele>
        <time>2017-10-19T12:12:11Z</time>
      </trkpt>
      <trkpt lat="46.75364" lon="5.62524">
        <ele>445</ele>
        <time>2017-10-19T12:12:50Z</time>
      </trkpt>
      <trkpt lat="46.75372" lon="5.62549">
        <ele>455</ele>
        <time>2017-10-19T12:13:11Z</time>
      </trkpt>
      <trkpt lat="46.75374" lon="5.62554">
        <ele>455</ele>
        <time>2017-10-19T12:13:17Z</time>
      </trkpt>
      <trkpt lat="46.75377" lon="5.6256">
        <ele>455</ele>
        <time>2017-10-19T12:13:23Z</time>
      </trkpt>
      <trkpt lat="46.7539" lon="5.62589">
        <ele>439</ele>
        <time>2017-10-19T12:14:06Z</time>
      </trkpt>
      <trkpt lat="46.75389" lon="5.62596">
        <ele>433</ele>
        <time>2017-10-19T12:14:27Z</time>
      </trkpt>
      <trkpt lat="46.75386" lon="5.62602">
        <ele>431</ele>
        <time>2017-10-19T12:14:36Z</time>
      </trkpt>
      <trkpt lat="46.75384" lon="5.62608">
        <ele>428</ele>
        <time>2017-10-19T12:15:07Z</time>
      </trkpt>
      <trkpt lat="46.75388" lon="5.62563">
        <ele>428.2</ele>
        <time>2017-10-19T12:20:23Z</time>
      </trkpt>
      <trkpt lat="46.75343" lon="5.62639">
        <ele>405</ele>
        <time>2017-10-19T12:20:44Z</time>
      </trkpt>
      <trkpt lat="46.75343" lon="5.62639">
        <ele>405</ele>
        <time>2017-10-19T12:20:55Z</time>
      </trkpt>
      <trkpt lat="46.75343" lon="5.62622">
        <ele>412</ele>
        <time>2017-10-19T12:21:28Z</time>
      </trkpt>
      <trkpt lat="46.75342" lon="5.62615">
        <ele>412</ele>
        <time>2017-10-19T12:21:39Z</time>
      </trkpt>
      <trkpt lat="46.75334" lon="5.62614">
        <ele>408</ele>
        <time>2017-10-19T12:22:13Z</time>
      </trkpt>
      <trkpt lat="46.75323" lon="5.62615">
        <ele>405</ele>
        <time>2017-10-19T12:22:47Z</time>
      </trkpt>
      <trkpt lat="46.75303" lon="5.62601">
        <ele>401</ele>
        <time>2017-10-19T12:23:25Z</time>
      </trkpt>
      <trkpt lat="46.75299" lon="5.62602">
        <ele>400</ele>
        <time>2017-10-19T12:23:31Z</time>
      </trkpt>
      <trkpt lat="46.75295" lon="5.62606">
        <ele>397</ele>
        <time>2017-10-19T12:23:38Z</time>
      </trkpt>
      <trkpt lat="46.75276" lon="5.62609">
        <ele>393</ele>
        <time>2017-10-19T12:24:23Z</time>
      </trkpt>
      <trkpt lat="46.75268" lon="5.62604">
        <ele>389</ele>
        <time>2017-10-19T12:25:43Z</time>
      </trkpt>
      <trkpt lat="46.75264" lon="5.626">
        <ele>388</ele>
        <time>2017-10-19T12:25:50Z</time>
      </trkpt>
      <trkpt lat="46.75259" lon="5.62603">
        <ele>385</ele>
        <time>2017-10-19T12:25:55Z</time>
      </trkpt>
      <trkpt lat="46.75252" lon="5.62613">
        <ele>383</ele>
        <time>2017-10-19T12:26:07Z</time>
      </trkpt>
      <trkpt lat="46.7524" lon="5.6262">
        <ele>382</ele>
        <time>2017-10-19T12:26:26Z</time>
      </trkpt>
      <trkpt lat="46.75238" lon="5.62627">
        <ele>382</ele>
        <time>2017-10-19T12:26:35Z</time>
      </trkpt>
      <trkpt lat="46.75231" lon="5.62636">
        <ele>380</ele>
        <time>2017-10-19T12:26:46Z</time>
      </trkpt>
      <trkpt lat="46.75226" lon="5.62639">
        <ele>380</ele>
        <time>2017-10-19T12:26:51Z</time>
      </trkpt>
      <trkpt lat="46.75213" lon="5.62667">
        <ele>378</ele>
        <time>2017-10-19T12:27:22Z</time>
      </trkpt>
      <trkpt lat="46.75212" lon="5.62682">
        <ele>378</ele>
        <time>2017-10-19T12:27:34Z</time>
      </trkpt>
      <trkpt lat="46.75213" lon="5.6269">
        <ele>378</ele>
        <time>2017-10-19T12:27:39Z</time>
      </trkpt>
      <trkpt lat="46.75215" lon="5.62711">
        <ele>378</ele>
        <time>2017-10-19T12:27:52Z</time>
      </trkpt>
      <trkpt lat="46.75218" lon="5.62752">
        <ele>378</ele>
        <time>2017-10-19T12:28:23Z</time>
      </trkpt>
      <trkpt lat="46.75216" lon="5.62782">
        <ele>378</ele>
        <time>2017-10-19T12:28:40Z</time>
      </trkpt>
      <trkpt lat="46.7521" lon="5.62809">
        <ele>377</ele>
        <time>2017-10-19T12:28:58Z</time>
      </trkpt>
      <trkpt lat="46.75208" lon="5.62815">
        <ele>377</ele>
        <time>2017-10-19T12:29:05Z</time>
      </trkpt>
      <trkpt lat="46.75205" lon="5.62837">
        <ele>376</ele>
        <time>2017-10-19T12:29:18Z</time>
      </trkpt>
      <trkpt lat="46.75199" lon="5.62882">
        <ele>371</ele>
        <time>2017-10-19T12:29:51Z</time>
      </trkpt>
      <trkpt lat="46.75197" lon="5.62902">
        <ele>369</ele>
        <time>2017-10-19T12:30:07Z</time>
      </trkpt>
      <trkpt lat="46.75197" lon="5.6291">
        <ele>369</ele>
        <time>2017-10-19T12:30:13Z</time>
      </trkpt>
      <trkpt lat="46.75195" lon="5.62916">
        <ele>369</ele>
        <time>2017-10-19T12:30:18Z</time>
      </trkpt>
      <trkpt lat="46.75193" lon="5.62922">
        <ele>368</ele>
        <time>2017-10-19T12:30:23Z</time>
      </trkpt>
      <trkpt lat="46.75183" lon="5.62937">
        <ele>367</ele>
        <time>2017-10-19T12:30:36Z</time>
      </trkpt>
      <trkpt lat="46.75178" lon="5.6294">
        <ele>367</ele>
        <time>2017-10-19T12:30:40Z</time>
      </trkpt>
      <trkpt lat="46.75163" lon="5.62942">
        <ele>366</ele>
        <time>2017-10-19T12:30:55Z</time>
      </trkpt>
      <trkpt lat="46.75148" lon="5.62945">
        <ele>366</ele>
        <time>2017-10-19T12:31:09Z</time>
      </trkpt>
      <trkpt lat="46.75143" lon="5.62944">
        <ele>366</ele>
        <time>2017-10-19T12:31:14Z</time>
      </trkpt>
      <trkpt lat="46.75138" lon="5.62941">
        <ele>366</ele>
        <time>2017-10-19T12:31:19Z</time>
      </trkpt>
      <trkpt lat="46.75133" lon="5.6294">
        <ele>365</ele>
        <time>2017-10-19T12:31:26Z</time>
      </trkpt>
      <trkpt lat="46.75125" lon="5.62935">
        <ele>364</ele>
        <time>2017-10-19T12:31:35Z</time>
      </trkpt>
      <trkpt lat="46.75121" lon="5.6293">
        <ele>363</ele>
        <time>2017-10-19T12:31:39Z</time>
      </trkpt>
      <trkpt lat="46.75117" lon="5.62927">
        <ele>364</ele>
        <time>2017-10-19T12:31:43Z</time>
      </trkpt>
      <trkpt lat="46.75086" lon="5.62902">
        <ele>359</ele>
        <time>2017-10-19T12:32:14Z</time>
      </trkpt>
      <trkpt lat="46.75059" lon="5.62885">
        <ele>352</ele>
        <time>2017-10-19T12:32:47Z</time>
      </trkpt>
      <trkpt lat="46.75041" lon="5.62876">
        <ele>348</ele>
        <time>2017-10-19T12:33:07Z</time>
      </trkpt>
      <trkpt lat="46.75043" lon="5.62869">
        <ele>347</ele>
        <time>2017-10-19T12:33:14Z</time>
      </trkpt>
      <trkpt lat="46.75048" lon="5.62869">
        <ele>346</ele>
        <time>2017-10-19T12:33:18Z</time>
      </trkpt>
      <trkpt lat="46.75053" lon="5.62872">
        <ele>345</ele>
        <time>2017-10-19T12:33:23Z</time>
      </trkpt>
      <trkpt lat="46.75077" lon="5.62885">
        <ele>345</ele>
        <time>2017-10-19T12:33:45Z</time>
      </trkpt>
      <trkpt lat="46.75097" lon="5.6289">
        <ele>346</ele>
        <time>2017-10-19T12:34:04Z</time>
      </trkpt>
      <trkpt lat="46.75101" lon="5.62893">
        <ele>346</ele>
        <time>2017-10-19T12:34:08Z</time>
      </trkpt>
      <trkpt lat="46.75106" lon="5.62893">
        <ele>346</ele>
        <time>2017-10-19T12:34:13Z</time>
      </trkpt>
      <trkpt lat="46.7511" lon="5.62888">
        <ele>347</ele>
        <time>2017-10-19T12:34:18Z</time>
      </trkpt>
      <trkpt lat="46.7511" lon="5.62881">
        <ele>347</ele>
        <time>2017-10-19T12:34:23Z</time>
      </trkpt>
      <trkpt lat="46.75108" lon="5.62875">
        <ele>346</ele>
        <time>2017-10-19T12:34:27Z</time>
      </trkpt>
      <trkpt lat="46.75105" lon="5.62854">
        <ele>346</ele>
        <time>2017-10-19T12:34:39Z</time>
      </trkpt>
      <trkpt lat="46.75102" lon="5.62847">
        <ele>346</ele>
        <time>2017-10-19T12:34:44Z</time>
      </trkpt>
      <trkpt lat="46.75093" lon="5.62821">
        <ele>344</ele>
        <time>2017-10-19T12:35:02Z</time>
      </trkpt>
      <trkpt lat="46.75092" lon="5.62814">
        <ele>344</ele>
        <time>2017-10-19T12:35:06Z</time>
      </trkpt>
      <trkpt lat="46.75098" lon="5.62762">
        <ele>344</ele>
        <time>2017-10-19T12:35:37Z</time>
      </trkpt>
      <trkpt lat="46.75103" lon="5.6271">
        <ele>343</ele>
        <time>2017-10-19T12:36:08Z</time>
      </trkpt>
      <trkpt lat="46.751" lon="5.62689">
        <ele>341</ele>
        <time>2017-10-19T12:36:22Z</time>
      </trkpt>
      <trkpt lat="46.75099" lon="5.62675">
        <ele>339</ele>
        <time>2017-10-19T12:36:32Z</time>
      </trkpt>
      <trkpt lat="46.75098" lon="5.62668">
        <ele>338</ele>
        <time>2017-10-19T12:36:36Z</time>
      </trkpt>
      <trkpt lat="46.75099" lon="5.62634">
        <ele>336</ele>
        <time>2017-10-19T12:36:56Z</time>
      </trkpt>
      <trkpt lat="46.75096" lon="5.6262">
        <ele>335</ele>
        <time>2017-10-19T12:37:05Z</time>
      </trkpt>
      <trkpt lat="46.75089" lon="5.62601">
        <ele>334</ele>
        <time>2017-10-19T12:37:22Z</time>
      </trkpt>
      <trkpt lat="46.75085" lon="5.62598">
        <ele>334</ele>
        <time>2017-10-19T12:37:26Z</time>
      </trkpt>
      <trkpt lat="46.7508" lon="5.62597">
        <ele>334</ele>
        <time>2017-10-19T12:37:30Z</time>
      </trkpt>
      <trkpt lat="46.75088" lon="5.62588">
        <ele>332</ele>
        <time>2017-10-19T12:37:45Z</time>
      </trkpt>
      <trkpt lat="46.75092" lon="5.62584">
        <ele>332</ele>
        <time>2017-10-19T12:37:49Z</time>
      </trkpt>
      <trkpt lat="46.75116" lon="5.62558">
        <ele>334</ele>
        <time>2017-10-19T12:38:23Z</time>
      </trkpt>
      <trkpt lat="46.7512" lon="5.62555">
        <ele>334</ele>
        <time>2017-10-19T12:38:28Z</time>
      </trkpt>
      <trkpt lat="46.75124" lon="5.62552">
        <ele>335</ele>
        <time>2017-10-19T12:38:33Z</time>
      </trkpt>
      <trkpt lat="46.75133" lon="5.6254">
        <ele>335</ele>
        <time>2017-10-19T12:39:12Z</time>
      </trkpt>
      <trkpt lat="46.75136" lon="5.62536">
        <ele>335</ele>
        <time>2017-10-19T12:39:16Z</time>
      </trkpt>
      <trkpt lat="46.7514" lon="5.62531">
        <ele>335</ele>
        <time>2017-10-19T12:39:19Z</time>
      </trkpt>
      <trkpt lat="46.75145" lon="5.62521">
        <ele>334</ele>
        <time>2017-10-19T12:39:29Z</time>
      </trkpt>
      <trkpt lat="46.75155" lon="5.62518">
        <ele>334</ele>
        <time>2017-10-19T12:39:39Z</time>
      </trkpt>
      <trkpt lat="46.75166" lon="5.62508">
        <ele>333</ele>
        <time>2017-10-19T12:40:07Z</time>
      </trkpt>
      <trkpt lat="46.75169" lon="5.62501">
        <ele>332</ele>
        <time>2017-10-19T12:40:18Z</time>
      </trkpt>
      <trkpt lat="46.75173" lon="5.62497">
        <ele>332</ele>
        <time>2017-10-19T12:40:24Z</time>
      </trkpt>
      <trkpt lat="46.7518" lon="5.62477">
        <ele>330</ele>
        <time>2017-10-19T12:40:40Z</time>
      </trkpt>
      <trkpt lat="46.75196" lon="5.6245">
        <ele>329</ele>
        <time>2017-10-19T12:41:07Z</time>
      </trkpt>
      <trkpt lat="46.752" lon="5.62446">
        <ele>329</ele>
        <time>2017-10-19T12:41:12Z</time>
      </trkpt>
      <trkpt lat="46.75204" lon="5.62442">
        <ele>329</ele>
        <time>2017-10-19T12:41:19Z</time>
      </trkpt>
      <trkpt lat="46.75211" lon="5.6243">
        <ele>329</ele>
        <time>2017-10-19T12:41:30Z</time>
      </trkpt>
      <trkpt lat="46.75214" lon="5.62424">
        <ele>329</ele>
        <time>2017-10-19T12:41:36Z</time>
      </trkpt>
      <trkpt lat="46.75214" lon="5.62417">
        <ele>329</ele>
        <time>2017-10-19T12:41:45Z</time>
      </trkpt>
      <trkpt lat="46.75216" lon="5.62411">
        <ele>330</ele>
        <time>2017-10-19T12:41:51Z</time>
      </trkpt>
      <trkpt lat="46.75212" lon="5.62401">
        <ele>329</ele>
        <time>2017-10-19T12:42:14Z</time>
      </trkpt>
      <trkpt lat="46.75209" lon="5.62395">
        <ele>329</ele>
        <time>2017-10-19T12:42:23Z</time>
      </trkpt>
      <trkpt lat="46.75199" lon="5.62359">
        <ele>317</ele>
        <time>2017-10-19T12:48:35Z</time>
      </trkpt>
      <trkpt lat="46.75208" lon="5.62359">
        <ele>318</ele>
        <time>2017-10-19T12:48:45Z</time>
      </trkpt>
      <trkpt lat="46.75217" lon="5.6235">
        <ele>319</ele>
        <time>2017-10-19T12:49:00Z</time>
      </trkpt>
      <trkpt lat="46.75222" lon="5.62338">
        <ele>320</ele>
        <time>2017-10-19T12:49:11Z</time>
      </trkpt>
      <trkpt lat="46.75225" lon="5.62334">
        <ele>320</ele>
        <time>2017-10-19T12:49:17Z</time>
      </trkpt>
      <trkpt lat="46.75239" lon="5.62325">
        <ele>323</ele>
        <time>2017-10-19T12:49:34Z</time>
      </trkpt>
      <trkpt lat="46.75244" lon="5.6232">
        <ele>323</ele>
        <time>2017-10-19T12:49:39Z</time>
      </trkpt>
      <trkpt lat="46.75252" lon="5.62311">
        <ele>324</ele>
        <time>2017-10-19T12:49:55Z</time>
      </trkpt>
      <trkpt lat="46.75252" lon="5.62304">
        <ele>324</ele>
        <time>2017-10-19T12:49:58Z</time>
      </trkpt>
      <trkpt lat="46.75257" lon="5.623">
        <ele>325</ele>
        <time>2017-10-19T12:50:03Z</time>
      </trkpt>
      <trkpt lat="46.75262" lon="5.62301">
        <ele>325</ele>
        <time>2017-10-19T12:50:09Z</time>
      </trkpt>
      <trkpt lat="46.75266" lon="5.62296">
        <ele>325</ele>
        <time>2017-10-19T12:50:14Z</time>
      </trkpt>
      <trkpt lat="46.75267" lon="5.62285">
        <ele>325</ele>
        <time>2017-10-19T12:50:44Z</time>
      </trkpt>
      <trkpt lat="46.75268" lon="5.62279">
        <ele>326</ele>
        <time>2017-10-19T12:50:52Z</time>
      </trkpt>
      <trkpt lat="46.75267" lon="5.62272">
        <ele>324</ele>
        <time>2017-10-19T12:51:36Z</time>
      </trkpt>
      <trkpt lat="46.7527" lon="5.62259">
        <ele>324</ele>
        <time>2017-10-19T12:51:47Z</time>
      </trkpt>
      <trkpt lat="46.75271" lon="5.62253">
        <ele>323</ele>
        <time>2017-10-19T12:51:51Z</time>
      </trkpt>
      <trkpt lat="46.75274" lon="5.62246">
        <ele>321</ele>
        <time>2017-10-19T12:51:57Z</time>
      </trkpt>
      <trkpt lat="46.75277" lon="5.62242">
        <ele>322</ele>
        <time>2017-10-19T12:52:05Z</time>
      </trkpt>
      <trkpt lat="46.75282" lon="5.62238">
        <ele>321</ele>
        <time>2017-10-19T12:52:10Z</time>
      </trkpt>
      <trkpt lat="46.75292" lon="5.62235">
        <ele>320</ele>
        <time>2017-10-19T12:52:21Z</time>
      </trkpt>
      <trkpt lat="46.75297" lon="5.62234">
        <ele>320</ele>
        <time>2017-10-19T12:52:25Z</time>
      </trkpt>
      <trkpt lat="46.75306" lon="5.62226">
        <ele>319</ele>
        <time>2017-10-19T12:52:36Z</time>
      </trkpt>
      <trkpt lat="46.75311" lon="5.62226">
        <ele>318</ele>
        <time>2017-10-19T12:52:46Z</time>
      </trkpt>
      <trkpt lat="46.75315" lon="5.62221">
        <ele>318</ele>
        <time>2017-10-19T12:52:53Z</time>
      </trkpt>
      <trkpt lat="46.75318" lon="5.62215">
        <ele>317</ele>
        <time>2017-10-19T12:52:58Z</time>
      </trkpt>
      <trkpt lat="46.75322" lon="5.6221">
        <ele>316</ele>
        <time>2017-10-19T12:53:03Z</time>
      </trkpt>
      <trkpt lat="46.75321" lon="5.62209">
        <ele>314</ele>
        <time>2017-10-19T12:53:33Z</time>
      </trkpt>
      <trkpt lat="46.75317" lon="5.62201">
        <ele>312</ele>
        <time>2017-10-19T12:53:51Z</time>
      </trkpt>
      <trkpt lat="46.75326" lon="5.62193">
        <ele>311</ele>
        <time>2017-10-19T12:54:11Z</time>
      </trkpt>
      <trkpt lat="46.75325" lon="5.62186">
        <ele>311</ele>
        <time>2017-10-19T12:54:18Z</time>
      </trkpt>
      <trkpt lat="46.75322" lon="5.62165">
        <ele>309</ele>
        <time>2017-10-19T12:54:47Z</time>
      </trkpt>
      <trkpt lat="46.75319" lon="5.62158">
        <ele>308</ele>
        <time>2017-10-19T12:55:00Z</time>
      </trkpt>
      <trkpt lat="46.75318" lon="5.62148">
        <ele>306</ele>
        <time>2017-10-19T12:55:18Z</time>
      </trkpt>
      <trkpt lat="46.75318" lon="5.6214">
        <ele>301</ele>
        <time>2017-10-19T12:55:40Z</time>
      </trkpt>
      <trkpt lat="46.75312" lon="5.62122">
        <ele>301</ele>
        <time>2017-10-19T12:55:58Z</time>
      </trkpt>
      <trkpt lat="46.7531" lon="5.62115">
        <ele>300</ele>
        <time>2017-10-19T12:56:08Z</time>
      </trkpt>
      <trkpt lat="46.75306" lon="5.62111">
        <ele>300</ele>
        <time>2017-10-19T12:56:18Z</time>
      </trkpt>
      <trkpt lat="46.75302" lon="5.62109">
        <ele>297</ele>
        <time>2017-10-19T12:56:24Z</time>
      </trkpt>
      <trkpt lat="46.75293" lon="5.62098">
        <ele>292</ele>
        <time>2017-10-19T12:56:39Z</time>
      </trkpt>
      <trkpt lat="46.7529" lon="5.62092">
        <ele>291</ele>
        <time>2017-10-19T12:56:44Z</time>
      </trkpt>
      <trkpt lat="46.7529" lon="5.62084">
        <ele>287</ele>
        <time>2017-10-19T12:57:20Z</time>
      </trkpt>
      <trkpt lat="46.75295" lon="5.62081">
        <ele>287</ele>
        <time>2017-10-19T12:57:24Z</time>
      </trkpt>
      <trkpt lat="46.75294" lon="5.62074">
        <ele>284</ele>
        <time>2017-10-19T12:57:35Z</time>
      </trkpt>
      <trkpt lat="46.75293" lon="5.62067">
        <ele>283</ele>
        <time>2017-10-19T12:57:41Z</time>
      </trkpt>
      <trkpt lat="46.75291" lon="5.62061">
        <ele>283</ele>
        <time>2017-10-19T12:57:46Z</time>
      </trkpt>
      <trkpt lat="46.75286" lon="5.62056">
        <ele>281</ele>
        <time>2017-10-19T12:57:50Z</time>
      </trkpt>
      <trkpt lat="46.75283" lon="5.62051">
        <ele>280</ele>
        <time>2017-10-19T12:57:55Z</time>
      </trkpt>
      <trkpt lat="46.75283" lon="5.62052">
        <ele>278</ele>
        <time>2017-10-19T12:59:34Z</time>
      </trkpt>
      <trkpt lat="46.75286" lon="5.62042">
        <ele>277</ele>
        <time>2017-10-19T13:01:35Z</time>
      </trkpt>
      <trkpt lat="46.75291" lon="5.6204">
        <ele>277</ele>
        <time>2017-10-19T13:01:39Z</time>
      </trkpt>
      <trkpt lat="46.75296" lon="5.62037">
        <ele>278</ele>
        <time>2017-10-19T13:01:44Z</time>
      </trkpt>
      <trkpt lat="46.75301" lon="5.62036">
        <ele>278</ele>
        <time>2017-10-19T13:01:49Z</time>
      </trkpt>
      <trkpt lat="46.75305" lon="5.62034">
        <ele>277</ele>
        <time>2017-10-19T13:01:53Z</time>
      </trkpt>
      <trkpt lat="46.75311" lon="5.6203">
        <ele>276</ele>
        <time>2017-10-19T13:01:59Z</time>
      </trkpt>
      <trkpt lat="46.7532" lon="5.62014">
        <ele>272</ele>
        <time>2017-10-19T13:02:10Z</time>
      </trkpt>
      <trkpt lat="46.75326" lon="5.62001">
        <ele>270</ele>
        <time>2017-10-19T13:02:20Z</time>
      </trkpt>
      <trkpt lat="46.7533" lon="5.61997">
        <ele>270</ele>
        <time>2017-10-19T13:02:25Z</time>
      </trkpt>
      <trkpt lat="46.75338" lon="5.6198">
        <ele>270</ele>
        <time>2017-10-19T13:02:37Z</time>
      </trkpt>
      <trkpt lat="46.75341" lon="5.61967">
        <ele>270</ele>
        <time>2017-10-19T13:02:43Z</time>
      </trkpt>
      <trkpt lat="46.75346" lon="5.61947">
        <ele>272</ele>
        <time>2017-10-19T13:02:56Z</time>
      </trkpt>
      <trkpt lat="46.75349" lon="5.61934">
        <ele>270</ele>
        <time>2017-10-19T13:03:04Z</time>
      </trkpt>
      <trkpt lat="46.75351" lon="5.61927">
        <ele>270</ele>
        <time>2017-10-19T13:03:07Z</time>
      </trkpt>
      <trkpt lat="46.75356" lon="5.61922">
        <ele>271</ele>
        <time>2017-10-19T13:03:11Z</time>
      </trkpt>
      <trkpt lat="46.75358" lon="5.61916">
        <ele>271</ele>
        <time>2017-10-19T13:03:14Z</time>
      </trkpt>
      <trkpt lat="46.75362" lon="5.6191">
        <ele>271</ele>
        <time>2017-10-19T13:03:18Z</time>
      </trkpt>
      <trkpt lat="46.75372" lon="5.61903">
        <ele>271</ele>
        <time>2017-10-19T13:03:26Z</time>
      </trkpt>
      <trkpt lat="46.75386" lon="5.61882">
        <ele>266</ele>
        <time>2017-10-19T13:03:42Z</time>
      </trkpt>
      <trkpt lat="46.75388" lon="5.61875">
        <ele>265</ele>
        <time>2017-10-19T13:03:46Z</time>
      </trkpt>
      <trkpt lat="46.75395" lon="5.61864">
        <ele>264</ele>
        <time>2017-10-19T13:03:54Z</time>
      </trkpt>
      <trkpt lat="46.75401" lon="5.61845">
        <ele>265</ele>
        <time>2017-10-19T13:04:06Z</time>
      </trkpt>
      <trkpt lat="46.75406" lon="5.61834">
        <ele>265</ele>
        <time>2017-10-19T13:04:13Z</time>
      </trkpt>
      <trkpt lat="46.75411" lon="5.61822">
        <ele>265</ele>
        <time>2017-10-19T13:04:20Z</time>
      </trkpt>
      <trkpt lat="46.75418" lon="5.61812">
        <ele>265</ele>
        <time>2017-10-19T13:04:28Z</time>
      </trkpt>
      <trkpt lat="46.75421" lon="5.61807">
        <ele>265</ele>
        <time>2017-10-19T13:04:32Z</time>
      </trkpt>
      <trkpt lat="46.75422" lon="5.61799">
        <ele>264</ele>
        <time>2017-10-19T13:04:37Z</time>
      </trkpt>
      <trkpt lat="46.75422" lon="5.61793">
        <ele>264</ele>
        <time>2017-10-19T13:04:40Z</time>
      </trkpt>
      <trkpt lat="46.7542" lon="5.61779">
        <ele>262</ele>
        <time>2017-10-19T13:04:48Z</time>
      </trkpt>
      <trkpt lat="46.7542" lon="5.6177">
        <ele>261</ele>
        <time>2017-10-19T13:04:53Z</time>
      </trkpt>
      <trkpt lat="46.75421" lon="5.61763">
        <ele>260</ele>
        <time>2017-10-19T13:04:57Z</time>
      </trkpt>
      <trkpt lat="46.75426" lon="5.61761">
        <ele>260</ele>
        <time>2017-10-19T13:05:02Z</time>
      </trkpt>
      <trkpt lat="46.75435" lon="5.61768">
        <ele>259</ele>
        <time>2017-10-19T13:05:11Z</time>
      </trkpt>
      <trkpt lat="46.75446" lon="5.61773">
        <ele>259</ele>
        <time>2017-10-19T13:05:19Z</time>
      </trkpt>
      <trkpt lat="46.75451" lon="5.61773">
        <ele>259</ele>
        <time>2017-10-19T13:05:23Z</time>
      </trkpt>
      <trkpt lat="46.7546" lon="5.61777">
        <ele>258</ele>
        <time>2017-10-19T13:05:31Z</time>
      </trkpt>
      <trkpt lat="46.75475" lon="5.61779">
        <ele>258</ele>
        <time>2017-10-19T13:05:45Z</time>
      </trkpt>
      <trkpt lat="46.7548" lon="5.61782">
        <ele>259</ele>
        <time>2017-10-19T13:05:49Z</time>
      </trkpt>
      <trkpt lat="46.75484" lon="5.61783">
        <ele>259</ele>
        <time>2017-10-19T13:05:53Z</time>
      </trkpt>
      <trkpt lat="46.75495" lon="5.61781">
        <ele>259</ele>
        <time>2017-10-19T13:06:02Z</time>
      </trkpt>
      <trkpt lat="46.755" lon="5.61777">
        <ele>259</ele>
        <time>2017-10-19T13:06:06Z</time>
      </trkpt>
      <trkpt lat="46.7551" lon="5.61773">
        <ele>259</ele>
        <time>2017-10-19T13:06:13Z</time>
      </trkpt>
      <trkpt lat="46.7552" lon="5.61767">
        <ele>258</ele>
        <time>2017-10-19T13:06:19Z</time>
      </trkpt>
      <trkpt lat="46.75524" lon="5.6176">
        <ele>258</ele>
        <time>2017-10-19T13:06:22Z</time>
      </trkpt>
      <trkpt lat="46.75538" lon="5.61725">
        <ele>257</ele>
        <time>2017-10-19T13:06:40Z</time>
      </trkpt>
      <trkpt lat="46.75543" lon="5.61697">
        <ele>257</ele>
        <time>2017-10-19T13:06:57Z</time>
      </trkpt>
      <trkpt lat="46.75547" lon="5.61693">
        <ele>257</ele>
        <time>2017-10-19T13:07:23Z</time>
      </trkpt>
      <trkpt lat="46.75569" lon="5.61673">
        <ele>256</ele>
        <time>2017-10-19T13:07:45Z</time>
      </trkpt>
      <trkpt lat="46.75574" lon="5.61672">
        <ele>256</ele>
        <time>2017-10-19T13:07:49Z</time>
      </trkpt>
      <trkpt lat="46.75579" lon="5.6167">
        <ele>256</ele>
        <time>2017-10-19T13:07:54Z</time>
      </trkpt>
      <trkpt lat="46.75584" lon="5.61666">
        <ele>256</ele>
        <time>2017-10-19T13:07:59Z</time>
      </trkpt>
      <trkpt lat="46.7559" lon="5.61656">
        <ele>256</ele>
        <time>2017-10-19T13:08:06Z</time>
      </trkpt>
      <trkpt lat="46.75595" lon="5.61653">
        <ele>256</ele>
        <time>2017-10-19T13:08:11Z</time>
      </trkpt>
      <trkpt lat="46.75598" lon="5.61648">
        <ele>256</ele>
        <time>2017-10-19T13:08:14Z</time>
      </trkpt>
      <trkpt lat="46.75602" lon="5.61645">
        <ele>256</ele>
        <time>2017-10-19T13:08:17Z</time>
      </trkpt>
      <trkpt lat="46.75608" lon="5.61643">
        <ele>256</ele>
        <time>2017-10-19T13:08:21Z</time>
      </trkpt>
      <trkpt lat="46.75627" lon="5.61634">
        <ele>256</ele>
        <time>2017-10-19T13:08:37Z</time>
      </trkpt>
      <trkpt lat="46.75636" lon="5.61634">
        <ele>255</ele>
        <time>2017-10-19T13:08:45Z</time>
      </trkpt>
      <trkpt lat="46.75641" lon="5.61637">
        <ele>255</ele>
        <time>2017-10-19T13:08:49Z</time>
      </trkpt>
      <trkpt lat="46.75646" lon="5.61658">
        <ele>255</ele>
        <time>2017-10-19T13:09:20Z</time>
      </trkpt>
      <trkpt lat="46.75646" lon="5.61664">
        <ele>255</ele>
        <time>2017-10-19T13:09:26Z</time>
      </trkpt>
      <trkpt lat="46.7565" lon="5.61685">
        <ele>256</ele>
        <time>2017-10-19T13:09:40Z</time>
      </trkpt>
      <trkpt lat="46.75655" lon="5.6169">
        <ele>256</ele>
        <time>2017-10-19T13:09:44Z</time>
      </trkpt>
      <trkpt lat="46.75659" lon="5.61691">
        <ele>256</ele>
        <time>2017-10-19T13:09:47Z</time>
      </trkpt>
      <trkpt lat="46.7567" lon="5.61687">
        <ele>255</ele>
        <time>2017-10-19T13:09:55Z</time>
      </trkpt>
      <trkpt lat="46.75696" lon="5.61682">
        <ele>255</ele>
        <time>2017-10-19T13:10:15Z</time>
      </trkpt>
      <trkpt lat="46.757" lon="5.61681">
        <ele>254</ele>
        <time>2017-10-19T13:10:19Z</time>
      </trkpt>
      <trkpt lat="46.75711" lon="5.61678">
        <ele>254</ele>
        <time>2017-10-19T13:10:28Z</time>
      </trkpt>
      <trkpt lat="46.75716" lon="5.61679">
        <ele>254</ele>
        <time>2017-10-19T13:10:32Z</time>
      </trkpt>
      <trkpt lat="46.75725" lon="5.61677">
        <ele>254</ele>
        <time>2017-10-19T13:10:40Z</time>
      </trkpt>
      <trkpt lat="46.7573" lon="5.61676">
        <ele>254</ele>
        <time>2017-10-19T13:10:43Z</time>
      </trkpt>
      <trkpt lat="46.75734" lon="5.61675">
        <ele>254</ele>
        <time>2017-10-19T13:10:47Z</time>
      </trkpt>
      <trkpt lat="46.75738" lon="5.6167">
        <ele>254</ele>
        <time>2017-10-19T13:10:50Z</time>
      </trkpt>
      <trkpt lat="46.75747" lon="5.61658">
        <ele>254</ele>
        <time>2017-10-19T13:11:01Z</time>
      </trkpt>
      <trkpt lat="46.75766" lon="5.61605">
        <ele>255</ele>
        <time>2017-10-19T13:11:36Z</time>
      </trkpt>
      <trkpt lat="46.75767" lon="5.61589">
        <ele>254</ele>
        <time>2017-10-19T13:11:44Z</time>
      </trkpt>
      <trkpt lat="46.75767" lon="5.61575">
        <ele>254</ele>
        <time>2017-10-19T13:11:53Z</time>
      </trkpt>
      <trkpt lat="46.75768" lon="5.61567">
        <ele>254</ele>
        <time>2017-10-19T13:11:58Z</time>
      </trkpt>
      <trkpt lat="46.75771" lon="5.61562">
        <ele>254</ele>
        <time>2017-10-19T13:12:02Z</time>
      </trkpt>
      <trkpt lat="46.75775" lon="5.61557">
        <ele>254</ele>
        <time>2017-10-19T13:12:06Z</time>
      </trkpt>
      <trkpt lat="46.7578" lon="5.61555">
        <ele>255</ele>
        <time>2017-10-19T13:12:12Z</time>
      </trkpt>
      <trkpt lat="46.75783" lon="5.6156">
        <ele>255</ele>
        <time>2017-10-19T13:12:17Z</time>
      </trkpt>
      <trkpt lat="46.75794" lon="5.6156">
        <ele>254</ele>
        <time>2017-10-19T13:12:29Z</time>
      </trkpt>
      <trkpt lat="46.75803" lon="5.61564">
        <ele>254</ele>
        <time>2017-10-19T13:12:38Z</time>
      </trkpt>
      <trkpt lat="46.75822" lon="5.6156">
        <ele>254</ele>
        <time>2017-10-19T13:12:55Z</time>
      </trkpt>
      <trkpt lat="46.75841" lon="5.61552">
        <ele>253</ele>
        <time>2017-10-19T13:13:12Z</time>
      </trkpt>
      <trkpt lat="46.75846" lon="5.61549">
        <ele>253</ele>
        <time>2017-10-19T13:13:15Z</time>
      </trkpt>
      <trkpt lat="46.75884" lon="5.61532">
        <ele>252</ele>
        <time>2017-10-19T13:13:48Z</time>
      </trkpt>
      <trkpt lat="46.75896" lon="5.61522">
        <ele>252</ele>
        <time>2017-10-19T13:14:01Z</time>
      </trkpt>
      <trkpt lat="46.75916" lon="5.61507">
        <ele>253</ele>
        <time>2017-10-19T13:14:29Z</time>
      </trkpt>
      <trkpt lat="46.75919" lon="5.61501">
        <ele>253</ele>
        <time>2017-10-19T13:14:36Z</time>
      </trkpt>
      <trkpt lat="46.75933" lon="5.61492">
        <ele>253</ele>
        <time>2017-10-19T13:14:50Z</time>
      </trkpt>
      <trkpt lat="46.75944" lon="5.61489">
        <ele>253</ele>
        <time>2017-10-19T13:15:06Z</time>
      </trkpt>
      <trkpt lat="46.75948" lon="5.61485">
        <ele>253</ele>
        <time>2017-10-19T13:15:11Z</time>
      </trkpt>
      <trkpt lat="46.75955" lon="5.61486">
        <ele>254</ele>
        <time>2017-10-19T13:15:21Z</time>
      </trkpt>
      <trkpt lat="46.7596" lon="5.61483">
        <ele>254</ele>
        <time>2017-10-19T13:15:25Z</time>
      </trkpt>
      <trkpt lat="46.75965" lon="5.61483">
        <ele>254</ele>
        <time>2017-10-19T13:15:29Z</time>
      </trkpt>
      <trkpt lat="46.7597" lon="5.61484">
        <ele>254</ele>
        <time>2017-10-19T13:15:34Z</time>
      </trkpt>
      <trkpt lat="46.75974" lon="5.61481">
        <ele>254</ele>
        <time>2017-10-19T13:15:38Z</time>
      </trkpt>
      <trkpt lat="46.75979" lon="5.61478">
        <ele>254</ele>
        <time>2017-10-19T13:15:43Z</time>
      </trkpt>
      <trkpt lat="46.75982" lon="5.61472">
        <ele>254</ele>
        <time>2017-10-19T13:15:56Z</time>
      </trkpt>
      <trkpt lat="46.75984" lon="5.61465">
        <ele>254</ele>
        <time>2017-10-19T13:16:01Z</time>
      </trkpt>
      <trkpt lat="46.75985" lon="5.61445">
        <ele>254</ele>
        <time>2017-10-19T13:16:13Z</time>
      </trkpt>
      <trkpt lat="46.75984" lon="5.61431">
        <ele>255</ele>
        <time>2017-10-19T13:16:22Z</time>
      </trkpt>
      <trkpt lat="46.75981" lon="5.61425">
        <ele>255</ele>
        <time>2017-10-19T13:16:25Z</time>
      </trkpt>
      <trkpt lat="46.75981" lon="5.61418">
        <ele>254</ele>
        <time>2017-10-19T13:16:30Z</time>
      </trkpt>
      <trkpt lat="46.7599" lon="5.61386">
        <ele>254</ele>
        <time>2017-10-19T13:16:54Z</time>
      </trkpt>
      <trkpt lat="46.75989" lon="5.61357">
        <ele>254</ele>
        <time>2017-10-19T13:17:10Z</time>
      </trkpt>
      <trkpt lat="46.7599" lon="5.61349">
        <ele>253</ele>
        <time>2017-10-19T13:17:15Z</time>
      </trkpt>
      <trkpt lat="46.75992" lon="5.61343">
        <ele>253</ele>
        <time>2017-10-19T13:17:19Z</time>
      </trkpt>
      <trkpt lat="46.75993" lon="5.61336">
        <ele>252</ele>
        <time>2017-10-19T13:17:23Z</time>
      </trkpt>
      <trkpt lat="46.75996" lon="5.61322">
        <ele>252</ele>
        <time>2017-10-19T13:17:31Z</time>
      </trkpt>
      <trkpt lat="46.76001" lon="5.6131">
        <ele>252</ele>
        <time>2017-10-19T13:17:40Z</time>
      </trkpt>
      <trkpt lat="46.76013" lon="5.61284">
        <ele>251</ele>
        <time>2017-10-19T13:17:58Z</time>
      </trkpt>
      <trkpt lat="46.76016" lon="5.61279">
        <ele>252</ele>
        <time>2017-10-19T13:18:02Z</time>
      </trkpt>
      <trkpt lat="46.7602" lon="5.61276">
        <ele>252</ele>
        <time>2017-10-19T13:18:06Z</time>
      </trkpt>
      <trkpt lat="46.76024" lon="5.61271">
        <ele>252</ele>
        <time>2017-10-19T13:18:10Z</time>
      </trkpt>
      <trkpt lat="46.76037" lon="5.61256">
        <ele>250</ele>
        <time>2017-10-19T13:18:24Z</time>
      </trkpt>
      <trkpt lat="46.76053" lon="5.61237">
        <ele>250</ele>
        <time>2017-10-19T13:18:40Z</time>
      </trkpt>
      <trkpt lat="46.76061" lon="5.61226">
        <ele>250</ele>
        <time>2017-10-19T13:18:48Z</time>
      </trkpt>
      <trkpt lat="46.76063" lon="5.6122">
        <ele>250</ele>
        <time>2017-10-19T13:18:52Z</time>
      </trkpt>
      <trkpt lat="46.76068" lon="5.61207">
        <ele>251</ele>
        <time>2017-10-19T13:19:01Z</time>
      </trkpt>
      <trkpt lat="46.76074" lon="5.61195">
        <ele>252</ele>
        <time>2017-10-19T13:19:09Z</time>
      </trkpt>
      <trkpt lat="46.7609" lon="5.61163">
        <ele>251</ele>
        <time>2017-10-19T13:19:33Z</time>
      </trkpt>
      <trkpt lat="46.76108" lon="5.61136">
        <ele>252</ele>
        <time>2017-10-19T13:19:54Z</time>
      </trkpt>
      <trkpt lat="46.76112" lon="5.61131">
        <ele>251</ele>
        <time>2017-10-19T13:19:58Z</time>
      </trkpt>
      <trkpt lat="46.76116" lon="5.61125">
        <ele>251</ele>
        <time>2017-10-19T13:20:03Z</time>
      </trkpt>
      <trkpt lat="46.76131" lon="5.61107">
        <ele>252</ele>
        <time>2017-10-19T13:20:21Z</time>
      </trkpt>
      <trkpt lat="46.76135" lon="5.61104">
        <ele>252</ele>
        <time>2017-10-19T13:20:25Z</time>
      </trkpt>
      <trkpt lat="46.76139" lon="5.61101">
        <ele>252</ele>
        <time>2017-10-19T13:20:31Z</time>
      </trkpt>
      <trkpt lat="46.76143" lon="5.61095">
        <ele>252</ele>
        <time>2017-10-19T13:20:37Z</time>
      </trkpt>
      <trkpt lat="46.76147" lon="5.61091">
        <ele>253</ele>
        <time>2017-10-19T13:20:41Z</time>
      </trkpt>
      <trkpt lat="46.76158" lon="5.61076">
        <ele>253</ele>
        <time>2017-10-19T13:20:51Z</time>
      </trkpt>
      <trkpt lat="46.7616" lon="5.61071">
        <ele>253</ele>
        <time>2017-10-19T13:20:55Z</time>
      </trkpt>
      <trkpt lat="46.76163" lon="5.61065">
        <ele>253</ele>
        <time>2017-10-19T13:20:59Z</time>
      </trkpt>
      <trkpt lat="46.76179" lon="5.61041">
        <ele>251</ele>
        <time>2017-10-19T13:21:23Z</time>
      </trkpt>
      <trkpt lat="46.76183" lon="5.61038">
        <ele>251</ele>
        <time>2017-10-19T13:21:28Z</time>
      </trkpt>
      <trkpt lat="46.76203" lon="5.61032">
        <ele>254</ele>
        <time>2017-10-19T13:21:49Z</time>
      </trkpt>
      <trkpt lat="46.76213" lon="5.61027">
        <ele>254</ele>
        <time>2017-10-19T13:21:58Z</time>
      </trkpt>
      <trkpt lat="46.76227" lon="5.61018">
        <ele>253</ele>
        <time>2017-10-19T13:22:07Z</time>
      </trkpt>
      <trkpt lat="46.76249" lon="5.60989">
        <ele>254</ele>
        <time>2017-10-19T13:22:30Z</time>
      </trkpt>
      <trkpt lat="46.76257" lon="5.60981">
        <ele>255</ele>
        <time>2017-10-19T13:22:39Z</time>
      </trkpt>
      <trkpt lat="46.76262" lon="5.6097">
        <ele>256</ele>
        <time>2017-10-19T13:22:47Z</time>
      </trkpt>
      <trkpt lat="46.76289" lon="5.60927">
        <ele>255</ele>
        <time>2017-10-19T13:23:18Z</time>
      </trkpt>
      <trkpt lat="46.76302" lon="5.60903">
        <ele>253</ele>
        <time>2017-10-19T13:23:35Z</time>
      </trkpt>
      <trkpt lat="46.76311" lon="5.60885">
        <ele>255</ele>
        <time>2017-10-19T13:23:48Z</time>
      </trkpt>
      <trkpt lat="46.76315" lon="5.60879">
        <ele>254</ele>
        <time>2017-10-19T13:23:53Z</time>
      </trkpt>
      <trkpt lat="46.76318" lon="5.60873">
        <ele>254</ele>
        <time>2017-10-19T13:23:57Z</time>
      </trkpt>
      <trkpt lat="46.76321" lon="5.60868">
        <ele>255</ele>
        <time>2017-10-19T13:24:01Z</time>
      </trkpt>
      <trkpt lat="46.76328" lon="5.60856">
        <ele>256</ele>
        <time>2017-10-19T13:24:08Z</time>
      </trkpt>
      <trkpt lat="46.76335" lon="5.60845">
        <ele>256</ele>
        <time>2017-10-19T13:24:15Z</time>
      </trkpt>
      <trkpt lat="46.76352" lon="5.60818">
        <ele>254</ele>
        <time>2017-10-19T13:24:35Z</time>
      </trkpt>
      <trkpt lat="46.76361" lon="5.60809">
        <ele>253</ele>
        <time>2017-10-19T13:24:44Z</time>
      </trkpt>
      <trkpt lat="46.76376" lon="5.60788">
        <ele>253</ele>
        <time>2017-10-19T13:25:00Z</time>
      </trkpt>
      <trkpt lat="46.76381" lon="5.60785">
        <ele>253</ele>
        <time>2017-10-19T13:25:05Z</time>
      </trkpt>
      <trkpt lat="46.76386" lon="5.60781">
        <ele>253</ele>
        <time>2017-10-19T13:25:09Z</time>
      </trkpt>
      <trkpt lat="46.76398" lon="5.60767">
        <ele>255</ele>
        <time>2017-10-19T13:25:24Z</time>
      </trkpt>
      <trkpt lat="46.76406" lon="5.60759">
        <ele>255</ele>
        <time>2017-10-19T13:25:32Z</time>
      </trkpt>
      <trkpt lat="46.76411" lon="5.60756">
        <ele>255</ele>
        <time>2017-10-19T13:25:36Z</time>
      </trkpt>
      <trkpt lat="46.76415" lon="5.60756">
        <ele>254</ele>
        <time>2017-10-19T13:25:39Z</time>
      </trkpt>
      <trkpt lat="46.76429" lon="5.60746">
        <ele>252</ele>
        <time>2017-10-19T13:25:49Z</time>
      </trkpt>
      <trkpt lat="46.76433" lon="5.60742">
        <ele>252</ele>
        <time>2017-10-19T13:25:53Z</time>
      </trkpt>
      <trkpt lat="46.76438" lon="5.60736">
        <ele>252</ele>
        <time>2017-10-19T13:25:57Z</time>
      </trkpt>
      <trkpt lat="46.76453" lon="5.60717">
        <ele>255</ele>
        <time>2017-10-19T13:26:15Z</time>
      </trkpt>
      <trkpt lat="46.76457" lon="5.60712">
        <ele>256</ele>
        <time>2017-10-19T13:26:19Z</time>
      </trkpt>
      <trkpt lat="46.7647" lon="5.60692">
        <ele>256</ele>
        <time>2017-10-19T13:26:34Z</time>
      </trkpt>
      <trkpt lat="46.76477" lon="5.60682">
        <ele>254</ele>
        <time>2017-10-19T13:26:43Z</time>
      </trkpt>
      <trkpt lat="46.76481" lon="5.60677">
        <ele>255</ele>
        <time>2017-10-19T13:26:47Z</time>
      </trkpt>
      <trkpt lat="46.76486" lon="5.60672">
        <ele>254</ele>
        <time>2017-10-19T13:26:50Z</time>
      </trkpt>
      <trkpt lat="46.7649" lon="5.60666">
        <ele>254</ele>
        <time>2017-10-19T13:26:54Z</time>
      </trkpt>
      <trkpt lat="46.76493" lon="5.60661">
        <ele>254</ele>
        <time>2017-10-19T13:26:57Z</time>
      </trkpt>
      <trkpt lat="46.76499" lon="5.60651">
        <ele>254</ele>
        <time>2017-10-19T13:27:05Z</time>
      </trkpt>
      <trkpt lat="46.76508" lon="5.60633">
        <ele>252</ele>
        <time>2017-10-19T13:27:18Z</time>
      </trkpt>
      <trkpt lat="46.76512" lon="5.60628">
        <ele>252</ele>
        <time>2017-10-19T13:27:22Z</time>
      </trkpt>
      <trkpt lat="46.76524" lon="5.60612">
        <ele>250</ele>
        <time>2017-10-19T13:27:35Z</time>
      </trkpt>
      <trkpt lat="46.76527" lon="5.60605">
        <ele>249</ele>
        <time>2017-10-19T13:27:39Z</time>
      </trkpt>
      <trkpt lat="46.76538" lon="5.6059">
        <ele>247</ele>
        <time>2017-10-19T13:27:51Z</time>
      </trkpt>
      <trkpt lat="46.76545" lon="5.6058">
        <ele>247</ele>
        <time>2017-10-19T13:27:58Z</time>
      </trkpt>
      <trkpt lat="46.76548" lon="5.60573">
        <ele>247</ele>
        <time>2017-10-19T13:28:02Z</time>
      </trkpt>
      <trkpt lat="46.76552" lon="5.60558">
        <ele>248</ele>
        <time>2017-10-19T13:28:12Z</time>
      </trkpt>
      <trkpt lat="46.76563" lon="5.60532">
        <ele>246</ele>
        <time>2017-10-19T13:28:27Z</time>
      </trkpt>
      <trkpt lat="46.76568" lon="5.60519">
        <ele>247</ele>
        <time>2017-10-19T13:28:36Z</time>
      </trkpt>
      <trkpt lat="46.76578" lon="5.60491">
        <ele>247</ele>
        <time>2017-10-19T13:28:51Z</time>
      </trkpt>
      <trkpt lat="46.7659" lon="5.60456">
        <ele>251</ele>
        <time>2017-10-19T13:29:12Z</time>
      </trkpt>
      <trkpt lat="46.76604" lon="5.60426">
        <ele>251</ele>
        <time>2017-10-19T13:29:30Z</time>
      </trkpt>
      <trkpt lat="46.76612" lon="5.60405">
        <ele>250</ele>
        <time>2017-10-19T13:29:42Z</time>
      </trkpt>
      <trkpt lat="46.76618" lon="5.60385">
        <ele>250</ele>
        <time>2017-10-19T13:29:54Z</time>
      </trkpt>
      <trkpt lat="46.76624" lon="5.60361">
        <ele>247</ele>
        <time>2017-10-19T13:30:06Z</time>
      </trkpt>
      <trkpt lat="46.76629" lon="5.6034">
        <ele>247</ele>
        <time>2017-10-19T13:30:18Z</time>
      </trkpt>
      <trkpt lat="46.76644" lon="5.60285">
        <ele>244</ele>
        <time>2017-10-19T13:30:49Z</time>
      </trkpt>
      <trkpt lat="46.76655" lon="5.60252">
        <ele>244</ele>
        <time>2017-10-19T13:31:08Z</time>
      </trkpt>
      <trkpt lat="46.76661" lon="5.60225">
        <ele>245</ele>
        <time>2017-10-19T13:31:24Z</time>
      </trkpt>
      <trkpt lat="46.76672" lon="5.60198">
        <ele>245</ele>
        <time>2017-10-19T13:31:40Z</time>
      </trkpt>
      <trkpt lat="46.76674" lon="5.60191">
        <ele>244</ele>
        <time>2017-10-19T13:31:44Z</time>
      </trkpt>
      <trkpt lat="46.76676" lon="5.60183">
        <ele>244</ele>
        <time>2017-10-19T13:31:48Z</time>
      </trkpt>
      <trkpt lat="46.76684" lon="5.60162">
        <ele>245</ele>
        <time>2017-10-19T13:32:02Z</time>
      </trkpt>
      <trkpt lat="46.76692" lon="5.60133">
        <ele>244</ele>
        <time>2017-10-19T13:32:18Z</time>
      </trkpt>
      <trkpt lat="46.76695" lon="5.60126">
        <ele>244</ele>
        <time>2017-10-19T13:32:22Z</time>
      </trkpt>
      <trkpt lat="46.76699" lon="5.60113">
        <ele>244</ele>
        <time>2017-10-19T13:32:30Z</time>
      </trkpt>
      <trkpt lat="46.76703" lon="5.60099">
        <ele>244</ele>
        <time>2017-10-19T13:32:38Z</time>
      </trkpt>
      <trkpt lat="46.76705" lon="5.60092">
        <ele>244</ele>
        <time>2017-10-19T13:32:42Z</time>
      </trkpt>
      <trkpt lat="46.76712" lon="5.60073">
        <ele>245</ele>
        <time>2017-10-19T13:32:54Z</time>
      </trkpt>
      <trkpt lat="46.76715" lon="5.60067">
        <ele>244</ele>
        <time>2017-10-19T13:32:58Z</time>
      </trkpt>
      <trkpt lat="46.76717" lon="5.6006">
        <ele>244</ele>
        <time>2017-10-19T13:33:03Z</time>
      </trkpt>
      <trkpt lat="46.76719" lon="5.60053">
        <ele>244</ele>
        <time>2017-10-19T13:33:08Z</time>
      </trkpt>
      <trkpt lat="46.76719" lon="5.60046">
        <ele>245</ele>
        <time>2017-10-19T13:33:13Z</time>
      </trkpt>
      <trkpt lat="46.76719" lon="5.60038">
        <ele>244</ele>
        <time>2017-10-19T13:33:18Z</time>
      </trkpt>
      <trkpt lat="46.7672" lon="5.6003">
        <ele>244</ele>
        <time>2017-10-19T13:33:23Z</time>
      </trkpt>
      <trkpt lat="46.76719" lon="5.60022">
        <ele>244</ele>
        <time>2017-10-19T13:33:28Z</time>
      </trkpt>
      <trkpt lat="46.76713" lon="5.60021">
        <ele>244</ele>
        <time>2017-10-19T13:33:46Z</time>
      </trkpt>
    </trkseg>
  </trk>
</gpx>